Darstellungsparameter: Aktuell verwendete Einstellungen:
Skalierung der Graphiken ... ?
xyx+y,   Skalierungsfaktor:      Skalierung: Modus: x, Faktor: 1
Darstellungszeitraum ... ?
Vom - - bis: - -   Zeitraum: 25.07.2010 - 24.08.2010
Min/Max/Avg-Anzeige ... ?
Zeige MMA aktuell
Zeige MMA Monat
Zeige MMA alles
Zeige --A aktuell
Zeige --A Monat
Zeige --A alles
Keine MMA-Anzeige
MMA:
Average (ber die Originaldaten)
MMA-Basis: 25.07.2010 - 24.08.2010
Quicknavigation für Darstellung... ?
Tage:      1T, 2T, 3T, 5T -1T -2T -3T -5T +1T +2T +3T +5T
Wochen: 1W, 2W, 3W -1W -2W -3W +1W +2W +3W
Monate: 1M, 3M, 6M -1M -3M -6M +1M +3M +6M
Jahre:    1J, 3J, 5J, 10J -1J -3J -5J -10J +1J +3J +5J +10J
Nutze für die Darstellung ... ?
Originaldaten oder Mittelwerte auf ...
Stundenbasis Tagesbasis Wochenbasis
Monatsbasis Jahresbasis      Datenbasis: Original-Daten
Darstellen als:
Statistik (Auto) Statistik J:M      Darstellung:
Zur Graphik,    zurück zur Übersicht aller Sensoren.
 
Tabellarische Datenbersicht: ?
 
Sensor: Nr:Datum:Temp:Abs-Feuchte:Windchill:Wind:
Aussen-T/F 1 25-07-2010 00:01:02 15 C 6.41 g/m*3 15 C 0 km/h
2 25-07-2010 00:13:02 14.8 C 6.71 g/m*3 14.8 C 0 km/h
3 25-07-2010 00:25:02 14.6 C 6.76 g/m*3 14.6 C 0 km/h
4 25-07-2010 00:37:02 14.2 C 6.47 g/m*3 14.2 C 0 km/h
5 25-07-2010 00:49:02 14.1 C 6.55 g/m*3 14.1 C 0 km/h
6 25-07-2010 01:01:02 13.8 C 6.79 g/m*3 13.8 C 0 km/h
7 25-07-2010 01:13:03 13.7 C 6.87 g/m*3 13.7 C 0 km/h
8 25-07-2010 01:25:03 13.5 C 6.78 g/m*3 13.5 C 0 km/h
9 25-07-2010 01:37:03 13.3 C 6.82 g/m*3 13.3 C 0 km/h
10 25-07-2010 01:49:03 13.2 C 6.77 g/m*3 13.2 C 0 km/h
11 25-07-2010 02:01:03 13.1 C 6.96 g/m*3 13.1 C 0 km/h
12 25-07-2010 02:13:03 12.9 C 6.99 g/m*3 12.9 C 0 km/h
13 25-07-2010 02:25:03 12.7 C 7.01 g/m*3 12.7 C 0 km/h
14 25-07-2010 02:37:03 12.5 C 6.93 g/m*3 12.5 C 0 km/h
15 25-07-2010 02:49:03 12.3 C 6.95 g/m*3 12.3 C 0 km/h
16 25-07-2010 03:01:03 12.2 C 7.01 g/m*3 12.2 C 0 km/h
17 25-07-2010 03:13:03 12 C 7.14 g/m*3 12 C 0 km/h
18 25-07-2010 03:25:03 11.8 C 7.05 g/m*3 11.8 C 0 km/h
19 25-07-2010 03:37:03 11.8 C 7.05 g/m*3 11.8 C 0 km/h
20 25-07-2010 03:49:03 11.5 C 7.02 g/m*3 11.5 C 0 km/h
21 25-07-2010 04:01:03 11.3 C 7.14 g/m*3 11.3 C 0 km/h
22 25-07-2010 04:13:03 11.1 C 7.25 g/m*3 11.1 C 0 km/h
23 25-07-2010 04:25:03 11 C 7.31 g/m*3 11 C 0 km/h
24 25-07-2010 04:37:03 10.8 C 7.41 g/m*3 10.8 C 0 km/h
25 25-07-2010 04:49:03 10.6 C 7.42 g/m*3 10.6 C 0 km/h
Sensor: Nr:Datum:Temp:Abs-Feuchte:Windchill:Wind:
Aussen-T/F 26 25-07-2010 05:01:03 10.5 C 7.47 g/m*3 10.5 C 0 km/h
27 25-07-2010 05:13:03 10.3 C 7.37 g/m*3 10.3 C 0 km/h
28 25-07-2010 05:25:03 10.1 C 7.38 g/m*3 10.1 C 0 km/h
29 25-07-2010 05:37:04 10 C 7.33 g/m*3 10 C 0 km/h
30 25-07-2010 05:49:04 9.9 C 7.38 g/m*3 9.9 C 0 km/h
31 25-07-2010 06:01:04 10 C 7.33 g/m*3 10 C 0 km/h
32 25-07-2010 06:13:04 10 C 7.42 g/m*3 10 C 0 km/h
33 25-07-2010 06:25:04 10 C 7.42 g/m*3 10 C 0 km/h
34 25-07-2010 06:37:04 10 C 7.42 g/m*3 10 C 0 km/h
35 25-07-2010 06:49:04 10.2 C 7.42 g/m*3 10.2 C 0 km/h
36 25-07-2010 07:01:04 10.3 C 7.47 g/m*3 10.3 C 0 km/h
37 25-07-2010 07:13:04 10.7 C 7.56 g/m*3 10.7 C 0 km/h
38 25-07-2010 07:25:04 11 C 7.61 g/m*3 11 C 0 km/h
39 25-07-2010 07:37:04 11.2 C 7.5 g/m*3 11.2 C 0 km/h
40 25-07-2010 07:49:04 11.4 C 7.6 g/m*3 11.4 C 0 km/h
41 25-07-2010 08:01:04 11.5 C 7.75 g/m*3 11.5 C 0 km/h
42 25-07-2010 08:13:04 11.5 C 7.95 g/m*3 11.5 C 0 km/h
43 25-07-2010 08:25:04 12 C 7.99 g/m*3 12 C 0 km/h
44 25-07-2010 08:37:04 12.5 C 7.92 g/m*3 12.5 C 0 km/h
45 25-07-2010 08:49:04 13.1 C 7.87 g/m*3 13.1 C 0 km/h
46 25-07-2010 09:01:04 13.8 C 7.86 g/m*3 13.8 C 0 km/h
47 25-07-2010 09:13:04 14.3 C 7.49 g/m*3 14.3 C 0 km/h
48 25-07-2010 09:25:04 14.8 C 7.6 g/m*3 14.8 C 0 km/h
49 25-07-2010 09:37:04 15.6 C 7.58 g/m*3 15.6 C 0 km/h
50 25-07-2010 09:49:02 16.2 C 7.45 g/m*3 16.2 C 0 km/h
Sensor: Nr:Datum:Temp:Abs-Feuchte:Windchill:Wind:
Aussen-T/F 51 25-07-2010 10:01:02 16.6 C 7.2 g/m*3 16.6 C 0 km/h
52 25-07-2010 10:13:02 17.5 C 7.01 g/m*3 17.5 C 0 km/h
53 25-07-2010 10:25:02 17.8 C 6.68 g/m*3 17.8 C 0 km/h
54 25-07-2010 10:37:02 18.4 C 6.45 g/m*3 18.4 C 0 km/h
55 25-07-2010 10:49:02 18.7 C 6.4 g/m*3 18.7 C 0 km/h
56 25-07-2010 11:01:02 19.3 C 6.3 g/m*3 19.3 C 0 km/h
57 25-07-2010 11:13:02 20.9 C 6.37 g/m*3 20.9 C 0 km/h
58 25-07-2010 11:25:03 21.2 C 5.93 g/m*3 21.2 C 0 km/h
59 25-07-2010 11:37:02 21.2 C 5.93 g/m*3 21.2 C 0 km/h
60 25-07-2010 11:49:03 21.7 C 6.1 g/m*3 21.7 C 0 km/h
61 25-07-2010 12:01:02 21.5 C 6.03 g/m*3 21.5 C 0 km/h
62 25-07-2010 12:13:03 22.3 C 6.12 g/m*3 22.3 C 0 km/h
63 25-07-2010 12:25:02 23.2 C 5.82 g/m*3 23.2 C 0 km/h
64 25-07-2010 12:37:02 24.2 C 5.72 g/m*3 24.2 C 0 km/h
65 25-07-2010 12:49:02 23.5 C 5.71 g/m*3 23.5 C 0 km/h
66 25-07-2010 13:01:02 23.5 C 6.13 g/m*3 23.5 C 0 km/h
67 25-07-2010 13:13:02 23.3 C 6.06 g/m*3 23.3 C 0 km/h
68 25-07-2010 13:25:03 23.2 C 6.24 g/m*3 23.2 C 0 km/h
69 25-07-2010 13:37:02 23.5 C 6.34 g/m*3 23.5 C 0 km/h
70 25-07-2010 13:49:03 23.4 C 6.31 g/m*3 23.4 C 0 km/h
71 25-07-2010 14:01:02 23.2 C 6.44 g/m*3 23.2 C 0 km/h
72 25-07-2010 14:13:02 22.6 C 7.43 g/m*3 22.6 C 0 km/h
73 25-07-2010 14:25:02 21.5 C 6.79 g/m*3 21.5 C 0 km/h
74 25-07-2010 14:37:02 21.6 C 7.21 g/m*3 21.6 C 0 km/h
75 25-07-2010 14:49:02 22.1 C 6.83 g/m*3 22.1 C 0 km/h
Sensor: Nr:Datum:Temp:Abs-Feuchte:Windchill:Wind:
Aussen-T/F 76 25-07-2010 15:01:02 22.2 C 6.87 g/m*3 22.2 C 0 km/h
77 25-07-2010 15:13:02 22.2 C 6.68 g/m*3 22.2 C 0 km/h
78 25-07-2010 15:25:02 21.6 C 6.83 g/m*3 21.6 C 0 km/h
79 25-07-2010 15:37:01 21 C 7.14 g/m*3 21 C 0 km/h
80 25-07-2010 15:49:02 20.9 C 7.47 g/m*3 20.9 C 0 km/h
81 25-07-2010 16:01:01 21.6 C 7.21 g/m*3 21.6 C 0 km/h
82 25-07-2010 16:13:01 21.9 C 7.14 g/m*3 21.9 C 0 km/h
83 25-07-2010 16:25:02 22.1 C 6.83 g/m*3 22.1 C 0 km/h
84 25-07-2010 16:37:02 22.1 C 7.03 g/m*3 22.1 C 0 km/h
85 25-07-2010 16:49:02 22.2 C 7.46 g/m*3 22.2 C 0 km/h
86 25-07-2010 17:01:03 23.5 C 6.77 g/m*3 23.5 C 0 km/h
87 25-07-2010 17:13:03 23.7 C 6.63 g/m*3 23.7 C 0 km/h
88 25-07-2010 17:25:02 23.3 C 6.69 g/m*3 23.3 C 0 km/h
89 25-07-2010 17:37:02 23.4 C 6.31 g/m*3 23.4 C 0 km/h
90 25-07-2010 17:49:01 23.1 C 6.61 g/m*3 23.1 C 0 km/h
91 25-07-2010 18:01:02 22.8 C 7.32 g/m*3 22.8 C 0 km/h
92 25-07-2010 18:13:02 22.5 C 7.39 g/m*3 22.5 C 0 km/h
93 25-07-2010 18:25:01 22.4 C 7.35 g/m*3 22.4 C 0 km/h
94 25-07-2010 18:37:01 22 C 7.57 g/m*3 22 C 0 km/h
95 25-07-2010 18:49:01 21.6 C 7.97 g/m*3 21.6 C 0 km/h
96 25-07-2010 19:01:02 21.3 C 8.2 g/m*3 21.3 C 0 km/h
97 25-07-2010 19:13:02 20.9 C 8.2 g/m*3 20.9 C 0 km/h
98 25-07-2010 19:25:02 20.6 C 8.59 g/m*3 20.6 C 0 km/h
99 25-07-2010 19:37:01 20.6 C 7.34 g/m*3 20.6 C 0 km/h
100 25-07-2010 19:49:01 20.6 C 7.16 g/m*3 20.6 C 0 km/h
Sensor: Nr:Datum:Temp:Abs-Feuchte:Windchill:Wind:
Aussen-T/F 101 25-07-2010 20:01:01 20.6 C 7.34 g/m*3 20.6 C 0 km/h
102 25-07-2010 20:13:01 20.5 C 7.3 g/m*3 20.5 C 0 km/h
103 25-07-2010 20:25:02 20.4 C 7.43 g/m*3 20.4 C 0 km/h
104 25-07-2010 20:37:01 19.9 C 8.08 g/m*3 19.9 C 0 km/h
105 25-07-2010 20:49:02 19.4 C 8.84 g/m*3 19.4 C 0 km/h
106 25-07-2010 21:01:01 19.1 C 9.18 g/m*3 19.1 C 0 km/h
107 25-07-2010 21:13:01 19.2 C 9.23 g/m*3 19.2 C 0 km/h
108 25-07-2010 21:25:02 19.1 C 9.51 g/m*3 19.1 C 0 km/h
109 25-07-2010 21:37:01 19.1 C 9.51 g/m*3 19.1 C 0 km/h
110 25-07-2010 21:49:01 18.9 C 9.72 g/m*3 18.9 C 0 km/h
111 25-07-2010 22:01:01 18.8 C 9.82 g/m*3 18.8 C 0 km/h
112 25-07-2010 22:13:01 18.5 C 9.97 g/m*3 18.5 C 0 km/h
113 25-07-2010 22:26:02 18.3 C 10.16 g/m*3 18.3 C 0 km/h
114 25-07-2010 22:38:02 18.2 C 10.41 g/m*3 18.2 C 0 km/h
115 25-07-2010 22:50:02 18.1 C 10.51 g/m*3 18.1 C 0 km/h
116 25-07-2010 23:02:03 17.9 C 10.54 g/m*3 17.9 C 0 km/h
117 25-07-2010 23:14:03 18 C 10.29 g/m*3 18 C 0 km/h
118 25-07-2010 23:26:03 17.9 C 10.23 g/m*3 17.9 C 0 km/h
119 25-07-2010 23:38:03 17.8 C 10.17 g/m*3 17.8 C 0 km/h
120 25-07-2010 23:50:03 17.8 C 10.17 g/m*3 17.8 C 0 km/h
121 26-07-2010 00:02:03 17.6 C 9.9 g/m*3 17.6 C 0 km/h
122 26-07-2010 00:14:03 17.6 C 9.9 g/m*3 17.6 C 0 km/h
123 26-07-2010 00:26:03 17.6 C 9.9 g/m*3 17.6 C 0 km/h
124 26-07-2010 00:38:03 17.6 C 10.05 g/m*3 17.6 C 0 km/h
125 26-07-2010 00:50:03 17.4 C 9.93 g/m*3 17.4 C 0 km/h
Sensor: Nr:Datum:Temp:Abs-Feuchte:Windchill:Wind:
Aussen-T/F 126 26-07-2010 01:02:03 17.3 C 9.87 g/m*3 17.3 C 0 km/h
127 26-07-2010 01:14:03 17.2 C 9.96 g/m*3 17.2 C 0 km/h
128 26-07-2010 01:26:03 17.2 C 9.96 g/m*3 17.2 C 0 km/h
129 26-07-2010 01:38:03 17.3 C 10.02 g/m*3 17.3 C 0 km/h
130 26-07-2010 01:50:03 17.3 C 10.16 g/m*3 17.3 C 0 km/h
131 26-07-2010 02:02:03 17 C 9.98 g/m*3 17 C 0 km/h
132 26-07-2010 02:14:03 16.9 C 10.07 g/m*3 16.9 C 0 km/h
133 26-07-2010 02:26:03 16.8 C 10.01 g/m*3 16.8 C 0 km/h
134 26-07-2010 02:38:03 16.8 C 10.15 g/m*3 16.8 C 0 km/h
135 26-07-2010 02:50:03 16.5 C 9.97 g/m*3 16.5 C 0 km/h
136 26-07-2010 03:02:03 16.4 C 10.05 g/m*3 16.4 C 0 km/h
137 26-07-2010 03:14:03 16.4 C 10.19 g/m*3 16.4 C 0 km/h
138 26-07-2010 03:26:03 16.4 C 10.33 g/m*3 16.4 C 0 km/h
139 26-07-2010 03:38:04 16.4 C 10.33 g/m*3 16.4 C 0 km/h
140 26-07-2010 03:50:04 16.5 C 10.11 g/m*3 16.5 C 0 km/h
141 26-07-2010 04:02:04 16.6 C 10.17 g/m*3 16.6 C 0 km/h
142 26-07-2010 04:14:04 16.4 C 10.47 g/m*3 16.4 C 0 km/h
143 26-07-2010 04:26:04 16.4 C 10.61 g/m*3 16.4 C 0 km/h
144 26-07-2010 04:38:04 16.1 C 10.69 g/m*3 16.1 C 0 km/h
145 26-07-2010 04:50:04 15.7 C 10.97 g/m*3 15.7 C 0 km/h
146 26-07-2010 05:02:04 15.6 C 11.04 g/m*3 15.6 C 0 km/h
147 26-07-2010 05:14:04 15.6 C 11.3 g/m*3 15.6 C 0 km/h
148 26-07-2010 05:26:04 15.5 C 11.37 g/m*3 15.5 C 0 km/h
149 26-07-2010 05:38:04 15.6 C 11.44 g/m*3 15.6 C 0 km/h
150 26-07-2010 05:50:04 15.3 C 11.23 g/m*3 15.3 C 0 km/h
Sensor: Nr:Datum:Temp:Abs-Feuchte:Windchill:Wind:
Aussen-T/F 151 26-07-2010 06:02:04 15.4 C 11.3 g/m*3 15.4 C 0 km/h
152 26-07-2010 06:14:04 15.4 C 11.43 g/m*3 15.4 C 0 km/h
153 26-07-2010 06:26:04 15.4 C 11.43 g/m*3 15.4 C 0 km/h
154 26-07-2010 06:38:04 15.4 C 11.56 g/m*3 15.4 C 0 km/h
155 26-07-2010 06:50:04 15.4 C 11.56 g/m*3 15.4 C 0 km/h
156 26-07-2010 07:02:02 15.7 C 11.91 g/m*3 15.7 C 0 km/h
157 26-07-2010 07:14:02 16 C 11.99 g/m*3 16 C 0 km/h
158 26-07-2010 07:26:03 16 C 11.99 g/m*3 16 C 0 km/h
159 26-07-2010 07:38:02 16.1 C 11.93 g/m*3 16.1 C 0 km/h
160 26-07-2010 07:50:02 16.3 C 11.93 g/m*3 16.3 C 0 km/h
161 26-07-2010 08:02:02 16.5 C 11.94 g/m*3 16.5 C 0 km/h
162 26-07-2010 08:14:02 16.6 C 11.87 g/m*3 16.6 C 0 km/h
163 26-07-2010 08:26:02 16.9 C 11.94 g/m*3 16.9 C 0 km/h
164 26-07-2010 08:38:02 17.5 C 12.08 g/m*3 17.5 C 0 km/h
165 26-07-2010 08:50:01 17.4 C 11.71 g/m*3 17.4 C 0 km/h
166 26-07-2010 09:02:02 17.8 C 11.84 g/m*3 17.8 C 0 km/h
167 26-07-2010 09:14:02 18.2 C 11.81 g/m*3 18.2 C 0 km/h
168 26-07-2010 09:26:01 18.3 C 11.57 g/m*3 18.3 C 0 km/h
169 26-07-2010 09:38:01 18.8 C 11.92 g/m*3 18.8 C 0 km/h
170 26-07-2010 09:50:02 18.8 C 11.43 g/m*3 18.8 C 0 km/h
171 26-07-2010 10:02:02 18.7 C 11.37 g/m*3 18.7 C 0 km/h
172 26-07-2010 10:14:02 19.1 C 10.98 g/m*3 19.1 C 0 km/h
173 26-07-2010 10:26:02 20.2 C 11.02 g/m*3 20.2 C 0 km/h
174 26-07-2010 10:38:02 21.1 C 10.32 g/m*3 21.1 C 0 km/h
175 26-07-2010 10:50:02 22.1 C 9.76 g/m*3 22.1 C 0 km/h
Sensor: Nr:Datum:Temp:Abs-Feuchte:Windchill:Wind:
Aussen-T/F 176 26-07-2010 11:02:01 21.8 C 9.78 g/m*3 21.8 C 0 km/h
177 26-07-2010 11:14:01 22.6 C 10.04 g/m*3 22.6 C 0 km/h
178 26-07-2010 11:26:02 22.5 C 9.59 g/m*3 22.5 C 0 km/h
179 26-07-2010 11:38:02 19.4 C 10.68 g/m*3 19.4 C 0 km/h
180 26-07-2010 11:50:02 18.4 C 12.11 g/m*3 18.4 C 0 km/h
181 26-07-2010 12:02:02 19.1 C 13.11 g/m*3 19.1 C 0 km/h
182 26-07-2010 12:14:02 19.5 C 12.59 g/m*3 19.5 C 0 km/h
183 26-07-2010 12:26:02 19.5 C 12.25 g/m*3 19.5 C 0 km/h
184 26-07-2010 12:38:02 18.5 C 12.18 g/m*3 18.5 C 0 km/h
185 26-07-2010 12:50:01 18.6 C 12.57 g/m*3 18.6 C 0 km/h
186 26-07-2010 13:02:01 19 C 13.04 g/m*3 19 C 0 km/h
187 26-07-2010 13:14:01 18.5 C 12.34 g/m*3 18.5 C 0 km/h
188 26-07-2010 13:26:01 18 C 12.44 g/m*3 18 C 0 km/h
189 26-07-2010 13:38:01 17.8 C 12.9 g/m*3 17.8 C 0 km/h
190 26-07-2010 13:50:01 17.5 C 12.82 g/m*3 17.5 C 0 km/h
191 26-07-2010 14:02:01 17.5 C 12.97 g/m*3 17.5 C 0 km/h
192 26-07-2010 14:14:01 17.7 C 13.43 g/m*3 17.7 C 0 km/h
193 26-07-2010 14:26:02 17.3 C 13.11 g/m*3 17.3 C 0 km/h
194 26-07-2010 14:38:01 17.1 C 13.1 g/m*3 17.1 C 0 km/h
195 26-07-2010 14:50:02 17.2 C 13.18 g/m*3 17.2 C 0 km/h
196 26-07-2010 15:02:02 17.4 C 13.49 g/m*3 17.4 C 0 km/h
197 26-07-2010 15:14:02 17.3 C 13.41 g/m*3 17.3 C 0 km/h
198 26-07-2010 15:26:02 17.6 C 13.65 g/m*3 17.6 C 0 km/h
199 26-07-2010 15:38:03 18.2 C 13.83 g/m*3 18.2 C 0 km/h
200 26-07-2010 15:50:02 19.1 C 14.1 g/m*3 19.1 C 0 km/h
Sensor: Nr:Datum:Temp:Abs-Feuchte:Windchill:Wind:
Aussen-T/F 201 26-07-2010 16:02:02 19.1 C 13.77 g/m*3 19.1 C 0 km/h
202 26-07-2010 16:14:02 19.5 C 13.26 g/m*3 19.5 C 0 km/h
203 26-07-2010 16:26:02 19.1 C 12.79 g/m*3 19.1 C 0 km/h
204 26-07-2010 16:38:02 19.5 C 13.43 g/m*3 19.5 C 0 km/h
205 26-07-2010 16:50:02 21.2 C 13.71 g/m*3 21.2 C 0 km/h
206 26-07-2010 17:02:02 21 C 12.64 g/m*3 21 C 0 km/h
207 26-07-2010 17:14:02 19.5 C 10.74 g/m*3 19.5 C 0 km/h
208 26-07-2010 17:26:02 18.7 C 10.73 g/m*3 18.7 C 0 km/h
209 26-07-2010 17:38:02 18.1 C 11.28 g/m*3 18.1 C 0 km/h
210 26-07-2010 17:50:02 18.1 C 11.28 g/m*3 18.1 C 0 km/h
211 26-07-2010 18:02:02 18.2 C 11.19 g/m*3 18.2 C 0 km/h
212 26-07-2010 18:14:02 17.3 C 11.05 g/m*3 17.3 C 0 km/h
213 26-07-2010 18:26:03 16.8 C 11.29 g/m*3 16.8 C 0 km/h
214 26-07-2010 18:38:02 16.8 C 11.44 g/m*3 16.8 C 0 km/h
215 26-07-2010 18:50:03 16.7 C 11.65 g/m*3 16.7 C 0 km/h
216 26-07-2010 19:02:02 16.8 C 11.72 g/m*3 16.8 C 0 km/h
217 26-07-2010 19:14:02 17.1 C 11.79 g/m*3 17.1 C 0 km/h
218 26-07-2010 19:26:02 17.1 C 11.65 g/m*3 17.1 C 0 km/h
219 26-07-2010 19:38:02 16.8 C 11.58 g/m*3 16.8 C 0 km/h
220 26-07-2010 19:50:02 16.8 C 11.29 g/m*3 16.8 C 0 km/h
221 26-07-2010 20:02:01 16.7 C 10.94 g/m*3 16.7 C 0 km/h
222 26-07-2010 20:14:01 16.4 C 11.03 g/m*3 16.4 C 0 km/h
223 26-07-2010 20:26:02 16.2 C 11.17 g/m*3 16.2 C 0 km/h
224 26-07-2010 20:38:02 15.9 C 11.24 g/m*3 15.9 C 0 km/h
225 26-07-2010 20:50:01 15.6 C 11.17 g/m*3 15.6 C 0 km/h
Sensor: Nr:Datum:Temp:Abs-Feuchte:Windchill:Wind:
Aussen-T/F 226 26-07-2010 21:02:02 15.4 C 11.04 g/m*3 15.4 C 0 km/h
227 26-07-2010 21:14:02 15.4 C 11.3 g/m*3 15.4 C 0 km/h
228 26-07-2010 21:26:01 15.3 C 11.36 g/m*3 15.3 C 0 km/h
229 26-07-2010 21:38:01 15.2 C 11.29 g/m*3 15.2 C 0 km/h
230 26-07-2010 21:50:01 15.2 C 11.42 g/m*3 15.2 C 0 km/h
231 26-07-2010 22:02:02 15.3 C 11.36 g/m*3 15.3 C 0 km/h
232 26-07-2010 22:14:02 15.3 C 10.97 g/m*3 15.3 C 0 km/h
233 26-07-2010 22:27:04 15.2 C 10.77 g/m*3 15.2 C 0 km/h
234 26-07-2010 22:39:04 15.2 C 10.64 g/m*3 15.2 C 0 km/h
235 26-07-2010 22:51:04 15.1 C 10.58 g/m*3 15.1 C 0 km/h
236 26-07-2010 23:03:04 15.1 C 10.58 g/m*3 15.1 C 0 km/h
237 26-07-2010 23:15:04 15.1 C 10.71 g/m*3 15.1 C 0 km/h
238 26-07-2010 23:27:04 15.3 C 10.84 g/m*3 15.3 C 0 km/h
239 26-07-2010 23:39:04 15.4 C 11.04 g/m*3 15.4 C 0 km/h
240 26-07-2010 23:51:04 15.4 C 11.04 g/m*3 15.4 C 0 km/h
241 27-07-2010 00:03:04 15.4 C 11.04 g/m*3 15.4 C 0 km/h
242 27-07-2010 00:15:04 15.4 C 11.04 g/m*3 15.4 C 0 km/h
243 27-07-2010 00:27:04 15.3 C 11.1 g/m*3 15.3 C 0 km/h
244 27-07-2010 00:39:05 15.4 C 11.3 g/m*3 15.4 C 0 km/h
245 27-07-2010 00:51:05 15.2 C 11.16 g/m*3 15.2 C 0 km/h
246 27-07-2010 01:03:05 15.3 C 11.23 g/m*3 15.3 C 0 km/h
247 27-07-2010 01:15:05 15.3 C 11.23 g/m*3 15.3 C 0 km/h
248 27-07-2010 01:27:05 15.6 C 11.3 g/m*3 15.6 C 0 km/h
249 27-07-2010 01:39:05 15.6 C 11.17 g/m*3 15.6 C 0 km/h
250 27-07-2010 01:51:05 15.6 C 11.04 g/m*3 15.6 C 0 km/h
Sensor: Nr:Datum:Temp:Abs-Feuchte:Windchill:Wind:
Aussen-T/F 251 27-07-2010 02:03:05 15.6 C 11.04 g/m*3 15.6 C 0 km/h
252 27-07-2010 02:15:05 15.6 C 11.04 g/m*3 15.6 C 0 km/h
253 27-07-2010 02:27:05 15.6 C 11.04 g/m*3 15.6 C 0 km/h
254 27-07-2010 02:39:05 15.6 C 11.04 g/m*3 15.6 C 0 km/h
255 27-07-2010 02:51:05 15.6 C 11.04 g/m*3 15.6 C 0 km/h
256 27-07-2010 03:03:05 15.6 C 11.04 g/m*3 15.6 C 0 km/h
257 27-07-2010 03:15:05 15.5 C 10.97 g/m*3 15.5 C 0 km/h
258 27-07-2010 03:27:05 15.4 C 10.9 g/m*3 15.4 C 0 km/h
259 27-07-2010 03:39:05 15.3 C 10.84 g/m*3 15.3 C 0 km/h
260 27-07-2010 03:51:05 15.3 C 11.1 g/m*3 15.3 C 0 km/h
261 27-07-2010 04:03:05 15.4 C 11.04 g/m*3 15.4 C 0 km/h
262 27-07-2010 04:15:05 15.3 C 10.84 g/m*3 15.3 C 0 km/h
263 27-07-2010 04:27:05 15.4 C 10.9 g/m*3 15.4 C 0 km/h
264 27-07-2010 04:39:06 15.2 C 10.77 g/m*3 15.2 C 0 km/h
265 27-07-2010 04:51:06 15 C 10.64 g/m*3 15 C 0 km/h
266 27-07-2010 05:03:06 15.2 C 10.9 g/m*3 15.2 C 0 km/h
267 27-07-2010 05:15:06 15.2 C 10.9 g/m*3 15.2 C 0 km/h
268 27-07-2010 05:27:06 15.2 C 10.9 g/m*3 15.2 C 0 km/h
269 27-07-2010 05:39:06 15 C 10.77 g/m*3 15 C 0 km/h
270 27-07-2010 05:51:06 15.1 C 10.71 g/m*3 15.1 C 0 km/h
271 27-07-2010 06:03:06 15.2 C 10.77 g/m*3 15.2 C 0 km/h
272 27-07-2010 06:15:06 15.3 C 10.84 g/m*3 15.3 C 0 km/h
273 27-07-2010 06:27:06 15.3 C 10.84 g/m*3 15.3 C 0 km/h
274 27-07-2010 06:39:06 15.3 C 10.71 g/m*3 15.3 C 0 km/h
275 27-07-2010 06:51:02 15.3 C 10.71 g/m*3 15.3 C 0 km/h
Sensor: Nr:Datum:Temp:Abs-Feuchte:Windchill:Wind:
Aussen-T/F 276 27-07-2010 07:03:01 15.4 C 10.64 g/m*3 15.4 C 0 km/h
277 27-07-2010 07:15:01 15.6 C 10.77 g/m*3 15.6 C 0 km/h
278 27-07-2010 07:27:01 15.6 C 10.51 g/m*3 15.6 C 0 km/h
279 27-07-2010 07:39:02 15.8 C 10.63 g/m*3 15.8 C 0 km/h
280 27-07-2010 07:51:02 16 C 10.63 g/m*3 16 C 0 km/h
281 27-07-2010 08:03:02 16.1 C 10.55 g/m*3 16.1 C 0 km/h
282 27-07-2010 08:15:02 16.1 C 10.55 g/m*3 16.1 C 0 km/h
283 27-07-2010 08:27:02 16.4 C 10.75 g/m*3 16.4 C 0 km/h
284 27-07-2010 08:39:02 16.3 C 10.54 g/m*3 16.3 C 0 km/h
285 27-07-2010 08:51:02 16.2 C 10.62 g/m*3 16.2 C 0 km/h
286 27-07-2010 09:03:02 16.5 C 10.67 g/m*3 16.5 C 0 km/h
287 27-07-2010 09:15:03 16.6 C 10.59 g/m*3 16.6 C 0 km/h
288 27-07-2010 09:27:03 16.6 C 10.45 g/m*3 16.6 C 0 km/h
289 27-07-2010 09:39:02 17.3 C 10.61 g/m*3 17.3 C 0 km/h
290 27-07-2010 09:51:01 17.4 C 10.37 g/m*3 17.4 C 0 km/h
291 27-07-2010 10:03:01 18 C 10.29 g/m*3 18 C 0 km/h
292 27-07-2010 10:15:02 17.9 C 10.23 g/m*3 17.9 C 0 km/h
293 27-07-2010 10:27:02 18.5 C 10.28 g/m*3 18.5 C 0 km/h
294 27-07-2010 10:39:01 19.2 C 9.89 g/m*3 19.2 C 0 km/h
295 27-07-2010 10:51:01 19 C 9.61 g/m*3 19 C 0 km/h
296 27-07-2010 11:03:01 19.2 C 9.73 g/m*3 19.2 C 0 km/h
297 27-07-2010 11:15:02 19.8 C 9.74 g/m*3 19.8 C 0 km/h
298 27-07-2010 11:27:02 20.4 C 9.73 g/m*3 20.4 C 0 km/h
299 27-07-2010 11:39:01 20.5 C 9.25 g/m*3 20.5 C 0 km/h
300 27-07-2010 11:51:02 21 C 9.34 g/m*3 21 C 0 km/h
Sensor: Nr:Datum:Temp:Abs-Feuchte:Windchill:Wind:
Aussen-T/F 301 27-07-2010 12:03:02 21.8 C 9.4 g/m*3 21.8 C 0 km/h
302 27-07-2010 12:15:02 22.5 C 8.99 g/m*3 22.5 C 0 km/h
303 27-07-2010 12:27:02 21.8 C 8.83 g/m*3 21.8 C 0 km/h
304 27-07-2010 12:39:02 21.6 C 9.29 g/m*3 21.6 C 0 km/h
305 27-07-2010 12:51:02 22.7 C 8.89 g/m*3 22.7 C 0 km/h
306 27-07-2010 13:03:02 23.5 C 8.46 g/m*3 23.5 C 0 km/h
307 27-07-2010 13:15:01 22.7 C 7.88 g/m*3 22.7 C 0 km/h
308 27-07-2010 13:27:01 23.1 C 8.27 g/m*3 23.1 C 0 km/h
309 27-07-2010 13:39:02 25.5 C 7.1 g/m*3 25.5 C 0 km/h
310 27-07-2010 13:51:02 25 C 7.6 g/m*3 25 C 0 km/h
311 27-07-2010 14:03:02 23.8 C 7.53 g/m*3 23.8 C 0 km/h
312 27-07-2010 14:15:01 24.4 C 7.79 g/m*3 24.4 C 0 km/h
313 27-07-2010 14:27:01 25.2 C 7.68 g/m*3 25.2 C 0 km/h
314 27-07-2010 14:39:02 24.4 C 7.57 g/m*3 24.4 C 0 km/h
315 27-07-2010 14:51:01 24.3 C 7.75 g/m*3 24.3 C 0 km/h
316 27-07-2010 15:03:02 24.3 C 7.75 g/m*3 24.3 C 0 km/h
317 27-07-2010 15:15:02 25.6 C 7.86 g/m*3 25.6 C 0 km/h
318 27-07-2010 15:27:02 25.4 C 7.53 g/m*3 25.4 C 0 km/h
319 27-07-2010 15:39:01 25.7 C 7.42 g/m*3 25.7 C 0 km/h
320 27-07-2010 15:51:02 25.9 C 7.26 g/m*3 25.9 C 0 km/h
321 27-07-2010 16:03:01 26.6 C 7.05 g/m*3 26.6 C 0 km/h
322 27-07-2010 16:15:02 28.5 C 7.27 g/m*3 28.5 C 0 km/h
323 27-07-2010 16:27:03 28.2 C 6.87 g/m*3 28.2 C 0 km/h
324 27-07-2010 16:39:01 28 C 6.8 g/m*3 28 C 0 km/h
325 27-07-2010 16:51:02 28.2 C 6.05 g/m*3 28.2 C 0 km/h
Sensor: Nr:Datum:Temp:Abs-Feuchte:Windchill:Wind:
Aussen-T/F 326 27-07-2010 17:03:02 28.7 C 5.93 g/m*3 28.7 C 0 km/h
327 27-07-2010 17:15:02 29.4 C 6.16 g/m*3 29.4 C 0 km/h
328 27-07-2010 17:27:02 28 C 5.71 g/m*3 28 C 0 km/h
329 27-07-2010 17:39:03 28.2 C 5.77 g/m*3 28.2 C 0 km/h
330 27-07-2010 17:51:02 27.3 C 7.33 g/m*3 27.3 C 0 km/h
331 27-07-2010 18:03:02 26.1 C 6.37 g/m*3 26.1 C 0 km/h
332 27-07-2010 18:15:01 25.8 C 7.46 g/m*3 25.8 C 0 km/h
333 27-07-2010 18:27:01 24.8 C 8.19 g/m*3 24.8 C 0 km/h
334 27-07-2010 18:39:02 24.3 C 7.97 g/m*3 24.3 C 0 km/h
335 27-07-2010 18:51:02 24.3 C 8.19 g/m*3 24.3 C 0 km/h
336 27-07-2010 19:03:02 24.2 C 8.58 g/m*3 24.2 C 0 km/h
337 27-07-2010 19:15:01 23.6 C 8.72 g/m*3 23.6 C 0 km/h
338 27-07-2010 19:27:01 23.3 C 8.78 g/m*3 23.3 C 0 km/h
339 27-07-2010 19:39:02 23 C 8.63 g/m*3 23 C 0 km/h
340 27-07-2010 19:51:01 23 C 8.43 g/m*3 23 C 0 km/h
341 27-07-2010 20:03:02 22.9 C 8.38 g/m*3 22.9 C 0 km/h
342 27-07-2010 20:15:02 22.2 C 8.25 g/m*3 22.2 C 0 km/h
343 27-07-2010 20:27:02 21.7 C 8.2 g/m*3 21.7 C 0 km/h
344 27-07-2010 20:39:01 21.7 C 8.58 g/m*3 21.7 C 0 km/h
345 27-07-2010 20:51:02 21.5 C 8.49 g/m*3 21.5 C 0 km/h
346 27-07-2010 21:03:01 21.2 C 8.52 g/m*3 21.2 C 0 km/h
347 27-07-2010 21:15:02 21 C 8.79 g/m*3 21 C 0 km/h
348 27-07-2010 21:27:03 20.4 C 8.49 g/m*3 20.4 C 0 km/h
349 27-07-2010 21:39:01 20 C 8.47 g/m*3 20 C 0 km/h
350 27-07-2010 21:51:03 19.7 C 9.17 g/m*3 19.7 C 0 km/h
Sensor: Nr:Datum:Temp:Abs-Feuchte:Windchill:Wind:
Aussen-T/F 351 27-07-2010 22:04:04 19.7 C 9.34 g/m*3 19.7 C 0 km/h
352 27-07-2010 22:16:04 19.3 C 9.12 g/m*3 19.3 C 0 km/h
353 27-07-2010 22:28:04 19 C 8.8 g/m*3 19 C 0 km/h
354 27-07-2010 22:40:05 18.8 C 9.18 g/m*3 18.8 C 0 km/h
355 27-07-2010 22:52:05 18.8 C 9.34 g/m*3 18.8 C 0 km/h
356 27-07-2010 23:04:05 18.6 C 9.39 g/m*3 18.6 C 0 km/h
357 27-07-2010 23:16:05 18.4 C 9.28 g/m*3 18.4 C 0 km/h
358 27-07-2010 23:28:05 18.4 C 9.44 g/m*3 18.4 C 0 km/h
359 27-07-2010 23:40:05 18.4 C 9.12 g/m*3 18.4 C 0 km/h
360 27-07-2010 23:52:05 18.4 C 9.44 g/m*3 18.4 C 0 km/h
361 28-07-2010 00:04:05 18.5 C 9.65 g/m*3 18.5 C 0 km/h
362 28-07-2010 00:16:05 18.5 C 9.81 g/m*3 18.5 C 0 km/h
363 28-07-2010 00:28:05 18.3 C 9.85 g/m*3 18.3 C 0 km/h
364 28-07-2010 00:40:05 18 C 9.83 g/m*3 18 C 0 km/h
365 28-07-2010 00:52:05 17.7 C 9.81 g/m*3 17.7 C 0 km/h
366 28-07-2010 01:04:05 17.5 C 9.69 g/m*3 17.5 C 0 km/h
367 28-07-2010 01:16:05 17.3 C 9.58 g/m*3 17.3 C 0 km/h
368 28-07-2010 01:28:05 17.2 C 9.81 g/m*3 17.2 C 0 km/h
369 28-07-2010 01:40:05 17.1 C 10.04 g/m*3 17.1 C 0 km/h
370 28-07-2010 01:52:05 16.7 C 10.09 g/m*3 16.7 C 0 km/h
371 28-07-2010 02:04:05 16.9 C 10.21 g/m*3 16.9 C 0 km/h
372 28-07-2010 02:16:05 17 C 9.98 g/m*3 17 C 0 km/h
373 28-07-2010 02:28:05 16.9 C 10.36 g/m*3 16.9 C 0 km/h
374 28-07-2010 02:40:05 17 C 10.27 g/m*3 17 C 0 km/h
375 28-07-2010 02:52:06 17 C 10.27 g/m*3 17 C 0 km/h
Sensor: Nr:Datum:Temp:Abs-Feuchte:Windchill:Wind:
Aussen-T/F 376 28-07-2010 03:04:06 17 C 10.27 g/m*3 17 C 0 km/h
377 28-07-2010 03:16:06 17 C 10.13 g/m*3 17 C 0 km/h
378 28-07-2010 03:28:06 17 C 10.27 g/m*3 17 C 0 km/h
379 28-07-2010 03:40:06 17.1 C 10.48 g/m*3 17.1 C 0 km/h
380 28-07-2010 03:52:06 17.1 C 10.48 g/m*3 17.1 C 0 km/h
381 28-07-2010 04:04:06 17 C 10.42 g/m*3 17 C 0 km/h
382 28-07-2010 04:16:06 17.1 C 10.48 g/m*3 17.1 C 0 km/h
383 28-07-2010 04:28:06 17 C 10.42 g/m*3 17 C 0 km/h
384 28-07-2010 04:40:06 16.9 C 10.5 g/m*3 16.9 C 0 km/h
385 28-07-2010 04:52:06 16.8 C 10.58 g/m*3 16.8 C 0 km/h
386 28-07-2010 05:04:06 16.8 C 10.58 g/m*3 16.8 C 0 km/h
387 28-07-2010 05:16:06 16.8 C 10.58 g/m*3 16.8 C 0 km/h
388 28-07-2010 05:28:06 16.8 C 10.58 g/m*3 16.8 C 0 km/h
389 28-07-2010 05:40:06 16.8 C 10.58 g/m*3 16.8 C 0 km/h
390 28-07-2010 05:52:06 17 C 10.56 g/m*3 17 C 0 km/h
391 28-07-2010 06:04:06 17.1 C 10.48 g/m*3 17.1 C 0 km/h
392 28-07-2010 06:16:06 17.2 C 10.54 g/m*3 17.2 C 0 km/h
393 28-07-2010 06:28:06 17.2 C 10.54 g/m*3 17.2 C 0 km/h
394 28-07-2010 06:40:06 16.9 C 11.08 g/m*3 16.9 C 0 km/h
395 28-07-2010 06:52:07 16.7 C 11.37 g/m*3 16.7 C 0 km/h
396 28-07-2010 07:04:04 16.4 C 11.58 g/m*3 16.4 C 0 km/h
397 28-07-2010 07:16:03 16.2 C 11.86 g/m*3 16.2 C 0 km/h
398 28-07-2010 07:28:03 16.3 C 12.21 g/m*3 16.3 C 0 km/h
399 28-07-2010 07:40:04 16.3 C 12.35 g/m*3 16.3 C 0 km/h
400 28-07-2010 07:52:01 16.4 C 12.56 g/m*3 16.4 C 0 km/h
Sensor: Nr:Datum:Temp:Abs-Feuchte:Windchill:Wind:
Aussen-T/F 401 28-07-2010 08:04:02 16.5 C 12.64 g/m*3 16.5 C 0 km/h
402 28-07-2010 08:16:02 16.6 C 12.71 g/m*3 16.6 C 0 km/h
403 28-07-2010 08:28:02 17 C 13.02 g/m*3 17 C 0 km/h
404 28-07-2010 08:40:01 17.6 C 13.5 g/m*3 17.6 C 0 km/h
405 28-07-2010 08:52:02 17.8 C 13.2 g/m*3 17.8 C 0 km/h
406 28-07-2010 09:04:01 18.1 C 12.98 g/m*3 18.1 C 0 km/h
407 28-07-2010 09:16:02 17.9 C 12.83 g/m*3 17.9 C 0 km/h
408 28-07-2010 09:28:02 17.4 C 12.6 g/m*3 17.4 C 0 km/h
409 28-07-2010 09:40:01 17.1 C 12.66 g/m*3 17.1 C 0 km/h
410 28-07-2010 09:52:02 17.3 C 12.82 g/m*3 17.3 C 0 km/h
411 28-07-2010 10:04:02 17.3 C 12.96 g/m*3 17.3 C 0 km/h
412 28-07-2010 10:16:02 17.6 C 13.2 g/m*3 17.6 C 0 km/h
413 28-07-2010 10:28:02 17.6 C 13.05 g/m*3 17.6 C 0 km/h
414 28-07-2010 10:40:02 17.9 C 13.59 g/m*3 17.9 C 0 km/h
415 28-07-2010 10:52:01 18.1 C 13.44 g/m*3 18.1 C 0 km/h
416 28-07-2010 11:04:02 18.8 C 14.01 g/m*3 18.8 C 0 km/h
417 28-07-2010 11:16:01 19.7 C 13.92 g/m*3 19.7 C 0 km/h
418 28-07-2010 11:28:01 20.6 C 13.24 g/m*3 20.6 C 0 km/h
419 28-07-2010 11:40:01 20.7 C 13.14 g/m*3 20.7 C 0 km/h
420 28-07-2010 11:52:01 21.5 C 13.39 g/m*3 21.5 C 0 km/h
421 28-07-2010 12:04:01 21.3 C 13.23 g/m*3 21.3 C 0 km/h
422 28-07-2010 12:16:02 20.8 C 12.86 g/m*3 20.8 C 0 km/h
423 28-07-2010 12:28:02 21.5 C 12.82 g/m*3 21.5 C 0 km/h
424 28-07-2010 12:40:01 21.4 C 13.12 g/m*3 21.4 C 0 km/h
425 28-07-2010 12:52:02 21.1 C 13.08 g/m*3 21.1 C 0 km/h
Sensor: Nr:Datum:Temp:Abs-Feuchte:Windchill:Wind:
Aussen-T/F 426 28-07-2010 13:04:02 21 C 12.82 g/m*3 21 C 0 km/h
427 28-07-2010 13:16:02 21.5 C 13.39 g/m*3 21.5 C 0 km/h
428 28-07-2010 13:28:02 24.7 C 12.9 g/m*3 24.7 C 0 km/h
429 28-07-2010 13:40:02 25.7 C 11.25 g/m*3 25.7 C 0 km/h
430 28-07-2010 13:52:02 25.8 C 9.87 g/m*3 25.8 C 0 km/h
431 28-07-2010 14:04:02 24.7 C 10.41 g/m*3 24.7 C 0 km/h
432 28-07-2010 14:16:02 25.4 C 9.89 g/m*3 25.4 C 0 km/h
433 28-07-2010 14:28:02 25.8 C 9.15 g/m*3 25.8 C 0 km/h
434 28-07-2010 14:40:02 26.3 C 8.66 g/m*3 26.3 C 0 km/h
435 28-07-2010 14:52:02 26.5 C 8.26 g/m*3 26.5 C 0 km/h
436 28-07-2010 15:04:02 26.4 C 8.21 g/m*3 26.4 C 0 km/h
437 28-07-2010 15:16:02 26.4 C 8.46 g/m*3 26.4 C 0 km/h
438 28-07-2010 15:28:02 25.8 C 7.46 g/m*3 25.8 C 0 km/h
439 28-07-2010 15:40:02 25.2 C 7.22 g/m*3 25.2 C 0 km/h
440 28-07-2010 15:52:02 26.2 C 7.14 g/m*3 26.2 C 0 km/h
441 28-07-2010 16:04:02 27.1 C 6.73 g/m*3 27.1 C 0 km/h
442 28-07-2010 16:16:03 27.2 C 7.29 g/m*3 27.2 C 0 km/h
443 28-07-2010 16:28:03 27.7 C 7.22 g/m*3 27.7 C 0 km/h
444 28-07-2010 16:40:02 28.2 C 6.87 g/m*3 28.2 C 0 km/h
445 28-07-2010 16:52:03 28.7 C 7.06 g/m*3 28.7 C 0 km/h
446 28-07-2010 17:04:02 28.7 C 6.78 g/m*3 28.7 C 0 km/h
447 28-07-2010 17:16:02 29.6 C 7.12 g/m*3 29.6 C 0 km/h
448 28-07-2010 17:28:02 29 C 6.61 g/m*3 29 C 0 km/h
449 28-07-2010 17:40:02 28.9 C 6.57 g/m*3 28.9 C 0 km/h
450 28-07-2010 17:52:02 27.8 C 6.19 g/m*3 27.8 C 0 km/h
Sensor: Nr:Datum:Temp:Abs-Feuchte:Windchill:Wind:
Aussen-T/F 451 28-07-2010 18:04:01 28.4 C 6.67 g/m*3 28.4 C 0 km/h
452 28-07-2010 18:16:02 28.2 C 6.6 g/m*3 28.2 C 0 km/h
453 28-07-2010 18:28:02 26.2 C 6.4 g/m*3 26.2 C 0 km/h
454 28-07-2010 18:40:02 25.6 C 6.67 g/m*3 25.6 C 0 km/h
455 28-07-2010 18:52:01 25.3 C 7.02 g/m*3 25.3 C 0 km/h
456 28-07-2010 19:04:02 24.5 C 8.73 g/m*3 24.5 C 0 km/h
457 28-07-2010 19:16:01 22.6 C 9.44 g/m*3 22.6 C 0 km/h
458 28-07-2010 19:28:01 21.7 C 10.87 g/m*3 21.7 C 0 km/h
459 28-07-2010 19:40:01 21.8 C 10.55 g/m*3 21.8 C 0 km/h
460 28-07-2010 19:52:01 21.9 C 10.42 g/m*3 21.9 C 0 km/h
461 28-07-2010 20:04:02 21.9 C 10.23 g/m*3 21.9 C 0 km/h
462 28-07-2010 20:16:01 22 C 9.9 g/m*3 22 C 0 km/h
463 28-07-2010 20:28:01 22.1 C 9.96 g/m*3 22.1 C 0 km/h
464 28-07-2010 20:40:02 21.6 C 10.24 g/m*3 21.6 C 0 km/h
465 28-07-2010 20:52:02 21.3 C 10.62 g/m*3 21.3 C 0 km/h
466 28-07-2010 21:04:02 21 C 10.44 g/m*3 21 C 0 km/h
467 28-07-2010 21:16:02 20.8 C 10.5 g/m*3 20.8 C 0 km/h
468 28-07-2010 21:28:02 20.7 C 10.62 g/m*3 20.7 C 0 km/h
469 28-07-2010 21:40:02 20.4 C 10.79 g/m*3 20.4 C 0 km/h
470 28-07-2010 21:52:02 20.1 C 10.78 g/m*3 20.1 C 0 km/h
471 28-07-2010 22:04:02 20 C 11.06 g/m*3 20 C 0 km/h
472 28-07-2010 22:17:02 19.8 C 11.44 g/m*3 19.8 C 0 km/h
473 28-07-2010 22:29:02 19.8 C 11.1 g/m*3 19.8 C 0 km/h
474 28-07-2010 22:41:02 19.7 C 11.38 g/m*3 19.7 C 0 km/h
475 28-07-2010 22:53:02 19.6 C 11.31 g/m*3 19.6 C 0 km/h
Sensor: Nr:Datum:Temp:Abs-Feuchte:Windchill:Wind:
Aussen-T/F 476 28-07-2010 23:05:02 19.3 C 11.78 g/m*3 19.3 C 0 km/h
477 28-07-2010 23:17:02 18.3 C 12.98 g/m*3 18.3 C 0 km/h
478 28-07-2010 23:29:02 18.2 C 13.37 g/m*3 18.2 C 0 km/h
479 28-07-2010 23:41:02 18.1 C 13.44 g/m*3 18.1 C 0 km/h
480 28-07-2010 23:53:02 18 C 13.36 g/m*3 18 C 0 km/h
481 29-07-2010 00:05:02 17.7 C 13.43 g/m*3 17.7 C 0 km/h
482 29-07-2010 00:17:02 17.5 C 13.27 g/m*3 17.5 C 0 km/h
483 29-07-2010 00:29:02 17.2 C 13.03 g/m*3 17.2 C 0 km/h
484 29-07-2010 00:41:02 16.9 C 13.09 g/m*3 16.9 C 0 km/h
485 29-07-2010 00:53:02 16.5 C 12.78 g/m*3 16.5 C 0 km/h
486 29-07-2010 01:05:02 16.4 C 12.84 g/m*3 16.4 C 0 km/h
487 29-07-2010 01:17:02 16.2 C 12.69 g/m*3 16.2 C 0 km/h
488 29-07-2010 01:29:02 16.1 C 12.61 g/m*3 16.1 C 0 km/h
489 29-07-2010 01:41:02 15.9 C 12.59 g/m*3 15.9 C 0 km/h
490 29-07-2010 01:53:02 15.7 C 12.44 g/m*3 15.7 C 0 km/h
491 29-07-2010 02:05:02 15.4 C 12.22 g/m*3 15.4 C 0 km/h
492 29-07-2010 02:17:03 15.2 C 12.07 g/m*3 15.2 C 0 km/h
493 29-07-2010 02:29:03 15.1 C 12 g/m*3 15.1 C 0 km/h
494 29-07-2010 02:41:03 15 C 11.93 g/m*3 15 C 0 km/h
495 29-07-2010 02:53:03 15.1 C 12 g/m*3 15.1 C 0 km/h
496 29-07-2010 03:05:03 15 C 11.93 g/m*3 15 C 0 km/h
497 29-07-2010 03:17:03 14.8 C 11.91 g/m*3 14.8 C 0 km/h
498 29-07-2010 03:29:03 14.7 C 11.83 g/m*3 14.7 C 0 km/h
499 29-07-2010 03:41:03 14.6 C 11.76 g/m*3 14.6 C 0 km/h
500 29-07-2010 03:53:03 14.7 C 11.83 g/m*3 14.7 C 0 km/h
Sensor: Nr:Datum:Temp:Abs-Feuchte:Windchill:Wind:
Aussen-T/F 501 29-07-2010 04:05:03 14.6 C 11.76 g/m*3 14.6 C 0 km/h
502 29-07-2010 04:17:03 14.4 C 11.62 g/m*3 14.4 C 0 km/h
503 29-07-2010 04:29:03 14.3 C 11.55 g/m*3 14.3 C 0 km/h
504 29-07-2010 04:41:03 14.6 C 11.76 g/m*3 14.6 C 0 km/h
505 29-07-2010 04:53:03 14.3 C 11.55 g/m*3 14.3 C 0 km/h
506 29-07-2010 05:05:03 14.1 C 11.41 g/m*3 14.1 C 0 km/h
507 29-07-2010 05:17:03 14.1 C 11.41 g/m*3 14.1 C 0 km/h
508 29-07-2010 05:29:03 14.4 C 11.62 g/m*3 14.4 C 0 km/h
509 29-07-2010 05:41:03 14.7 C 11.83 g/m*3 14.7 C 0 km/h
510 29-07-2010 05:53:03 14.4 C 11.74 g/m*3 14.4 C 0 km/h
511 29-07-2010 06:05:03 14.5 C 11.82 g/m*3 14.5 C 0 km/h
512 29-07-2010 06:17:03 14.6 C 11.89 g/m*3 14.6 C 0 km/h
513 29-07-2010 06:29:04 14.7 C 11.96 g/m*3 14.7 C 0 km/h
514 29-07-2010 06:41:04 14.7 C 11.96 g/m*3 14.7 C 0 km/h
515 29-07-2010 06:53:04 14.6 C 11.89 g/m*3 14.6 C 0 km/h
516 29-07-2010 07:05:02 14.7 C 11.96 g/m*3 14.7 C 0 km/h
517 29-07-2010 07:17:02 14.8 C 12.03 g/m*3 14.8 C 0 km/h
518 29-07-2010 07:29:02 15 C 12.05 g/m*3 15 C 0 km/h
519 29-07-2010 07:41:02 15 C 12.18 g/m*3 15 C 0 km/h
520 29-07-2010 07:53:02 14.9 C 12.11 g/m*3 14.9 C 0 km/h
521 29-07-2010 08:05:02 14.8 C 12.03 g/m*3 14.8 C 0 km/h
522 29-07-2010 08:17:02 15.2 C 12.33 g/m*3 15.2 C 0 km/h
523 29-07-2010 08:29:02 15.7 C 12.71 g/m*3 15.7 C 0 km/h
524 29-07-2010 08:41:02 15.6 C 12.63 g/m*3 15.6 C 0 km/h
525 29-07-2010 08:53:02 15.6 C 12.63 g/m*3 15.6 C 0 km/h
Sensor: Nr:Datum:Temp:Abs-Feuchte:Windchill:Wind:
Aussen-T/F 526 29-07-2010 09:05:02 15.6 C 12.5 g/m*3 15.6 C 0 km/h
527 29-07-2010 09:17:02 15.3 C 12.14 g/m*3 15.3 C 0 km/h
528 29-07-2010 09:29:02 15.4 C 12.22 g/m*3 15.4 C 0 km/h
529 29-07-2010 09:41:02 15.7 C 12.31 g/m*3 15.7 C 0 km/h
530 29-07-2010 09:53:02 15.4 C 11.96 g/m*3 15.4 C 0 km/h
531 29-07-2010 10:05:01 15.2 C 11.68 g/m*3 15.2 C 0 km/h
532 29-07-2010 10:17:02 15.4 C 11.82 g/m*3 15.4 C 0 km/h
533 29-07-2010 10:29:02 15.7 C 12.04 g/m*3 15.7 C 0 km/h
534 29-07-2010 10:41:02 15.1 C 11.48 g/m*3 15.1 C 0 km/h
535 29-07-2010 10:53:02 14.7 C 11.33 g/m*3 14.7 C 0 km/h
536 29-07-2010 11:05:03 14.8 C 11.53 g/m*3 14.8 C 0 km/h
537 29-07-2010 11:17:02 13.9 C 10.91 g/m*3 13.9 C 0 km/h
538 29-07-2010 11:29:02 14.3 C 11.18 g/m*3 14.3 C 0 km/h
539 29-07-2010 11:41:02 15.1 C 11.74 g/m*3 15.1 C 0 km/h
540 29-07-2010 11:53:01 15.1 C 11.74 g/m*3 15.1 C 0 km/h
541 29-07-2010 12:05:02 16.2 C 12.41 g/m*3 16.2 C 0 km/h
542 29-07-2010 12:17:01 17.2 C 12.89 g/m*3 17.2 C 0 km/h
543 29-07-2010 12:29:01 17.5 C 12.82 g/m*3 17.5 C 0 km/h
544 29-07-2010 12:41:01 17.7 C 12.52 g/m*3 17.7 C 0 km/h
545 29-07-2010 12:53:01 17.8 C 12.29 g/m*3 17.8 C 0 km/h
546 29-07-2010 13:05:01 18.1 C 12.05 g/m*3 18.1 C 0 km/h
547 29-07-2010 13:17:02 19.1 C 11.97 g/m*3 19.1 C 0 km/h
548 29-07-2010 13:29:02 19.9 C 11 g/m*3 19.9 C 0 km/h
549 29-07-2010 13:41:01 18.7 C 10.25 g/m*3 18.7 C 0 km/h
550 29-07-2010 13:53:03 16.4 C 10.19 g/m*3 16.4 C 0 km/h
Sensor: Nr:Datum:Temp:Abs-Feuchte:Windchill:Wind:
Aussen-T/F 551 29-07-2010 14:05:02 16.4 C 11.03 g/m*3 16.4 C 0 km/h
552 29-07-2010 14:17:02 16.6 C 11.16 g/m*3 16.6 C 0 km/h
553 29-07-2010 14:29:02 17.4 C 11.12 g/m*3 17.4 C 0 km/h
554 29-07-2010 14:41:02 19.1 C 11.31 g/m*3 19.1 C 0 km/h
555 29-07-2010 14:53:02 19.3 C 9.79 g/m*3 19.3 C 0 km/h
556 29-07-2010 15:05:01 19.2 C 9.73 g/m*3 19.2 C 0 km/h
557 29-07-2010 15:17:02 19 C 9.94 g/m*3 19 C 0 km/h
558 29-07-2010 15:29:02 17.5 C 10.59 g/m*3 17.5 C 0 km/h
559 29-07-2010 15:41:02 17.3 C 11.05 g/m*3 17.3 C 0 km/h
560 29-07-2010 15:53:02 18.2 C 12.28 g/m*3 18.2 C 0 km/h
561 29-07-2010 16:05:03 19.7 C 12.57 g/m*3 19.7 C 0 km/h
562 29-07-2010 16:17:02 21.1 C 11.61 g/m*3 21.1 C 0 km/h
563 29-07-2010 16:29:02 21.8 C 11.13 g/m*3 21.8 C 0 km/h
564 29-07-2010 16:41:02 18.8 C 9.66 g/m*3 18.8 C 0 km/h
565 29-07-2010 16:53:01 16.8 C 9.72 g/m*3 16.8 C 0 km/h
566 29-07-2010 17:05:02 16.1 C 10.01 g/m*3 16.1 C 0 km/h
567 29-07-2010 17:17:01 16.7 C 11.37 g/m*3 16.7 C 0 km/h
568 29-07-2010 17:29:01 17.7 C 11.92 g/m*3 17.7 C 0 km/h
569 29-07-2010 17:41:01 17.8 C 11.38 g/m*3 17.8 C 0 km/h
570 29-07-2010 17:53:01 17.3 C 11.2 g/m*3 17.3 C 0 km/h
571 29-07-2010 18:05:01 17.3 C 11.05 g/m*3 17.3 C 0 km/h
572 29-07-2010 18:17:02 17.4 C 11.12 g/m*3 17.4 C 0 km/h
573 29-07-2010 18:29:02 17.8 C 11.38 g/m*3 17.8 C 0 km/h
574 29-07-2010 18:41:01 18.1 C 11.59 g/m*3 18.1 C 0 km/h
575 29-07-2010 18:53:03 18.5 C 11.39 g/m*3 18.5 C 0 km/h
Sensor: Nr:Datum:Temp:Abs-Feuchte:Windchill:Wind:
Aussen-T/F 576 29-07-2010 19:05:02 18.1 C 10.51 g/m*3 18.1 C 0 km/h
577 29-07-2010 19:17:02 18 C 9.52 g/m*3 18 C 0 km/h
578 29-07-2010 19:29:02 18.5 C 9.65 g/m*3 18.5 C 0 km/h
579 29-07-2010 19:41:02 18.7 C 9.45 g/m*3 18.7 C 0 km/h
580 29-07-2010 19:53:02 18.4 C 9.28 g/m*3 18.4 C 0 km/h
581 29-07-2010 20:05:02 17.9 C 9.77 g/m*3 17.9 C 0 km/h
582 29-07-2010 20:17:02 17.7 C 9.66 g/m*3 17.7 C 0 km/h
583 29-07-2010 20:29:02 17.7 C 9.66 g/m*3 17.7 C 0 km/h
584 29-07-2010 20:41:02 17.5 C 9.39 g/m*3 17.5 C 0 km/h
585 29-07-2010 20:53:02 17.2 C 9.08 g/m*3 17.2 C 0 km/h
586 29-07-2010 21:05:02 16.8 C 9.15 g/m*3 16.8 C 0 km/h
587 29-07-2010 21:17:02 16.1 C 9.6 g/m*3 16.1 C 0 km/h
588 29-07-2010 21:29:02 15.9 C 10.16 g/m*3 15.9 C 0 km/h
589 29-07-2010 21:41:01 15.8 C 10.36 g/m*3 15.8 C 0 km/h
590 29-07-2010 21:53:02 15.6 C 10.24 g/m*3 15.6 C 0 km/h
591 29-07-2010 22:06:03 15.6 C 10.37 g/m*3 15.6 C 0 km/h
592 29-07-2010 22:18:03 15.6 C 9.97 g/m*3 15.6 C 0 km/h
593 29-07-2010 22:30:03 15.7 C 9.77 g/m*3 15.7 C 0 km/h
594 29-07-2010 22:42:03 15.7 C 9.77 g/m*3 15.7 C 0 km/h
595 29-07-2010 22:54:03 15.7 C 9.63 g/m*3 15.7 C 0 km/h
596 29-07-2010 23:06:03 15.7 C 9.63 g/m*3 15.7 C 0 km/h
597 29-07-2010 23:18:03 15.8 C 9.56 g/m*3 15.8 C 0 km/h
598 29-07-2010 23:30:03 15.8 C 9.56 g/m*3 15.8 C 0 km/h
599 29-07-2010 23:42:03 15.8 C 9.56 g/m*3 15.8 C 0 km/h
600 29-07-2010 23:54:03 15.4 C 9.72 g/m*3 15.4 C 0 km/h
Sensor: Nr:Datum:Temp:Abs-Feuchte:Windchill:Wind:
Aussen-T/F 601 30-07-2010 00:06:03 15.2 C 9.73 g/m*3 15.2 C 0 km/h
602 30-07-2010 00:18:04 15.2 C 9.86 g/m*3 15.2 C 0 km/h
603 30-07-2010 00:30:04 15.2 C 9.86 g/m*3 15.2 C 0 km/h
604 30-07-2010 00:42:04 15.2 C 9.86 g/m*3 15.2 C 0 km/h
605 30-07-2010 00:54:04 15.2 C 9.86 g/m*3 15.2 C 0 km/h
606 30-07-2010 01:06:04 15.2 C 9.86 g/m*3 15.2 C 0 km/h
607 30-07-2010 01:18:04 15.3 C 9.92 g/m*3 15.3 C 0 km/h
608 30-07-2010 01:30:04 15.2 C 9.86 g/m*3 15.2 C 0 km/h
609 30-07-2010 01:42:04 15.2 C 9.86 g/m*3 15.2 C 0 km/h
610 30-07-2010 01:54:04 15.1 C 9.8 g/m*3 15.1 C 0 km/h
611 30-07-2010 02:06:04 15.1 C 9.8 g/m*3 15.1 C 0 km/h
612 30-07-2010 02:18:04 14.9 C 9.94 g/m*3 14.9 C 0 km/h
613 30-07-2010 02:30:04 14.8 C 10.01 g/m*3 14.8 C 0 km/h
614 30-07-2010 02:42:04 14.5 C 9.83 g/m*3 14.5 C 0 km/h
615 30-07-2010 02:54:04 14.4 C 9.89 g/m*3 14.4 C 0 km/h
616 30-07-2010 03:06:04 14.4 C 10.01 g/m*3 14.4 C 0 km/h
617 30-07-2010 03:18:04 14.6 C 10.26 g/m*3 14.6 C 0 km/h
618 30-07-2010 03:30:04 14.8 C 10.39 g/m*3 14.8 C 0 km/h
619 30-07-2010 03:42:04 14.6 C 10.26 g/m*3 14.6 C 0 km/h
620 30-07-2010 03:54:04 14.6 C 10.26 g/m*3 14.6 C 0 km/h
621 30-07-2010 04:06:04 14.5 C 10.32 g/m*3 14.5 C 0 km/h
622 30-07-2010 04:18:05 14.5 C 10.32 g/m*3 14.5 C 0 km/h
623 30-07-2010 04:30:05 14.4 C 10.38 g/m*3 14.4 C 0 km/h
624 30-07-2010 04:42:05 14.3 C 10.44 g/m*3 14.3 C 0 km/h
625 30-07-2010 04:54:05 14.4 C 10.51 g/m*3 14.4 C 0 km/h
Sensor: Nr:Datum:Temp:Abs-Feuchte:Windchill:Wind:
Aussen-T/F 626 30-07-2010 05:06:05 14.6 C 10.64 g/m*3 14.6 C 0 km/h
627 30-07-2010 05:18:05 14.7 C 10.58 g/m*3 14.7 C 0 km/h
628 30-07-2010 05:30:05 14.7 C 10.58 g/m*3 14.7 C 0 km/h
629 30-07-2010 05:42:05 14.7 C 10.58 g/m*3 14.7 C 0 km/h
630 30-07-2010 05:54:05 14.8 C 10.64 g/m*3 14.8 C 0 km/h
631 30-07-2010 06:06:05 14.8 C 10.51 g/m*3 14.8 C 0 km/h
632 30-07-2010 06:18:02 14.7 C 10.45 g/m*3 14.7 C 0 km/h
633 30-07-2010 06:30:02 14.7 C 10.58 g/m*3 14.7 C 0 km/h
634 30-07-2010 06:42:03 14.8 C 10.51 g/m*3 14.8 C 0 km/h
635 30-07-2010 06:54:02 14.8 C 10.51 g/m*3 14.8 C 0 km/h
636 30-07-2010 07:06:02 14.9 C 10.58 g/m*3 14.9 C 0 km/h
637 30-07-2010 07:18:02 15.1 C 10.45 g/m*3 15.1 C 0 km/h
638 30-07-2010 07:30:02 15.3 C 10.58 g/m*3 15.3 C 0 km/h
639 30-07-2010 07:42:02 15.2 C 10.38 g/m*3 15.2 C 0 km/h
640 30-07-2010 07:54:02 15.4 C 10.64 g/m*3 15.4 C 0 km/h
641 30-07-2010 08:06:02 15.6 C 10.64 g/m*3 15.6 C 0 km/h
642 30-07-2010 08:18:02 15.8 C 10.63 g/m*3 15.8 C 0 km/h
643 30-07-2010 08:30:02 16.2 C 10.62 g/m*3 16.2 C 0 km/h
644 30-07-2010 08:42:01 16.6 C 10.59 g/m*3 16.6 C 0 km/h
645 30-07-2010 08:54:02 17.2 C 10.25 g/m*3 17.2 C 0 km/h
646 30-07-2010 09:06:01 17.3 C 9.72 g/m*3 17.3 C 0 km/h
647 30-07-2010 09:18:01 16.7 C 9.81 g/m*3 16.7 C 0 km/h
648 30-07-2010 09:30:01 16.4 C 9.91 g/m*3 16.4 C 0 km/h
649 30-07-2010 09:42:02 17.7 C 10.11 g/m*3 17.7 C 0 km/h
650 30-07-2010 09:54:02 18.2 C 9.33 g/m*3 18.2 C 0 km/h
Sensor: Nr:Datum:Temp:Abs-Feuchte:Windchill:Wind:
Aussen-T/F 651 30-07-2010 10:06:01 18 C 9.06 g/m*3 18 C 0 km/h
652 30-07-2010 10:18:01 19.5 C 9.06 g/m*3 19.5 C 0 km/h
653 30-07-2010 10:30:02 19.1 C 9.02 g/m*3 19.1 C 0 km/h
654 30-07-2010 10:42:01 18.9 C 8.91 g/m*3 18.9 C 0 km/h
655 30-07-2010 10:54:02 19.5 C 8.89 g/m*3 19.5 C 0 km/h
656 30-07-2010 11:06:02 19.8 C 8.71 g/m*3 19.8 C 0 km/h
657 30-07-2010 11:18:02 21.1 C 8.66 g/m*3 21.1 C 0 km/h
658 30-07-2010 11:30:02 22.6 C 8.64 g/m*3 22.6 C 0 km/h
659 30-07-2010 11:42:02 23.8 C 8.17 g/m*3 23.8 C 0 km/h
660 30-07-2010 11:54:01 22.7 C 7.27 g/m*3 22.7 C 0 km/h
661 30-07-2010 12:06:02 21.1 C 7.74 g/m*3 21.1 C 0 km/h
662 30-07-2010 12:18:01 21 C 8.24 g/m*3 21 C 0 km/h
663 30-07-2010 12:30:01 21.3 C 8.39 g/m*3 21.3 C 0 km/h
664 30-07-2010 12:42:01 21.7 C 8.97 g/m*3 21.7 C 0 km/h
665 30-07-2010 12:54:01 22.6 C 8.24 g/m*3 22.6 C 0 km/h
666 30-07-2010 13:06:02 24.5 C 7.61 g/m*3 24.5 C 0 km/h
667 30-07-2010 13:18:01 26.3 C 7.43 g/m*3 26.3 C 0 km/h
668 30-07-2010 13:30:01 24.2 C 7.26 g/m*3 24.2 C 0 km/h
669 30-07-2010 13:42:01 22.5 C 7.39 g/m*3 22.5 C 0 km/h
670 30-07-2010 13:54:01 22.5 C 7.59 g/m*3 22.5 C 0 km/h
671 30-07-2010 14:06:02 23.3 C 7.32 g/m*3 23.3 C 0 km/h
672 30-07-2010 14:18:02 24.3 C 7.52 g/m*3 24.3 C 0 km/h
673 30-07-2010 14:30:02 24.7 C 7.7 g/m*3 24.7 C 0 km/h
674 30-07-2010 14:42:01 24.8 C 7.97 g/m*3 24.8 C 0 km/h
675 30-07-2010 14:54:02 25.3 C 7.49 g/m*3 25.3 C 0 km/h
Sensor: Nr:Datum:Temp:Abs-Feuchte:Windchill:Wind:
Aussen-T/F 676 30-07-2010 15:06:01 25.7 C 7.18 g/m*3 25.7 C 0 km/h
677 30-07-2010 15:18:02 25.5 C 7.1 g/m*3 25.5 C 0 km/h
678 30-07-2010 15:30:02 25.4 C 7.3 g/m*3 25.4 C 0 km/h
679 30-07-2010 15:42:01 24.8 C 7.28 g/m*3 24.8 C 0 km/h
680 30-07-2010 15:54:03 24.3 C 6.86 g/m*3 24.3 C 0 km/h
681 30-07-2010 16:06:02 24.8 C 7.06 g/m*3 24.8 C 0 km/h
682 30-07-2010 16:18:02 26.4 C 6.47 g/m*3 26.4 C 0 km/h
683 30-07-2010 16:30:03 26.4 C 6.47 g/m*3 26.4 C 0 km/h
684 30-07-2010 16:42:02 26.5 C 6.76 g/m*3 26.5 C 0 km/h
685 30-07-2010 16:54:02 25.6 C 6.19 g/m*3 25.6 C 0 km/h
686 30-07-2010 17:06:01 26.9 C 6.91 g/m*3 26.9 C 0 km/h
687 30-07-2010 17:18:02 28.3 C 6.08 g/m*3 28.3 C 0 km/h
688 30-07-2010 17:30:02 26.9 C 6.4 g/m*3 26.9 C 0 km/h
689 30-07-2010 17:42:02 25.8 C 6.26 g/m*3 25.8 C 0 km/h
690 30-07-2010 17:54:02 26.2 C 6.4 g/m*3 26.2 C 0 km/h
691 30-07-2010 18:06:02 26.6 C 6.04 g/m*3 26.6 C 0 km/h
692 30-07-2010 18:18:02 26.2 C 6.15 g/m*3 26.2 C 0 km/h
693 30-07-2010 18:30:02 26.5 C 6.26 g/m*3 26.5 C 0 km/h
694 30-07-2010 18:42:02 26.8 C 5.85 g/m*3 26.8 C 0 km/h
695 30-07-2010 18:54:01 27.9 C 5.95 g/m*3 27.9 C 0 km/h
696 30-07-2010 19:06:02 27.9 C 6.49 g/m*3 27.9 C 0 km/h
697 30-07-2010 19:18:01 27 C 6.69 g/m*3 27 C 0 km/h
698 30-07-2010 19:30:01 25.9 C 6.54 g/m*3 25.9 C 0 km/h
699 30-07-2010 19:42:01 24.7 C 7.02 g/m*3 24.7 C 0 km/h
700 30-07-2010 19:54:01 24.6 C 7.88 g/m*3 24.6 C 0 km/h
Sensor: Nr:Datum:Temp:Abs-Feuchte:Windchill:Wind:
Aussen-T/F 701 30-07-2010 20:06:02 23.7 C 7.49 g/m*3 23.7 C 0 km/h
702 30-07-2010 20:18:02 23.2 C 7.28 g/m*3 23.2 C 0 km/h
703 30-07-2010 20:30:02 22.6 C 7.43 g/m*3 22.6 C 0 km/h
704 30-07-2010 20:42:01 21.9 C 7.72 g/m*3 21.9 C 0 km/h
705 30-07-2010 20:54:01 21.3 C 7.64 g/m*3 21.3 C 0 km/h
706 30-07-2010 21:06:01 20.5 C 7.65 g/m*3 20.5 C 0 km/h
707 30-07-2010 21:18:02 20.2 C 7.87 g/m*3 20.2 C 0 km/h
708 30-07-2010 21:30:02 19.9 C 7.73 g/m*3 19.9 C 0 km/h
709 30-07-2010 21:42:01 19.5 C 7.72 g/m*3 19.5 C 0 km/h
710 30-07-2010 21:54:03 19.1 C 7.54 g/m*3 19.1 C 0 km/h
711 30-07-2010 22:07:51 18.9 C 7.45 g/m*3 18.9 C 0 km/h
712 30-07-2010 22:19:51 18.6 C 7.32 g/m*3 18.6 C 0 km/h
713 30-07-2010 22:31:51 18.6 C 7.32 g/m*3 18.6 C 0 km/h
714 30-07-2010 22:43:51 18.3 C 7.66 g/m*3 18.3 C 0 km/h
715 30-07-2010 22:55:51 18.1 C 7.57 g/m*3 18.1 C 0 km/h
716 30-07-2010 23:07:52 17.6 C 8.4 g/m*3 17.6 C 0 km/h
717 30-07-2010 23:19:52 17.2 C 8.35 g/m*3 17.2 C 0 km/h
718 30-07-2010 23:31:52 17 C 8.54 g/m*3 17 C 0 km/h
719 30-07-2010 23:43:52 16.7 C 8.81 g/m*3 16.7 C 0 km/h
720 30-07-2010 23:55:52 16.5 C 8.57 g/m*3 16.5 C 0 km/h
721 31-07-2010 00:07:52 16.3 C 8.74 g/m*3 16.3 C 0 km/h
722 31-07-2010 00:19:52 16.2 C 8.69 g/m*3 16.2 C 0 km/h
723 31-07-2010 00:31:52 16 C 8.58 g/m*3 16 C 0 km/h
724 31-07-2010 00:43:52 15.6 C 8.78 g/m*3 15.6 C 0 km/h
725 31-07-2010 00:55:52 15.5 C 8.86 g/m*3 15.5 C 0 km/h
Sensor: Nr:Datum:Temp:Abs-Feuchte:Windchill:Wind:
Aussen-T/F 726 31-07-2010 01:07:52 15.3 C 8.88 g/m*3 15.3 C 0 km/h
727 31-07-2010 01:19:52 15 C 8.85 g/m*3 15 C 0 km/h
728 31-07-2010 01:31:52 14.8 C 8.87 g/m*3 14.8 C 0 km/h
729 31-07-2010 01:43:52 14.6 C 8.63 g/m*3 14.6 C 0 km/h
730 31-07-2010 01:55:52 14.5 C 8.71 g/m*3 14.5 C 0 km/h
731 31-07-2010 02:07:52 14.3 C 8.6 g/m*3 14.3 C 0 km/h
732 31-07-2010 02:19:52 14.2 C 8.67 g/m*3 14.2 C 0 km/h
733 31-07-2010 02:31:52 13.9 C 8.63 g/m*3 13.9 C 0 km/h
734 31-07-2010 02:43:52 14 C 8.68 g/m*3 14 C 0 km/h
735 31-07-2010 02:55:52 13.8 C 8.7 g/m*3 13.8 C 0 km/h
736 31-07-2010 03:07:52 13.6 C 8.71 g/m*3 13.6 C 0 km/h
737 31-07-2010 03:19:53 13.4 C 8.6 g/m*3 13.4 C 0 km/h
738 31-07-2010 03:31:53 13.4 C 8.72 g/m*3 13.4 C 0 km/h
739 31-07-2010 03:43:53 13.2 C 8.61 g/m*3 13.2 C 0 km/h
740 31-07-2010 03:55:53 13.1 C 8.56 g/m*3 13.1 C 0 km/h
741 31-07-2010 04:07:53 12.9 C 8.68 g/m*3 12.9 C 0 km/h
742 31-07-2010 04:19:53 12.8 C 8.62 g/m*3 12.8 C 0 km/h
743 31-07-2010 04:31:53 12.7 C 8.68 g/m*3 12.7 C 0 km/h
744 31-07-2010 04:43:53 12.6 C 8.63 g/m*3 12.6 C 0 km/h
745 31-07-2010 04:55:53 12.5 C 8.69 g/m*3 12.5 C 0 km/h
746 31-07-2010 05:07:53 12.4 C 8.63 g/m*3 12.4 C 0 km/h
747 31-07-2010 05:19:53 12.4 C 8.74 g/m*3 12.4 C 0 km/h
748 31-07-2010 05:31:53 12.2 C 8.63 g/m*3 12.2 C 0 km/h
749 31-07-2010 05:43:53 12.2 C 8.63 g/m*3 12.2 C 0 km/h
750 31-07-2010 05:55:53 12.1 C 8.69 g/m*3 12.1 C 0 km/h
Sensor: Nr:Datum:Temp:Abs-Feuchte:Windchill:Wind:
Aussen-T/F 751 31-07-2010 06:07:53 12.1 C 8.79 g/m*3 12.1 C 0 km/h
752 31-07-2010 06:19:53 12 C 8.74 g/m*3 12 C 0 km/h
753 31-07-2010 06:31:53 11.9 C 8.79 g/m*3 11.9 C 0 km/h
754 31-07-2010 06:43:53 12 C 8.74 g/m*3 12 C 0 km/h
755 31-07-2010 06:55:53 12.1 C 8.79 g/m*3 12.1 C 0 km/h
756 31-07-2010 07:07:53 12.1 C 8.9 g/m*3 12.1 C 0 km/h
757 31-07-2010 07:19:54 12.3 C 9.01 g/m*3 12.3 C 0 km/h
758 31-07-2010 07:31:54 12.7 C 9.24 g/m*3 12.7 C 0 km/h
759 31-07-2010 07:43:54 12.9 C 9.24 g/m*3 12.9 C 0 km/h
760 31-07-2010 07:55:54 13 C 9.19 g/m*3 13 C 0 km/h
761 31-07-2010 08:07:54 13.1 C 9.24 g/m*3 13.1 C 0 km/h
762 31-07-2010 08:19:54 13.5 C 9.36 g/m*3 13.5 C 0 km/h
763 31-07-2010 08:31:54 14.1 C 9.34 g/m*3 14.1 C 0 km/h
764 31-07-2010 08:43:54 14.1 C 9.1 g/m*3 14.1 C 0 km/h
765 31-07-2010 08:55:02 14.4 C 9.27 g/m*3 14.4 C 0 km/h
766 31-07-2010 09:07:02 15.1 C 9.55 g/m*3 15.1 C 0 km/h
767 31-07-2010 09:19:01 15.6 C 9.58 g/m*3 15.6 C 0 km/h
768 31-07-2010 09:31:02 16 C 9.4 g/m*3 16 C 0 km/h
769 31-07-2010 09:43:02 17.2 C 9.67 g/m*3 17.2 C 0 km/h
770 31-07-2010 09:55:02 17.9 C 9.47 g/m*3 17.9 C 0 km/h
771 31-07-2010 10:07:02 19.7 C 9.51 g/m*3 19.7 C 0 km/h
772 31-07-2010 10:19:02 21.2 C 9.45 g/m*3 21.2 C 0 km/h
773 31-07-2010 10:31:02 22.5 C 9.19 g/m*3 22.5 C 0 km/h
774 31-07-2010 10:43:02 23.3 C 8.57 g/m*3 23.3 C 0 km/h
775 31-07-2010 10:55:01 23.3 C 8.15 g/m*3 23.3 C 0 km/h
Sensor: Nr:Datum:Temp:Abs-Feuchte:Windchill:Wind:
Aussen-T/F 776 31-07-2010 11:07:01 23.6 C 7.66 g/m*3 23.6 C 0 km/h
777 31-07-2010 11:19:01 23.5 C 7.4 g/m*3 23.5 C 0 km/h
778 31-07-2010 11:31:01 23.2 C 7.28 g/m*3 23.2 C 0 km/h
779 31-07-2010 11:43:01 23.5 C 7.4 g/m*3 23.5 C 0 km/h
780 31-07-2010 11:55:01 23.6 C 7.44 g/m*3 23.6 C 0 km/h
781 31-07-2010 12:07:01 23.6 C 7.02 g/m*3 23.6 C 0 km/h
782 31-07-2010 12:19:02 23.7 C 6.84 g/m*3 23.7 C 0 km/h
783 31-07-2010 12:31:01 24.4 C 6.9 g/m*3 24.4 C 0 km/h
784 31-07-2010 12:43:01 24.4 C 6.68 g/m*3 24.4 C 0 km/h
785 31-07-2010 12:55:02 24.5 C 6.71 g/m*3 24.5 C 0 km/h
786 31-07-2010 13:07:02 25.2 C 6.29 g/m*3 25.2 C 0 km/h
787 31-07-2010 13:19:02 25.3 C 6.55 g/m*3 25.3 C 0 km/h
788 31-07-2010 13:31:03 25.4 C 6.59 g/m*3 25.4 C 0 km/h
789 31-07-2010 13:43:03 25.8 C 6.74 g/m*3 25.8 C 0 km/h
790 31-07-2010 13:55:02 26.1 C 6.61 g/m*3 26.1 C 0 km/h
791 31-07-2010 14:07:02 26.8 C 6.36 g/m*3 26.8 C 0 km/h
792 31-07-2010 14:19:02 26.3 C 6.44 g/m*3 26.3 C 0 km/h
793 31-07-2010 14:31:02 27 C 6.69 g/m*3 27 C 0 km/h
794 31-07-2010 14:43:02 26.9 C 6.91 g/m*3 26.9 C 0 km/h
795 31-07-2010 14:55:02 27.2 C 6.77 g/m*3 27.2 C 0 km/h
796 31-07-2010 15:07:02 27.1 C 6.73 g/m*3 27.1 C 0 km/h
797 31-07-2010 15:19:02 27.9 C 6.76 g/m*3 27.9 C 0 km/h
798 31-07-2010 15:31:02 28.1 C 5.74 g/m*3 28.1 C 0 km/h
799 31-07-2010 15:43:02 27.7 C 6.15 g/m*3 27.7 C 0 km/h
800 31-07-2010 15:55:01 28.6 C 6.18 g/m*3 28.6 C 0 km/h
Sensor: Nr:Datum:Temp:Abs-Feuchte:Windchill:Wind:
Aussen-T/F 801 31-07-2010 16:07:01 29.3 C 6.13 g/m*3 29.3 C 0 km/h
802 31-07-2010 16:19:02 28.9 C 6 g/m*3 28.9 C 0 km/h
803 31-07-2010 16:31:01 29.4 C 5.87 g/m*3 29.4 C 0 km/h
804 31-07-2010 16:43:01 30.1 C 6.1 g/m*3 30.1 C 0 km/h
805 31-07-2010 16:55:01 29.5 C 5.9 g/m*3 29.5 C 0 km/h
806 31-07-2010 17:07:01 29 C 5.74 g/m*3 29 C 0 km/h
807 31-07-2010 17:19:02 30.1 C 6.1 g/m*3 30.1 C 0 km/h
808 31-07-2010 17:31:01 30 C 6.06 g/m*3 30 C 0 km/h
809 31-07-2010 17:43:01 30 C 6.06 g/m*3 30 C 0 km/h
810 31-07-2010 17:55:02 30.1 C 6.1 g/m*3 30.1 C 0 km/h
811 31-07-2010 18:07:02 30.2 C 6.13 g/m*3 30.2 C 0 km/h
812 31-07-2010 18:19:02 30.1 C 6.1 g/m*3 30.1 C 0 km/h
813 31-07-2010 18:31:02 29.9 C 6.03 g/m*3 29.9 C 0 km/h
814 31-07-2010 18:43:02 29.6 C 5.94 g/m*3 29.6 C 0 km/h
815 31-07-2010 18:55:02 29.5 C 6.2 g/m*3 29.5 C 0 km/h
816 31-07-2010 19:07:02 29.9 C 6.33 g/m*3 29.9 C 0 km/h
817 31-07-2010 19:19:02 29 C 6.61 g/m*3 29 C 0 km/h
818 31-07-2010 19:31:02 27.6 C 7.45 g/m*3 27.6 C 0 km/h
819 31-07-2010 19:43:02 26.8 C 7.89 g/m*3 26.8 C 0 km/h
820 31-07-2010 19:55:02 26.1 C 7.59 g/m*3 26.1 C 0 km/h
821 31-07-2010 20:07:02 25.6 C 8.09 g/m*3 25.6 C 0 km/h
822 31-07-2010 20:19:02 25.2 C 7.92 g/m*3 25.2 C 0 km/h
823 31-07-2010 20:31:02 24.5 C 8.28 g/m*3 24.5 C 0 km/h
824 31-07-2010 20:43:02 24 C 8.27 g/m*3 24 C 0 km/h
825 31-07-2010 20:55:02 23.7 C 8.34 g/m*3 23.7 C 0 km/h
Sensor: Nr:Datum:Temp:Abs-Feuchte:Windchill:Wind:
Aussen-T/F 826 31-07-2010 21:07:02 23.3 C 8.36 g/m*3 23.3 C 0 km/h
827 31-07-2010 21:19:02 23.1 C 8.27 g/m*3 23.1 C 0 km/h
828 31-07-2010 21:31:02 23.1 C 8.27 g/m*3 23.1 C 0 km/h
829 31-07-2010 21:43:02 23 C 8.43 g/m*3 23 C 0 km/h
830 31-07-2010 21:55:01 22.7 C 8.69 g/m*3 22.7 C 0 km/h
831 31-07-2010 22:07:01 22.5 C 8.99 g/m*3 22.5 C 0 km/h
832 31-07-2010 22:19:01 22.2 C 8.83 g/m*3 22.2 C 0 km/h
833 31-07-2010 22:31:01 22.2 C 8.64 g/m*3 22.2 C 0 km/h
834 31-07-2010 22:43:01 22.4 C 8.74 g/m*3 22.4 C 0 km/h
835 31-07-2010 22:55:02 20.8 C 10.5 g/m*3 20.8 C 0 km/h
836 31-07-2010 23:07:02 19.9 C 12.03 g/m*3 19.9 C 0 km/h
837 31-07-2010 23:19:02 20.3 C 11.78 g/m*3 20.3 C 0 km/h
838 31-07-2010 23:31:02 20.7 C 11.88 g/m*3 20.7 C 0 km/h
839 31-07-2010 23:43:02 20.8 C 11.59 g/m*3 20.8 C 0 km/h
840 31-07-2010 23:55:01 20.8 C 11.41 g/m*3 20.8 C 0 km/h
841 01-08-2010 00:07:02 19.5 C 11.92 g/m*3 19.5 C 0 km/h
842 01-08-2010 00:20:02 19.3 C 12.44 g/m*3 19.3 C 0 km/h
843 01-08-2010 00:32:02 19.6 C 12.66 g/m*3 19.6 C 0 km/h
844 01-08-2010 00:44:02 19.5 C 12.42 g/m*3 19.5 C 0 km/h
845 01-08-2010 00:56:02 19.1 C 12.46 g/m*3 19.1 C 0 km/h
846 01-08-2010 01:08:02 18.3 C 12.66 g/m*3 18.3 C 0 km/h
847 01-08-2010 01:20:02 18.1 C 12.98 g/m*3 18.1 C 0 km/h
848 01-08-2010 01:32:02 18.3 C 13.29 g/m*3 18.3 C 0 km/h
849 01-08-2010 01:44:02 18.5 C 13.45 g/m*3 18.5 C 0 km/h
850 01-08-2010 01:56:02 18.1 C 13.13 g/m*3 18.1 C 0 km/h
Sensor: Nr:Datum:Temp:Abs-Feuchte:Windchill:Wind:
Aussen-T/F 851 01-08-2010 02:08:02 18.1 C 13.29 g/m*3 18.1 C 0 km/h
852 01-08-2010 02:20:02 18.2 C 13.52 g/m*3 18.2 C 0 km/h
853 01-08-2010 02:32:02 18.1 C 13.29 g/m*3 18.1 C 0 km/h
854 01-08-2010 02:44:02 18.2 C 13.52 g/m*3 18.2 C 0 km/h
855 01-08-2010 02:56:03 17.9 C 13.28 g/m*3 17.9 C 0 km/h
856 01-08-2010 03:08:03 18 C 13.21 g/m*3 18 C 0 km/h
857 01-08-2010 03:20:03 18 C 13.21 g/m*3 18 C 0 km/h
858 01-08-2010 03:32:03 18 C 13.21 g/m*3 18 C 0 km/h
859 01-08-2010 03:44:03 17.9 C 13.13 g/m*3 17.9 C 0 km/h
860 01-08-2010 03:56:03 18 C 13.06 g/m*3 18 C 0 km/h
861 01-08-2010 04:08:03 17.9 C 12.98 g/m*3 17.9 C 0 km/h
862 01-08-2010 04:20:03 17.9 C 12.98 g/m*3 17.9 C 0 km/h
863 01-08-2010 04:32:03 17.8 C 12.9 g/m*3 17.8 C 0 km/h
864 01-08-2010 04:44:03 17.8 C 12.9 g/m*3 17.8 C 0 km/h
865 01-08-2010 04:56:03 17.8 C 12.9 g/m*3 17.8 C 0 km/h
866 01-08-2010 05:08:03 18 C 12.9 g/m*3 18 C 0 km/h
867 01-08-2010 05:20:03 18 C 12.75 g/m*3 18 C 0 km/h
868 01-08-2010 05:32:03 17.8 C 12.75 g/m*3 17.8 C 0 km/h
869 01-08-2010 05:44:03 17.6 C 12.75 g/m*3 17.6 C 0 km/h
870 01-08-2010 05:56:03 17.2 C 12.74 g/m*3 17.2 C 0 km/h
871 01-08-2010 06:08:04 17.3 C 12.96 g/m*3 17.3 C 0 km/h
872 01-08-2010 06:20:04 17.2 C 12.89 g/m*3 17.2 C 0 km/h
873 01-08-2010 06:32:04 17.3 C 13.11 g/m*3 17.3 C 0 km/h
874 01-08-2010 06:44:04 17.6 C 13.35 g/m*3 17.6 C 0 km/h
875 01-08-2010 06:56:04 17.7 C 13.43 g/m*3 17.7 C 0 km/h
Sensor: Nr:Datum:Temp:Abs-Feuchte:Windchill:Wind:
Aussen-T/F 876 01-08-2010 07:08:04 17.9 C 13.59 g/m*3 17.9 C 0 km/h
877 01-08-2010 07:20:04 18.1 C 13.6 g/m*3 18.1 C 0 km/h
878 01-08-2010 07:32:04 18.4 C 13.84 g/m*3 18.4 C 0 km/h
879 01-08-2010 07:44:04 18.4 C 13.68 g/m*3 18.4 C 0 km/h
880 01-08-2010 07:56:04 18.9 C 13.93 g/m*3 18.9 C 0 km/h
881 01-08-2010 08:08:04 19.2 C 13.85 g/m*3 19.2 C 0 km/h
882 01-08-2010 08:20:04 19.5 C 13.93 g/m*3 19.5 C 0 km/h
883 01-08-2010 08:32:04 19.6 C 13.84 g/m*3 19.6 C 0 km/h
884 01-08-2010 08:44:04 20 C 13.65 g/m*3 20 C 0 km/h
885 01-08-2010 08:56:04 20.1 C 13.56 g/m*3 20.1 C 0 km/h
886 01-08-2010 09:08:03 20.2 C 13.46 g/m*3 20.2 C 0 km/h
887 01-08-2010 09:20:02 20.9 C 13.84 g/m*3 20.9 C 0 km/h
888 01-08-2010 09:32:03 21.1 C 13.63 g/m*3 21.1 C 0 km/h
889 01-08-2010 09:44:03 21 C 13.37 g/m*3 21 C 0 km/h
890 01-08-2010 09:56:01 21.1 C 13.45 g/m*3 21.1 C 0 km/h
891 01-08-2010 10:08:02 21.2 C 13.53 g/m*3 21.2 C 0 km/h
892 01-08-2010 10:20:02 21.5 C 13.77 g/m*3 21.5 C 0 km/h
893 01-08-2010 10:32:01 21.6 C 13.66 g/m*3 21.6 C 0 km/h
894 01-08-2010 10:44:01 22.2 C 13.35 g/m*3 22.2 C 0 km/h
895 01-08-2010 10:56:03 23.2 C 13.51 g/m*3 23.2 C 0 km/h
896 01-08-2010 11:08:03 23.3 C 13.38 g/m*3 23.3 C 0 km/h
897 01-08-2010 11:20:02 23.6 C 12.97 g/m*3 23.6 C 0 km/h
898 01-08-2010 11:32:02 24.3 C 13.06 g/m*3 24.3 C 0 km/h
899 01-08-2010 11:44:02 24.5 C 12.98 g/m*3 24.5 C 0 km/h
900 01-08-2010 11:56:02 24.6 C 12.15 g/m*3 24.6 C 0 km/h
Sensor: Nr:Datum:Temp:Abs-Feuchte:Windchill:Wind:
Aussen-T/F 901 01-08-2010 12:08:02 24.8 C 12.29 g/m*3 24.8 C 0 km/h
902 01-08-2010 12:20:01 24.6 C 10.13 g/m*3 24.6 C 0 km/h
903 01-08-2010 12:32:02 25.3 C 10.77 g/m*3 25.3 C 0 km/h
904 01-08-2010 12:44:02 25.9 C 10.17 g/m*3 25.9 C 0 km/h
905 01-08-2010 12:56:02 26.7 C 10.12 g/m*3 26.7 C 0 km/h
906 01-08-2010 13:08:02 27 C 9.52 g/m*3 27 C 0 km/h
907 01-08-2010 13:20:02 26.8 C 9.42 g/m*3 26.8 C 0 km/h
908 01-08-2010 13:32:02 27.6 C 9.58 g/m*3 27.6 C 0 km/h
909 01-08-2010 13:44:02 28.8 C 9.94 g/m*3 28.8 C 0 km/h
910 01-08-2010 13:56:02 29 C 8.62 g/m*3 29 C 0 km/h
911 01-08-2010 14:08:02 29.4 C 8.81 g/m*3 29.4 C 0 km/h
912 01-08-2010 14:20:02 28.6 C 8.15 g/m*3 28.6 C 0 km/h
913 01-08-2010 14:32:02 28.6 C 7.87 g/m*3 28.6 C 0 km/h
914 01-08-2010 14:44:02 29.4 C 7.63 g/m*3 29.4 C 0 km/h
915 01-08-2010 14:56:02 29.1 C 7.22 g/m*3 29.1 C 0 km/h
916 01-08-2010 15:08:02 29 C 7.47 g/m*3 29 C 0 km/h
917 01-08-2010 15:20:02 30 C 7.28 g/m*3 30 C 0 km/h
918 01-08-2010 15:32:02 30 C 6.97 g/m*3 30 C 0 km/h
919 01-08-2010 15:44:02 30.2 C 7.36 g/m*3 30.2 C 0 km/h
920 01-08-2010 15:56:02 31 C 7.04 g/m*3 31 C 0 km/h
921 01-08-2010 16:08:01 30.9 C 6.68 g/m*3 30.9 C 0 km/h
922 01-08-2010 16:20:02 30.7 C 6.93 g/m*3 30.7 C 0 km/h
923 01-08-2010 16:32:02 30.2 C 7.36 g/m*3 30.2 C 0 km/h
924 01-08-2010 16:44:02 30.6 C 7.2 g/m*3 30.6 C 0 km/h
925 01-08-2010 16:56:01 30.9 C 7.32 g/m*3 30.9 C 0 km/h
Sensor: Nr:Datum:Temp:Abs-Feuchte:Windchill:Wind:
Aussen-T/F 926 01-08-2010 17:08:02 31 C 6.72 g/m*3 31 C 0 km/h
927 01-08-2010 17:20:01 30.7 C 7.24 g/m*3 30.7 C 0 km/h
928 01-08-2010 17:32:01 30 C 7.58 g/m*3 30 C 0 km/h
929 01-08-2010 17:44:02 29.3 C 7.88 g/m*3 29.3 C 0 km/h
930 01-08-2010 17:56:02 29.5 C 7.67 g/m*3 29.5 C 0 km/h
931 01-08-2010 18:08:02 29 C 7.47 g/m*3 29 C 0 km/h
932 01-08-2010 18:20:02 29.4 C 7.93 g/m*3 29.4 C 0 km/h
933 01-08-2010 18:32:02 28.7 C 7.63 g/m*3 28.7 C 0 km/h
934 01-08-2010 18:44:02 27.6 C 9.31 g/m*3 27.6 C 0 km/h
935 01-08-2010 18:56:02 27.1 C 9.32 g/m*3 27.1 C 0 km/h
936 01-08-2010 19:08:02 26.8 C 9.42 g/m*3 26.8 C 0 km/h
937 01-08-2010 19:20:02 26.4 C 9.21 g/m*3 26.4 C 0 km/h
938 01-08-2010 19:32:02 25.5 C 9.47 g/m*3 25.5 C 0 km/h
939 01-08-2010 19:44:02 25.3 C 9.6 g/m*3 25.3 C 0 km/h
940 01-08-2010 19:56:01 25.4 C 9.65 g/m*3 25.4 C 0 km/h
941 01-08-2010 20:08:01 25.2 C 9.78 g/m*3 25.2 C 0 km/h
942 01-08-2010 20:20:02 24.8 C 10.02 g/m*3 24.8 C 0 km/h
943 01-08-2010 20:32:01 24.5 C 10.3 g/m*3 24.5 C 0 km/h
944 01-08-2010 20:44:01 24.4 C 10.46 g/m*3 24.4 C 0 km/h
945 01-08-2010 20:56:03 24.3 C 10.62 g/m*3 24.3 C 0 km/h
946 01-08-2010 21:08:02 23.7 C 9.84 g/m*3 23.7 C 0 km/h
947 01-08-2010 21:20:02 23.6 C 10 g/m*3 23.6 C 0 km/h
948 01-08-2010 21:32:03 23.3 C 10.04 g/m*3 23.3 C 0 km/h
949 01-08-2010 21:44:03 22.7 C 9.7 g/m*3 22.7 C 0 km/h
950 01-08-2010 21:57:02 22.5 C 9.59 g/m*3 22.5 C 0 km/h
Sensor: Nr:Datum:Temp:Abs-Feuchte:Windchill:Wind:
Aussen-T/F 951 01-08-2010 22:09:02 22.3 C 9.48 g/m*3 22.3 C 0 km/h
952 01-08-2010 22:21:02 22.2 C 9.42 g/m*3 22.2 C 0 km/h
953 01-08-2010 22:33:03 22 C 9.32 g/m*3 22 C 0 km/h
954 01-08-2010 22:45:03 21.6 C 9.67 g/m*3 21.6 C 0 km/h
955 01-08-2010 22:57:03 21.7 C 9.73 g/m*3 21.7 C 0 km/h
956 01-08-2010 23:09:03 21.6 C 9.86 g/m*3 21.6 C 0 km/h
957 01-08-2010 23:21:03 21.4 C 9.94 g/m*3 21.4 C 0 km/h
958 01-08-2010 23:33:03 21.2 C 10.01 g/m*3 21.2 C 0 km/h
959 01-08-2010 23:45:03 20.8 C 9.96 g/m*3 20.8 C 0 km/h
960 01-08-2010 23:57:03 20.4 C 10.08 g/m*3 20.4 C 0 km/h
961 02-08-2010 00:09:03 20 C 9.85 g/m*3 20 C 0 km/h
962 02-08-2010 00:21:03 19.7 C 10.02 g/m*3 19.7 C 0 km/h
963 02-08-2010 00:33:03 19.7 C 10.02 g/m*3 19.7 C 0 km/h
964 02-08-2010 00:45:03 19.7 C 10.19 g/m*3 19.7 C 0 km/h
965 02-08-2010 00:57:03 19.6 C 9.96 g/m*3 19.6 C 0 km/h
966 02-08-2010 01:09:03 19.4 C 10.01 g/m*3 19.4 C 0 km/h
967 02-08-2010 01:21:03 19.4 C 10.34 g/m*3 19.4 C 0 km/h
968 02-08-2010 01:33:03 19.3 C 10.45 g/m*3 19.3 C 0 km/h
969 02-08-2010 01:45:03 19.1 C 10.33 g/m*3 19.1 C 0 km/h
970 02-08-2010 01:57:03 19 C 10.27 g/m*3 19 C 0 km/h
971 02-08-2010 02:09:03 18.9 C 10.37 g/m*3 18.9 C 0 km/h
972 02-08-2010 02:21:03 18.8 C 10.63 g/m*3 18.8 C 0 km/h
973 02-08-2010 02:33:03 18.6 C 10.5 g/m*3 18.6 C 0 km/h
974 02-08-2010 02:45:03 18.5 C 10.6 g/m*3 18.5 C 0 km/h
975 02-08-2010 02:57:03 18.4 C 10.54 g/m*3 18.4 C 0 km/h
Sensor: Nr:Datum:Temp:Abs-Feuchte:Windchill:Wind:
Aussen-T/F 976 02-08-2010 03:09:04 18.2 C 10.57 g/m*3 18.2 C 0 km/h
977 02-08-2010 03:21:04 18 C 10.6 g/m*3 18 C 0 km/h
978 02-08-2010 03:33:04 18 C 10.44 g/m*3 18 C 0 km/h
979 02-08-2010 03:45:04 17.8 C 10.78 g/m*3 17.8 C 0 km/h
980 02-08-2010 03:57:04 17.7 C 10.71 g/m*3 17.7 C 0 km/h
981 02-08-2010 04:09:04 17.5 C 10.88 g/m*3 17.5 C 0 km/h
982 02-08-2010 04:21:04 17.1 C 10.92 g/m*3 17.1 C 0 km/h
983 02-08-2010 04:33:04 17.2 C 10.84 g/m*3 17.2 C 0 km/h
984 02-08-2010 04:45:04 16.9 C 10.79 g/m*3 16.9 C 0 km/h
985 02-08-2010 04:57:04 16.8 C 10.87 g/m*3 16.8 C 0 km/h
986 02-08-2010 05:09:02 16.6 C 10.74 g/m*3 16.6 C 0 km/h
987 02-08-2010 05:21:02 16.5 C 10.67 g/m*3 16.5 C 0 km/h
988 02-08-2010 05:33:02 16.3 C 10.54 g/m*3 16.3 C 0 km/h
989 02-08-2010 05:45:02 16 C 10.49 g/m*3 16 C 0 km/h
990 02-08-2010 05:57:02 16.2 C 10.76 g/m*3 16.2 C 0 km/h
991 02-08-2010 06:09:02 16.4 C 10.89 g/m*3 16.4 C 0 km/h
992 02-08-2010 06:21:02 16.6 C 11.02 g/m*3 16.6 C 0 km/h
993 02-08-2010 06:33:01 16.6 C 10.88 g/m*3 16.6 C 0 km/h
994 02-08-2010 06:45:02 16.4 C 10.89 g/m*3 16.4 C 0 km/h
995 02-08-2010 06:57:02 16.4 C 10.89 g/m*3 16.4 C 0 km/h
996 02-08-2010 07:09:01 16.3 C 10.82 g/m*3 16.3 C 0 km/h
997 02-08-2010 07:21:01 16.4 C 11.03 g/m*3 16.4 C 0 km/h
998 02-08-2010 07:33:02 16.4 C 10.89 g/m*3 16.4 C 0 km/h
999 02-08-2010 07:45:02 16.4 C 11.03 g/m*3 16.4 C 0 km/h
1000 02-08-2010 07:57:02 16.4 C 11.03 g/m*3 16.4 C 0 km/h
Sensor: Nr:Datum:Temp:Abs-Feuchte:Windchill:Wind:
Aussen-T/F 1001 02-08-2010 08:09:02 16.5 C 11.09 g/m*3 16.5 C 0 km/h
1002 02-08-2010 08:21:01 16.6 C 11.16 g/m*3 16.6 C 0 km/h
1003 02-08-2010 08:33:02 16.9 C 11.36 g/m*3 16.9 C 0 km/h
1004 02-08-2010 08:45:02 17 C 11 g/m*3 17 C 0 km/h
1005 02-08-2010 08:57:02 17.3 C 11.2 g/m*3 17.3 C 0 km/h
1006 02-08-2010 09:09:02 17.8 C 11.38 g/m*3 17.8 C 0 km/h
1007 02-08-2010 09:21:02 18.3 C 11.26 g/m*3 18.3 C 0 km/h
1008 02-08-2010 09:33:02 18.6 C 11.3 g/m*3 18.6 C 0 km/h
1009 02-08-2010 09:45:02 19.1 C 10.82 g/m*3 19.1 C 0 km/h
1010 02-08-2010 09:57:02 19.6 C 10.97 g/m*3 19.6 C 0 km/h
1011 02-08-2010 10:09:02 20 C 10.89 g/m*3 20 C 0 km/h
1012 02-08-2010 10:21:02 20.5 C 10.85 g/m*3 20.5 C 0 km/h
1013 02-08-2010 10:33:01 20.8 C 10.68 g/m*3 20.8 C 0 km/h
1014 02-08-2010 10:45:02 21.2 C 9.64 g/m*3 21.2 C 0 km/h
1015 02-08-2010 10:57:03 21.9 C 10.81 g/m*3 21.9 C 0 km/h
1016 02-08-2010 11:09:02 22.6 C 9.84 g/m*3 22.6 C 0 km/h
1017 02-08-2010 11:21:02 23.5 C 9.52 g/m*3 23.5 C 0 km/h
1018 02-08-2010 11:33:02 24.1 C 9.19 g/m*3 24.1 C 0 km/h
1019 02-08-2010 11:45:01 24.4 C 9.12 g/m*3 24.4 C 0 km/h
1020 02-08-2010 11:57:01 24.6 C 8.78 g/m*3 24.6 C 0 km/h
1021 02-08-2010 12:09:02 24.8 C 9.1 g/m*3 24.8 C 0 km/h
1022 02-08-2010 12:21:01 25.1 C 8.57 g/m*3 25.1 C 0 km/h
1023 02-08-2010 12:33:02 25.5 C 8.05 g/m*3 25.5 C 0 km/h
1024 02-08-2010 12:45:01 26.1 C 7.59 g/m*3 26.1 C 0 km/h
1025 02-08-2010 12:57:01 26.2 C 7.39 g/m*3 26.2 C 0 km/h
Sensor: Nr:Datum:Temp:Abs-Feuchte:Windchill:Wind:
Aussen-T/F 1026 02-08-2010 13:09:02 25.1 C 7.41 g/m*3 25.1 C 0 km/h
1027 02-08-2010 13:21:02 24.2 C 8.14 g/m*3 24.2 C 0 km/h
1028 02-08-2010 13:33:01 23.3 C 8.57 g/m*3 23.3 C 0 km/h
1029 02-08-2010 13:45:02 22.3 C 9.08 g/m*3 22.3 C 0 km/h
1030 02-08-2010 13:57:02 21.5 C 9.62 g/m*3 21.5 C 0 km/h
1031 02-08-2010 14:09:01 19.7 C 11.21 g/m*3 19.7 C 0 km/h
1032 02-08-2010 14:21:01 19.7 C 11.89 g/m*3 19.7 C 0 km/h
1033 02-08-2010 14:33:01 21.1 C 11.24 g/m*3 21.1 C 0 km/h
1034 02-08-2010 14:45:02 21.2 C 11.12 g/m*3 21.2 C 0 km/h
1035 02-08-2010 14:57:03 20.7 C 10.62 g/m*3 20.7 C 0 km/h
1036 02-08-2010 15:09:01 20.6 C 10.92 g/m*3 20.6 C 0 km/h
1037 02-08-2010 15:21:02 21.1 C 11.61 g/m*3 21.1 C 0 km/h
1038 02-08-2010 15:33:02 21.7 C 11.06 g/m*3 21.7 C 0 km/h
1039 02-08-2010 15:45:01 21.7 C 11.06 g/m*3 21.7 C 0 km/h
1040 02-08-2010 15:57:01 21.5 C 11.5 g/m*3 21.5 C 0 km/h
1041 02-08-2010 16:09:01 22.4 C 11.92 g/m*3 22.4 C 0 km/h
1042 02-08-2010 16:21:01 22.9 C 11.04 g/m*3 22.9 C 0 km/h
1043 02-08-2010 16:33:01 23.1 C 10.54 g/m*3 23.1 C 0 km/h
1044 02-08-2010 16:45:02 23.4 C 10.51 g/m*3 23.4 C 0 km/h
1045 02-08-2010 16:57:02 23.5 C 10.57 g/m*3 23.5 C 0 km/h
1046 02-08-2010 17:09:02 24.2 C 10.12 g/m*3 24.2 C 0 km/h
1047 02-08-2010 17:21:02 24.1 C 9.85 g/m*3 24.1 C 0 km/h
1048 02-08-2010 17:33:03 24.5 C 9.62 g/m*3 24.5 C 0 km/h
1049 02-08-2010 17:45:01 24.4 C 9.57 g/m*3 24.4 C 0 km/h
1050 02-08-2010 17:57:01 23.8 C 9.68 g/m*3 23.8 C 0 km/h
Sensor: Nr:Datum:Temp:Abs-Feuchte:Windchill:Wind:
Aussen-T/F 1051 02-08-2010 18:09:02 23 C 9.66 g/m*3 23 C 0 km/h
1052 02-08-2010 18:21:02 22.5 C 10.59 g/m*3 22.5 C 0 km/h
1053 02-08-2010 18:33:03 20.9 C 11.66 g/m*3 20.9 C 0 km/h
1054 02-08-2010 18:45:02 20.3 C 11.96 g/m*3 20.3 C 0 km/h
1055 02-08-2010 18:57:02 19.7 C 11.55 g/m*3 19.7 C 0 km/h
1056 02-08-2010 19:09:02 20.2 C 12.24 g/m*3 20.2 C 0 km/h
1057 02-08-2010 19:21:03 20.5 C 12.63 g/m*3 20.5 C 0 km/h
1058 02-08-2010 19:33:02 20 C 12.1 g/m*3 20 C 0 km/h
1059 02-08-2010 19:45:02 19.8 C 12.3 g/m*3 19.8 C 0 km/h
1060 02-08-2010 19:57:02 19.6 C 12.49 g/m*3 19.6 C 0 km/h
1061 02-08-2010 20:09:01 19.2 C 13.03 g/m*3 19.2 C 0 km/h
1062 02-08-2010 20:21:02 18.7 C 13.45 g/m*3 18.7 C 0 km/h
1063 02-08-2010 20:33:01 18.6 C 13.69 g/m*3 18.6 C 0 km/h
1064 02-08-2010 20:45:02 18.2 C 13.52 g/m*3 18.2 C 0 km/h
1065 02-08-2010 20:57:03 18.3 C 13.76 g/m*3 18.3 C 0 km/h
1066 02-08-2010 21:09:02 18.2 C 13.68 g/m*3 18.2 C 0 km/h
1067 02-08-2010 21:21:02 17.5 C 13.27 g/m*3 17.5 C 0 km/h
1068 02-08-2010 21:33:03 17.5 C 13.42 g/m*3 17.5 C 0 km/h
1069 02-08-2010 21:46:01 17.4 C 13.49 g/m*3 17.4 C 0 km/h
1070 02-08-2010 21:58:01 17.3 C 13.41 g/m*3 17.3 C 0 km/h
1071 02-08-2010 22:10:01 17.2 C 13.33 g/m*3 17.2 C 0 km/h
1072 02-08-2010 22:22:01 17.4 C 13.49 g/m*3 17.4 C 0 km/h
1073 02-08-2010 22:34:01 17.3 C 13.55 g/m*3 17.3 C 0 km/h
1074 02-08-2010 22:46:02 17 C 13.17 g/m*3 17 C 0 km/h
1075 02-08-2010 22:58:02 16.7 C 13.07 g/m*3 16.7 C 0 km/h
Sensor: Nr:Datum:Temp:Abs-Feuchte:Windchill:Wind:
Aussen-T/F 1076 02-08-2010 23:10:02 16.4 C 12.7 g/m*3 16.4 C 0 km/h
1077 02-08-2010 23:22:02 16.2 C 12.55 g/m*3 16.2 C 0 km/h
1078 02-08-2010 23:34:02 15.9 C 12.32 g/m*3 15.9 C 0 km/h
1079 02-08-2010 23:46:02 15.8 C 12.25 g/m*3 15.8 C 0 km/h
1080 02-08-2010 23:58:02 15.9 C 12.32 g/m*3 15.9 C 0 km/h
1081 03-08-2010 00:10:02 15.9 C 12.19 g/m*3 15.9 C 0 km/h
1082 03-08-2010 00:22:02 16 C 12.13 g/m*3 16 C 0 km/h
1083 03-08-2010 00:34:02 16 C 11.99 g/m*3 16 C 0 km/h
1084 03-08-2010 00:46:02 15.9 C 12.05 g/m*3 15.9 C 0 km/h
1085 03-08-2010 00:58:02 15.9 C 12.05 g/m*3 15.9 C 0 km/h
1086 03-08-2010 01:10:02 15.9 C 12.05 g/m*3 15.9 C 0 km/h
1087 03-08-2010 01:22:02 15.9 C 12.05 g/m*3 15.9 C 0 km/h
1088 03-08-2010 01:34:02 16 C 11.99 g/m*3 16 C 0 km/h
1089 03-08-2010 01:46:02 16 C 11.99 g/m*3 16 C 0 km/h
1090 03-08-2010 01:58:02 16 C 11.99 g/m*3 16 C 0 km/h
1091 03-08-2010 02:10:02 15.9 C 11.92 g/m*3 15.9 C 0 km/h
1092 03-08-2010 02:22:02 15.7 C 11.77 g/m*3 15.7 C 0 km/h
1093 03-08-2010 02:34:02 15.5 C 11.76 g/m*3 15.5 C 0 km/h
1094 03-08-2010 02:46:02 15.1 C 11.61 g/m*3 15.1 C 0 km/h
1095 03-08-2010 02:58:02 15.1 C 11.74 g/m*3 15.1 C 0 km/h
1096 03-08-2010 03:10:02 15.2 C 11.94 g/m*3 15.2 C 0 km/h
1097 03-08-2010 03:22:03 15.3 C 12.01 g/m*3 15.3 C 0 km/h
1098 03-08-2010 03:34:03 15.3 C 12.14 g/m*3 15.3 C 0 km/h
1099 03-08-2010 03:46:03 15.2 C 12.07 g/m*3 15.2 C 0 km/h
1100 03-08-2010 03:58:03 15.3 C 12.14 g/m*3 15.3 C 0 km/h
Sensor: Nr:Datum:Temp:Abs-Feuchte:Windchill:Wind:
Aussen-T/F 1101 03-08-2010 04:10:03 15.2 C 12.07 g/m*3 15.2 C 0 km/h
1102 03-08-2010 04:22:03 15 C 11.93 g/m*3 15 C 0 km/h
1103 03-08-2010 04:34:03 15 C 12.05 g/m*3 15 C 0 km/h
1104 03-08-2010 04:46:03 15 C 12.05 g/m*3 15 C 0 km/h
1105 03-08-2010 04:58:03 14.9 C 12.11 g/m*3 14.9 C 0 km/h
1106 03-08-2010 05:10:03 14.9 C 12.11 g/m*3 14.9 C 0 km/h
1107 03-08-2010 05:22:03 14.9 C 12.11 g/m*3 14.9 C 0 km/h
1108 03-08-2010 05:34:03 15 C 12.05 g/m*3 15 C 0 km/h
1109 03-08-2010 05:46:03 15 C 12.05 g/m*3 15 C 0 km/h
1110 03-08-2010 05:58:03 15 C 12.05 g/m*3 15 C 0 km/h
1111 03-08-2010 06:10:03 14.8 C 12.03 g/m*3 14.8 C 0 km/h
1112 03-08-2010 06:22:03 14.7 C 11.96 g/m*3 14.7 C 0 km/h
1113 03-08-2010 06:34:03 14.6 C 11.89 g/m*3 14.6 C 0 km/h
1114 03-08-2010 06:46:03 14.5 C 11.82 g/m*3 14.5 C 0 km/h
1115 03-08-2010 06:58:03 14.5 C 11.82 g/m*3 14.5 C 0 km/h
1116 03-08-2010 07:10:02 14.7 C 11.96 g/m*3 14.7 C 0 km/h
1117 03-08-2010 07:22:01 15 C 12.18 g/m*3 15 C 0 km/h
1118 03-08-2010 07:34:02 15 C 12.18 g/m*3 15 C 0 km/h
1119 03-08-2010 07:46:01 15.2 C 12.33 g/m*3 15.2 C 0 km/h
1120 03-08-2010 07:58:01 15.4 C 12.48 g/m*3 15.4 C 0 km/h
1121 03-08-2010 08:10:02 15.8 C 12.65 g/m*3 15.8 C 0 km/h
1122 03-08-2010 08:22:02 15.9 C 12.59 g/m*3 15.9 C 0 km/h
1123 03-08-2010 08:34:01 15.8 C 12.38 g/m*3 15.8 C 0 km/h
1124 03-08-2010 08:46:02 16.2 C 12.27 g/m*3 16.2 C 0 km/h
1125 03-08-2010 08:58:02 16.1 C 11.93 g/m*3 16.1 C 0 km/h
Sensor: Nr:Datum:Temp:Abs-Feuchte:Windchill:Wind:
Aussen-T/F 1126 03-08-2010 09:10:01 16.4 C 11.86 g/m*3 16.4 C 0 km/h
1127 03-08-2010 09:22:02 16.6 C 11.72 g/m*3 16.6 C 0 km/h
1128 03-08-2010 09:34:02 16.8 C 11.87 g/m*3 16.8 C 0 km/h
1129 03-08-2010 09:46:02 16.9 C 11.65 g/m*3 16.9 C 0 km/h
1130 03-08-2010 09:58:02 17.2 C 11.42 g/m*3 17.2 C 0 km/h
1131 03-08-2010 10:10:03 18.1 C 11.74 g/m*3 18.1 C 0 km/h
1132 03-08-2010 10:22:02 17.9 C 10.84 g/m*3 17.9 C 0 km/h
1133 03-08-2010 10:34:03 17.1 C 10.77 g/m*3 17.1 C 0 km/h
1134 03-08-2010 10:46:01 17.2 C 10.84 g/m*3 17.2 C 0 km/h
1135 03-08-2010 10:58:01 17.9 C 10.99 g/m*3 17.9 C 0 km/h
1136 03-08-2010 11:10:02 18.2 C 10.41 g/m*3 18.2 C 0 km/h
1137 03-08-2010 11:22:01 18.7 C 10.25 g/m*3 18.7 C 0 km/h
1138 03-08-2010 11:34:03 18.8 C 9.5 g/m*3 18.8 C 0 km/h
1139 03-08-2010 11:46:03 19.2 C 9.07 g/m*3 19.2 C 0 km/h
1140 03-08-2010 11:58:03 19.8 C 8.54 g/m*3 19.8 C 0 km/h
1141 03-08-2010 12:10:02 20.4 C 8.31 g/m*3 20.4 C 0 km/h
1142 03-08-2010 12:22:02 21.1 C 7.92 g/m*3 21.1 C 0 km/h
1143 03-08-2010 12:34:02 22 C 7.96 g/m*3 22 C 0 km/h
1144 03-08-2010 12:46:02 22.1 C 7.42 g/m*3 22.1 C 0 km/h
1145 03-08-2010 12:58:02 20.5 C 8.01 g/m*3 20.5 C 0 km/h
1146 03-08-2010 13:10:02 20.9 C 8.01 g/m*3 20.9 C 0 km/h
1147 03-08-2010 13:22:02 22.8 C 7.11 g/m*3 22.8 C 0 km/h
1148 03-08-2010 13:34:02 23.3 C 6.48 g/m*3 23.3 C 0 km/h
1149 03-08-2010 13:46:02 21 C 6.78 g/m*3 21 C 0 km/h
1150 03-08-2010 13:58:02 18.7 C 9.29 g/m*3 18.7 C 0 km/h
Sensor: Nr:Datum:Temp:Abs-Feuchte:Windchill:Wind:
Aussen-T/F 1151 03-08-2010 14:10:02 20.2 C 10.49 g/m*3 20.2 C 0 km/h
1152 03-08-2010 14:22:01 21.5 C 8.11 g/m*3 21.5 C 0 km/h
1153 03-08-2010 14:34:02 21.6 C 7.78 g/m*3 21.6 C 0 km/h
1154 03-08-2010 14:46:01 22 C 7.76 g/m*3 22 C 0 km/h
1155 03-08-2010 14:58:01 24.1 C 6.78 g/m*3 24.1 C 0 km/h
1156 03-08-2010 15:10:02 23.6 C 6.38 g/m*3 23.6 C 0 km/h
1157 03-08-2010 15:22:02 24.9 C 6.41 g/m*3 24.9 C 0 km/h
1158 03-08-2010 15:34:01 24.2 C 6.16 g/m*3 24.2 C 0 km/h
1159 03-08-2010 15:46:02 24.9 C 6.18 g/m*3 24.9 C 0 km/h
1160 03-08-2010 15:58:02 23.4 C 6.31 g/m*3 23.4 C 0 km/h
1161 03-08-2010 16:10:01 25 C 5.99 g/m*3 25 C 0 km/h
1162 03-08-2010 16:22:02 25.1 C 5.79 g/m*3 25.1 C 0 km/h
1163 03-08-2010 16:34:01 25.5 C 5.21 g/m*3 25.5 C 0 km/h
1164 03-08-2010 16:46:02 26 C 4.87 g/m*3 26 C 0 km/h
1165 03-08-2010 16:58:02 25.3 C 4.68 g/m*3 25.3 C 0 km/h
1166 03-08-2010 17:10:02 25.1 C 4.86 g/m*3 25.1 C 0 km/h
1167 03-08-2010 17:22:02 25.6 C 5 g/m*3 25.6 C 0 km/h
1168 03-08-2010 17:34:02 25.3 C 4.92 g/m*3 25.3 C 0 km/h
1169 03-08-2010 17:46:01 26.2 C 4.92 g/m*3 26.2 C 0 km/h
1170 03-08-2010 17:58:01 27 C 5.15 g/m*3 27 C 0 km/h
1171 03-08-2010 18:10:02 26.6 C 5.03 g/m*3 26.6 C 0 km/h
1172 03-08-2010 18:22:01 27.1 C 5.18 g/m*3 27.1 C 0 km/h
1173 03-08-2010 18:34:01 26.9 C 5.12 g/m*3 26.9 C 0 km/h
1174 03-08-2010 18:46:01 26 C 4.87 g/m*3 26 C 0 km/h
1175 03-08-2010 18:58:01 24 C 5.44 g/m*3 24 C 0 km/h
Sensor: Nr:Datum:Temp:Abs-Feuchte:Windchill:Wind:
Aussen-T/F 1176 03-08-2010 19:10:02 23.1 C 5.79 g/m*3 23.1 C 0 km/h
1177 03-08-2010 19:22:01 23.6 C 5.74 g/m*3 23.6 C 0 km/h
1178 03-08-2010 19:34:01 24.1 C 6.35 g/m*3 24.1 C 0 km/h
1179 03-08-2010 19:46:01 23.9 C 6.06 g/m*3 23.9 C 0 km/h
1180 03-08-2010 19:58:01 23.3 C 5.65 g/m*3 23.3 C 0 km/h
1181 03-08-2010 20:10:02 23.2 C 5.61 g/m*3 23.2 C 0 km/h
1182 03-08-2010 20:22:02 22.6 C 6.23 g/m*3 22.6 C 0 km/h
1183 03-08-2010 20:34:01 22 C 7.76 g/m*3 22 C 0 km/h
1184 03-08-2010 20:46:02 20.9 C 8.01 g/m*3 20.9 C 0 km/h
1185 03-08-2010 20:58:02 19.9 C 8.08 g/m*3 19.9 C 0 km/h
1186 03-08-2010 21:10:02 19.1 C 7.38 g/m*3 19.1 C 0 km/h
1187 03-08-2010 21:22:01 18.6 C 7.64 g/m*3 18.6 C 0 km/h
1188 03-08-2010 21:34:01 18.3 C 7.51 g/m*3 18.3 C 0 km/h
1189 03-08-2010 21:46:02 18 C 7.68 g/m*3 18 C 0 km/h
1190 03-08-2010 21:58:02 17.6 C 7.8 g/m*3 17.6 C 0 km/h
1191 03-08-2010 22:10:02 17.5 C 8.05 g/m*3 17.5 C 0 km/h
1192 03-08-2010 22:22:02 17.5 C 7.9 g/m*3 17.5 C 0 km/h
1193 03-08-2010 22:35:04 17.3 C 8.4 g/m*3 17.3 C 0 km/h
1194 03-08-2010 22:47:04 17.2 C 8.49 g/m*3 17.2 C 0 km/h
1195 03-08-2010 22:59:04 16.8 C 8.58 g/m*3 16.8 C 0 km/h
1196 03-08-2010 23:11:04 16.5 C 8.43 g/m*3 16.5 C 0 km/h
1197 03-08-2010 23:23:04 16.4 C 8.37 g/m*3 16.4 C 0 km/h
1198 03-08-2010 23:35:04 16.1 C 8.36 g/m*3 16.1 C 0 km/h
1199 03-08-2010 23:47:04 15.9 C 8.67 g/m*3 15.9 C 0 km/h
1200 03-08-2010 23:59:04 15.7 C 8.7 g/m*3 15.7 C 0 km/h
Sensor: Nr:Datum:Temp:Abs-Feuchte:Windchill:Wind:
Aussen-T/F 1201 04-08-2010 00:11:04 15.5 C 8.72 g/m*3 15.5 C 0 km/h
1202 04-08-2010 00:23:04 15.4 C 8.8 g/m*3 15.4 C 0 km/h
1203 04-08-2010 00:35:04 15.3 C 9.01 g/m*3 15.3 C 0 km/h
1204 04-08-2010 00:47:04 15.4 C 9.2 g/m*3 15.4 C 0 km/h
1205 04-08-2010 00:59:04 15.6 C 9.18 g/m*3 15.6 C 0 km/h
1206 04-08-2010 01:11:04 15.6 C 9.18 g/m*3 15.6 C 0 km/h
1207 04-08-2010 01:23:04 15.6 C 9.18 g/m*3 15.6 C 0 km/h
1208 04-08-2010 01:35:04 15.7 C 9.23 g/m*3 15.7 C 0 km/h
1209 04-08-2010 01:47:04 15.8 C 9.29 g/m*3 15.8 C 0 km/h
1210 04-08-2010 01:59:04 15.7 C 9.23 g/m*3 15.7 C 0 km/h
1211 04-08-2010 02:11:04 15.6 C 9.31 g/m*3 15.6 C 0 km/h
1212 04-08-2010 02:23:04 15.4 C 9.59 g/m*3 15.4 C 0 km/h
1213 04-08-2010 02:35:04 15.3 C 9.79 g/m*3 15.3 C 0 km/h
1214 04-08-2010 02:47:05 15.4 C 9.99 g/m*3 15.4 C 0 km/h
1215 04-08-2010 02:59:05 15.4 C 9.85 g/m*3 15.4 C 0 km/h
1216 04-08-2010 03:11:05 15.4 C 9.72 g/m*3 15.4 C 0 km/h
1217 04-08-2010 03:23:05 15.4 C 9.85 g/m*3 15.4 C 0 km/h
1218 04-08-2010 03:35:05 15.4 C 9.72 g/m*3 15.4 C 0 km/h
1219 04-08-2010 03:47:05 15.3 C 9.66 g/m*3 15.3 C 0 km/h
1220 04-08-2010 03:59:05 15.3 C 9.53 g/m*3 15.3 C 0 km/h
1221 04-08-2010 04:11:05 15.2 C 9.48 g/m*3 15.2 C 0 km/h
1222 04-08-2010 04:23:05 15.2 C 9.48 g/m*3 15.2 C 0 km/h
1223 04-08-2010 04:35:05 15.2 C 9.48 g/m*3 15.2 C 0 km/h
1224 04-08-2010 04:47:05 15.2 C 9.61 g/m*3 15.2 C 0 km/h
1225 04-08-2010 04:59:05 15.2 C 9.61 g/m*3 15.2 C 0 km/h
Sensor: Nr:Datum:Temp:Abs-Feuchte:Windchill:Wind:
Aussen-T/F 1226 04-08-2010 05:11:05 15.2 C 9.61 g/m*3 15.2 C 0 km/h
1227 04-08-2010 05:23:05 15.1 C 9.55 g/m*3 15.1 C 0 km/h
1228 04-08-2010 05:35:05 15.1 C 9.55 g/m*3 15.1 C 0 km/h
1229 04-08-2010 05:47:05 15.1 C 9.55 g/m*3 15.1 C 0 km/h
1230 04-08-2010 05:59:05 15.2 C 9.61 g/m*3 15.2 C 0 km/h
1231 04-08-2010 06:11:05 15.2 C 9.73 g/m*3 15.2 C 0 km/h
1232 04-08-2010 06:23:05 15.2 C 9.73 g/m*3 15.2 C 0 km/h
1233 04-08-2010 06:35:05 15.3 C 9.79 g/m*3 15.3 C 0 km/h
1234 04-08-2010 06:47:01 15.3 C 9.79 g/m*3 15.3 C 0 km/h
1235 04-08-2010 06:59:01 15.4 C 9.85 g/m*3 15.4 C 0 km/h
1236 04-08-2010 07:11:01 15.7 C 10.03 g/m*3 15.7 C 0 km/h
1237 04-08-2010 07:23:02 15.8 C 9.96 g/m*3 15.8 C 0 km/h
1238 04-08-2010 07:35:02 16 C 9.95 g/m*3 16 C 0 km/h
1239 04-08-2010 07:47:02 15.8 C 9.96 g/m*3 15.8 C 0 km/h
1240 04-08-2010 07:59:02 16.1 C 10.14 g/m*3 16.1 C 0 km/h
1241 04-08-2010 08:11:03 16.2 C 9.93 g/m*3 16.2 C 0 km/h
1242 04-08-2010 08:23:02 16.8 C 9.87 g/m*3 16.8 C 0 km/h
1243 04-08-2010 08:35:02 16.9 C 9.92 g/m*3 16.9 C 0 km/h
1244 04-08-2010 08:47:01 17 C 9.98 g/m*3 17 C 0 km/h
1245 04-08-2010 08:59:01 17.4 C 10.08 g/m*3 17.4 C 0 km/h
1246 04-08-2010 09:11:02 17.5 C 10.14 g/m*3 17.5 C 0 km/h
1247 04-08-2010 09:23:01 18.3 C 10.01 g/m*3 18.3 C 0 km/h
1248 04-08-2010 09:35:01 18.7 C 9.77 g/m*3 18.7 C 0 km/h
1249 04-08-2010 09:47:01 19.5 C 9.57 g/m*3 19.5 C 0 km/h
1250 04-08-2010 09:59:01 20 C 9.68 g/m*3 20 C 0 km/h
Sensor: Nr:Datum:Temp:Abs-Feuchte:Windchill:Wind:
Aussen-T/F 1251 04-08-2010 10:11:01 20.8 C 9.96 g/m*3 20.8 C 0 km/h
1252 04-08-2010 10:23:01 20.9 C 9.29 g/m*3 20.9 C 0 km/h
1253 04-08-2010 10:35:01 20.8 C 9.05 g/m*3 20.8 C 0 km/h
1254 04-08-2010 10:47:03 21.2 C 8.71 g/m*3 21.2 C 0 km/h
1255 04-08-2010 10:59:03 21.7 C 8.58 g/m*3 21.7 C 0 km/h
1256 04-08-2010 11:11:02 22.1 C 8.2 g/m*3 22.1 C 0 km/h
1257 04-08-2010 11:23:02 22.2 C 7.85 g/m*3 22.2 C 0 km/h
1258 04-08-2010 11:35:02 22.5 C 8.39 g/m*3 22.5 C 0 km/h
1259 04-08-2010 11:47:02 22.9 C 7.97 g/m*3 22.9 C 0 km/h
1260 04-08-2010 11:59:02 22.8 C 8.13 g/m*3 22.8 C 0 km/h
1261 04-08-2010 12:11:02 23 C 7.4 g/m*3 23 C 0 km/h
1262 04-08-2010 12:23:02 23.4 C 7.36 g/m*3 23.4 C 0 km/h
1263 04-08-2010 12:35:02 23.7 C 7.06 g/m*3 23.7 C 0 km/h
1264 04-08-2010 12:47:01 24.1 C 6.56 g/m*3 24.1 C 0 km/h
1265 04-08-2010 12:59:01 24.4 C 6.68 g/m*3 24.4 C 0 km/h
1266 04-08-2010 13:11:01 25.6 C 6.19 g/m*3 25.6 C 0 km/h
1267 04-08-2010 13:23:01 25 C 6.22 g/m*3 25 C 0 km/h
1268 04-08-2010 13:35:01 24.6 C 6.53 g/m*3 24.6 C 0 km/h
1269 04-08-2010 13:47:01 24.5 C 6.71 g/m*3 24.5 C 0 km/h
1270 04-08-2010 13:59:01 25.2 C 6.29 g/m*3 25.2 C 0 km/h
1271 04-08-2010 14:11:02 24.7 C 6.56 g/m*3 24.7 C 0 km/h
1272 04-08-2010 14:23:01 24 C 6.74 g/m*3 24 C 0 km/h
1273 04-08-2010 14:35:02 24.1 C 6.56 g/m*3 24.1 C 0 km/h
1274 04-08-2010 14:47:01 24.5 C 6.71 g/m*3 24.5 C 0 km/h
1275 04-08-2010 14:59:01 25.5 C 6.63 g/m*3 25.5 C 0 km/h
Sensor: Nr:Datum:Temp:Abs-Feuchte:Windchill:Wind:
Aussen-T/F 1276 04-08-2010 15:11:02 24.9 C 6.87 g/m*3 24.9 C 0 km/h
1277 04-08-2010 15:23:01 23.6 C 6.59 g/m*3 23.6 C 0 km/h
1278 04-08-2010 15:35:01 23.5 C 6.77 g/m*3 23.5 C 0 km/h
1279 04-08-2010 15:47:01 23.5 C 6.77 g/m*3 23.5 C 0 km/h
1280 04-08-2010 15:59:01 23.9 C 7.14 g/m*3 23.9 C 0 km/h
1281 04-08-2010 16:11:01 23.3 C 6.9 g/m*3 23.3 C 0 km/h
1282 04-08-2010 16:23:02 23.4 C 7.15 g/m*3 23.4 C 0 km/h
1283 04-08-2010 16:35:01 23.7 C 7.06 g/m*3 23.7 C 0 km/h
1284 04-08-2010 16:47:03 23 C 6.99 g/m*3 23 C 0 km/h
1285 04-08-2010 16:59:03 23.4 C 6.94 g/m*3 23.4 C 0 km/h
1286 04-08-2010 17:11:02 23.8 C 6.88 g/m*3 23.8 C 0 km/h
1287 04-08-2010 17:23:02 23 C 7.19 g/m*3 23 C 0 km/h
1288 04-08-2010 17:35:03 22.9 C 7.36 g/m*3 22.9 C 0 km/h
1289 04-08-2010 17:47:02 22.9 C 7.36 g/m*3 22.9 C 0 km/h
1290 04-08-2010 17:59:02 22.9 C 7.36 g/m*3 22.9 C 0 km/h
1291 04-08-2010 18:11:01 23 C 7.4 g/m*3 23 C 0 km/h
1292 04-08-2010 18:23:02 23.3 C 7.32 g/m*3 23.3 C 0 km/h
1293 04-08-2010 18:35:02 23.5 C 7.4 g/m*3 23.5 C 0 km/h
1294 04-08-2010 18:47:02 23.6 C 7.44 g/m*3 23.6 C 0 km/h
1295 04-08-2010 18:59:02 23.2 C 7.28 g/m*3 23.2 C 0 km/h
1296 04-08-2010 19:11:02 22.8 C 7.32 g/m*3 22.8 C 0 km/h
1297 04-08-2010 19:23:02 22.6 C 8.04 g/m*3 22.6 C 0 km/h
1298 04-08-2010 19:35:02 22.5 C 7.79 g/m*3 22.5 C 0 km/h
1299 04-08-2010 19:47:02 22.3 C 7.9 g/m*3 22.3 C 0 km/h
1300 04-08-2010 19:59:02 22 C 8.15 g/m*3 22 C 0 km/h
Sensor: Nr:Datum:Temp:Abs-Feuchte:Windchill:Wind:
Aussen-T/F 1301 04-08-2010 20:11:02 21.9 C 8.68 g/m*3 21.9 C 0 km/h
1302 04-08-2010 20:23:02 21.5 C 8.86 g/m*3 21.5 C 0 km/h
1303 04-08-2010 20:35:02 21.1 C 9.03 g/m*3 21.1 C 0 km/h
1304 04-08-2010 20:47:02 20.7 C 9.18 g/m*3 20.7 C 0 km/h
1305 04-08-2010 20:59:02 20.5 C 9.07 g/m*3 20.5 C 0 km/h
1306 04-08-2010 21:11:02 20.3 C 9.15 g/m*3 20.3 C 0 km/h
1307 04-08-2010 21:23:03 20.1 C 9.04 g/m*3 20.1 C 0 km/h
1308 04-08-2010 21:35:02 20 C 8.99 g/m*3 20 C 0 km/h
1309 04-08-2010 21:47:02 20 C 8.99 g/m*3 20 C 0 km/h
1310 04-08-2010 21:59:02 20.1 C 9.39 g/m*3 20.1 C 0 km/h
1311 04-08-2010 22:12:03 19.7 C 9.51 g/m*3 19.7 C 0 km/h
1312 04-08-2010 22:24:03 19.5 C 9.9 g/m*3 19.5 C 0 km/h
1313 04-08-2010 22:36:03 19.4 C 10.18 g/m*3 19.4 C 0 km/h
1314 04-08-2010 22:48:04 18.7 C 10.73 g/m*3 18.7 C 0 km/h
1315 04-08-2010 23:00:04 18.5 C 11.23 g/m*3 18.5 C 0 km/h
1316 04-08-2010 23:12:04 18.5 C 11.23 g/m*3 18.5 C 0 km/h
1317 04-08-2010 23:24:04 18.5 C 11.23 g/m*3 18.5 C 0 km/h
1318 04-08-2010 23:36:04 18.5 C 11.55 g/m*3 18.5 C 0 km/h
1319 04-08-2010 23:48:04 17.6 C 12 g/m*3 17.6 C 0 km/h
1320 05-08-2010 00:00:04 17.1 C 12.23 g/m*3 17.1 C 0 km/h
1321 05-08-2010 00:12:04 17 C 12.3 g/m*3 17 C 0 km/h
1322 05-08-2010 00:24:04 16.8 C 12.44 g/m*3 16.8 C 0 km/h
1323 05-08-2010 00:36:04 16.6 C 12.43 g/m*3 16.6 C 0 km/h
1324 05-08-2010 00:48:04 16.4 C 12.42 g/m*3 16.4 C 0 km/h
1325 05-08-2010 01:00:04 16.3 C 12.35 g/m*3 16.3 C 0 km/h
Sensor: Nr:Datum:Temp:Abs-Feuchte:Windchill:Wind:
Aussen-T/F 1326 05-08-2010 01:12:04 16.3 C 12.49 g/m*3 16.3 C 0 km/h
1327 05-08-2010 01:24:04 16.3 C 12.49 g/m*3 16.3 C 0 km/h
1328 05-08-2010 01:36:04 16.3 C 12.49 g/m*3 16.3 C 0 km/h
1329 05-08-2010 01:48:04 16.2 C 12.41 g/m*3 16.2 C 0 km/h
1330 05-08-2010 02:00:04 16 C 12.4 g/m*3 16 C 0 km/h
1331 05-08-2010 02:12:04 15.8 C 12.38 g/m*3 15.8 C 0 km/h
1332 05-08-2010 02:24:04 15.8 C 12.38 g/m*3 15.8 C 0 km/h
1333 05-08-2010 02:36:04 15.8 C 12.38 g/m*3 15.8 C 0 km/h
1334 05-08-2010 02:48:04 15.7 C 12.31 g/m*3 15.7 C 0 km/h
1335 05-08-2010 03:00:04 15.7 C 12.31 g/m*3 15.7 C 0 km/h
1336 05-08-2010 03:12:05 15.8 C 12.52 g/m*3 15.8 C 0 km/h
1337 05-08-2010 03:24:05 15.5 C 12.29 g/m*3 15.5 C 0 km/h
1338 05-08-2010 03:36:05 15.4 C 12.22 g/m*3 15.4 C 0 km/h
1339 05-08-2010 03:48:05 15.3 C 12.14 g/m*3 15.3 C 0 km/h
1340 05-08-2010 04:00:05 15.4 C 12.22 g/m*3 15.4 C 0 km/h
1341 05-08-2010 04:12:05 15.5 C 12.29 g/m*3 15.5 C 0 km/h
1342 05-08-2010 04:24:05 15.4 C 12.22 g/m*3 15.4 C 0 km/h
1343 05-08-2010 04:36:05 15.2 C 12.07 g/m*3 15.2 C 0 km/h
1344 05-08-2010 04:48:05 15 C 11.93 g/m*3 15 C 0 km/h
1345 05-08-2010 05:00:05 15 C 11.93 g/m*3 15 C 0 km/h
1346 05-08-2010 05:12:05 15.2 C 12.07 g/m*3 15.2 C 0 km/h
1347 05-08-2010 05:24:05 15.4 C 12.22 g/m*3 15.4 C 0 km/h
1348 05-08-2010 05:36:05 15.5 C 12.43 g/m*3 15.5 C 0 km/h
1349 05-08-2010 05:48:05 15.5 C 12.43 g/m*3 15.5 C 0 km/h
1350 05-08-2010 06:00:05 15.6 C 12.5 g/m*3 15.6 C 0 km/h
Sensor: Nr:Datum:Temp:Abs-Feuchte:Windchill:Wind:
Aussen-T/F 1351 05-08-2010 06:12:05 15.7 C 12.58 g/m*3 15.7 C 0 km/h
1352 05-08-2010 06:24:05 15.7 C 12.58 g/m*3 15.7 C 0 km/h
1353 05-08-2010 06:36:05 15.7 C 12.58 g/m*3 15.7 C 0 km/h
1354 05-08-2010 06:48:05 15.7 C 12.58 g/m*3 15.7 C 0 km/h
1355 05-08-2010 07:00:05 15.7 C 12.58 g/m*3 15.7 C 0 km/h
1356 05-08-2010 07:12:05 15.8 C 12.65 g/m*3 15.8 C 0 km/h
1357 05-08-2010 07:24:04 15.6 C 12.5 g/m*3 15.6 C 0 km/h
1358 05-08-2010 07:36:03 15.7 C 12.58 g/m*3 15.7 C 0 km/h
1359 05-08-2010 07:48:02 15.8 C 12.52 g/m*3 15.8 C 0 km/h
1360 05-08-2010 08:00:02 15.9 C 12.59 g/m*3 15.9 C 0 km/h
1361 05-08-2010 08:12:02 15.9 C 12.46 g/m*3 15.9 C 0 km/h
1362 05-08-2010 08:24:02 16.3 C 12.62 g/m*3 16.3 C 0 km/h
1363 05-08-2010 08:36:02 16.5 C 12.64 g/m*3 16.5 C 0 km/h
1364 05-08-2010 08:48:02 16.4 C 12.42 g/m*3 16.4 C 0 km/h
1365 05-08-2010 09:00:02 16.4 C 12.14 g/m*3 16.4 C 0 km/h
1366 05-08-2010 09:12:02 16.6 C 11.58 g/m*3 16.6 C 0 km/h
1367 05-08-2010 09:24:02 17 C 11.72 g/m*3 17 C 0 km/h
1368 05-08-2010 09:36:02 17 C 11 g/m*3 17 C 0 km/h
1369 05-08-2010 09:48:02 17.2 C 10.69 g/m*3 17.2 C 0 km/h
1370 05-08-2010 10:00:03 17.5 C 11.03 g/m*3 17.5 C 0 km/h
1371 05-08-2010 10:12:01 17 C 10.13 g/m*3 17 C 0 km/h
1372 05-08-2010 10:24:01 17 C 10.42 g/m*3 17 C 0 km/h
1373 05-08-2010 10:36:02 17.7 C 10.41 g/m*3 17.7 C 0 km/h
1374 05-08-2010 10:48:02 18.1 C 9.89 g/m*3 18.1 C 0 km/h
1375 05-08-2010 11:00:02 18.3 C 10.01 g/m*3 18.3 C 0 km/h
Sensor: Nr:Datum:Temp:Abs-Feuchte:Windchill:Wind:
Aussen-T/F 1376 05-08-2010 11:12:02 18.5 C 9.81 g/m*3 18.5 C 0 km/h
1377 05-08-2010 11:24:02 18.5 C 9.18 g/m*3 18.5 C 0 km/h
1378 05-08-2010 11:36:02 18.1 C 9.43 g/m*3 18.1 C 0 km/h
1379 05-08-2010 11:48:02 18.4 C 9.91 g/m*3 18.4 C 0 km/h
1380 05-08-2010 12:00:02 18.1 C 9.27 g/m*3 18.1 C 0 km/h
1381 05-08-2010 12:12:02 18.4 C 9.28 g/m*3 18.4 C 0 km/h
1382 05-08-2010 12:24:02 18.2 C 9.48 g/m*3 18.2 C 0 km/h
1383 05-08-2010 12:36:02 18.5 C 9.33 g/m*3 18.5 C 0 km/h
1384 05-08-2010 12:48:02 18.9 C 9.4 g/m*3 18.9 C 0 km/h
1385 05-08-2010 13:00:02 18.6 C 8.91 g/m*3 18.6 C 0 km/h
1386 05-08-2010 13:12:02 19.1 C 8.36 g/m*3 19.1 C 0 km/h
1387 05-08-2010 13:24:02 18.5 C 7.91 g/m*3 18.5 C 0 km/h
1388 05-08-2010 13:36:02 18.7 C 7.84 g/m*3 18.7 C 0 km/h
1389 05-08-2010 13:48:02 20 C 7.95 g/m*3 20 C 0 km/h
1390 05-08-2010 14:00:02 20.1 C 7.47 g/m*3 20.1 C 0 km/h
1391 05-08-2010 14:12:02 20.4 C 7.61 g/m*3 20.4 C 0 km/h
1392 05-08-2010 14:24:02 21.6 C 7.78 g/m*3 21.6 C 0 km/h
1393 05-08-2010 14:36:01 21.8 C 7.67 g/m*3 21.8 C 0 km/h
1394 05-08-2010 14:48:02 22.5 C 7.19 g/m*3 22.5 C 0 km/h
1395 05-08-2010 15:00:02 22.1 C 7.03 g/m*3 22.1 C 0 km/h
1396 05-08-2010 15:12:02 22.9 C 6.95 g/m*3 22.9 C 0 km/h
1397 05-08-2010 15:24:02 22.6 C 6.43 g/m*3 22.6 C 0 km/h
1398 05-08-2010 15:36:02 23.3 C 5.85 g/m*3 23.3 C 0 km/h
1399 05-08-2010 15:48:01 24.1 C 5.69 g/m*3 24.1 C 0 km/h
1400 05-08-2010 16:00:01 26 C 6.33 g/m*3 26 C 0 km/h
Sensor: Nr:Datum:Temp:Abs-Feuchte:Windchill:Wind:
Aussen-T/F 1401 05-08-2010 16:12:02 25.5 C 5.21 g/m*3 25.5 C 0 km/h
1402 05-08-2010 16:24:01 24.2 C 5.5 g/m*3 24.2 C 0 km/h
1403 05-08-2010 16:36:01 24.7 C 5.66 g/m*3 24.7 C 0 km/h
1404 05-08-2010 16:48:01 25 C 5.75 g/m*3 25 C 0 km/h
1405 05-08-2010 17:00:01 24.3 C 5.53 g/m*3 24.3 C 0 km/h
1406 05-08-2010 17:12:01 23.6 C 5.32 g/m*3 23.6 C 0 km/h
1407 05-08-2010 17:24:02 24.1 C 5.03 g/m*3 24.1 C 0 km/h
1408 05-08-2010 17:36:01 24.4 C 5.34 g/m*3 24.4 C 0 km/h
1409 05-08-2010 17:48:01 23.5 C 5.29 g/m*3 23.5 C 0 km/h
1410 05-08-2010 18:00:01 23.7 C 5.35 g/m*3 23.7 C 0 km/h
1411 05-08-2010 18:12:02 23.6 C 5.32 g/m*3 23.6 C 0 km/h
1412 05-08-2010 18:24:01 22.1 C 5.66 g/m*3 22.1 C 0 km/h
1413 05-08-2010 18:36:02 22.5 C 5.99 g/m*3 22.5 C 0 km/h
1414 05-08-2010 18:48:02 21.6 C 5.69 g/m*3 21.6 C 0 km/h
1415 05-08-2010 19:00:02 21.6 C 5.69 g/m*3 21.6 C 0 km/h
1416 05-08-2010 19:12:02 21.2 C 5.74 g/m*3 21.2 C 0 km/h
1417 05-08-2010 19:24:02 21.2 C 6.3 g/m*3 21.2 C 0 km/h
1418 05-08-2010 19:36:02 21.4 C 6.37 g/m*3 21.4 C 0 km/h
1419 05-08-2010 19:48:02 20.9 C 6.74 g/m*3 20.9 C 0 km/h
1420 05-08-2010 20:00:02 20.8 C 6.7 g/m*3 20.8 C 0 km/h
1421 05-08-2010 20:12:02 20.3 C 6.68 g/m*3 20.3 C 0 km/h
1422 05-08-2010 20:24:02 20.1 C 7.13 g/m*3 20.1 C 0 km/h
1423 05-08-2010 20:36:01 20.1 C 6.95 g/m*3 20.1 C 0 km/h
1424 05-08-2010 20:48:02 19.8 C 7 g/m*3 19.8 C 0 km/h
1425 05-08-2010 21:00:02 19.8 C 7.34 g/m*3 19.8 C 0 km/h
Sensor: Nr:Datum:Temp:Abs-Feuchte:Windchill:Wind:
Aussen-T/F 1426 05-08-2010 21:12:01 19.3 C 7.3 g/m*3 19.3 C 0 km/h
1427 05-08-2010 21:24:01 18.9 C 7.13 g/m*3 18.9 C 0 km/h
1428 05-08-2010 21:36:02 18.5 C 6.96 g/m*3 18.5 C 0 km/h
1429 05-08-2010 21:48:02 18.2 C 6.99 g/m*3 18.2 C 0 km/h
1430 05-08-2010 22:00:02 18 C 7.07 g/m*3 18 C 0 km/h
1431 05-08-2010 22:12:02 17.9 C 7.33 g/m*3 17.9 C 0 km/h
1432 05-08-2010 22:25:02 17.7 C 7.54 g/m*3 17.7 C 0 km/h
1433 05-08-2010 22:37:02 17.5 C 7.6 g/m*3 17.5 C 0 km/h
1434 05-08-2010 22:49:02 17.4 C 7.85 g/m*3 17.4 C 0 km/h
1435 05-08-2010 23:01:02 17.5 C 7.9 g/m*3 17.5 C 0 km/h
1436 05-08-2010 23:13:02 17.3 C 7.96 g/m*3 17.3 C 0 km/h
1437 05-08-2010 23:25:02 17 C 8.1 g/m*3 17 C 0 km/h
1438 05-08-2010 23:37:02 16.7 C 8.24 g/m*3 16.7 C 0 km/h
1439 05-08-2010 23:49:02 16.5 C 8.28 g/m*3 16.5 C 0 km/h
1440 06-08-2010 00:01:02 16.4 C 8.37 g/m*3 16.4 C 0 km/h
1441 06-08-2010 00:13:02 16.2 C 8.41 g/m*3 16.2 C 0 km/h
1442 06-08-2010 00:25:02 16 C 8.45 g/m*3 16 C 0 km/h
1443 06-08-2010 00:37:02 15.8 C 8.48 g/m*3 15.8 C 0 km/h
1444 06-08-2010 00:49:02 15.7 C 8.7 g/m*3 15.7 C 0 km/h
1445 06-08-2010 01:01:02 15.6 C 8.51 g/m*3 15.6 C 0 km/h
1446 06-08-2010 01:13:03 15.4 C 8.54 g/m*3 15.4 C 0 km/h
1447 06-08-2010 01:25:03 15.3 C 8.62 g/m*3 15.3 C 0 km/h
1448 06-08-2010 01:37:03 15.1 C 8.64 g/m*3 15.1 C 0 km/h
1449 06-08-2010 01:49:03 14.9 C 8.79 g/m*3 14.9 C 0 km/h
1450 06-08-2010 02:01:03 14.7 C 8.81 g/m*3 14.7 C 0 km/h
Sensor: Nr:Datum:Temp:Abs-Feuchte:Windchill:Wind:
Aussen-T/F 1451 06-08-2010 02:13:03 14.6 C 8.88 g/m*3 14.6 C 0 km/h
1452 06-08-2010 02:25:03 14.5 C 8.83 g/m*3 14.5 C 0 km/h
1453 06-08-2010 02:37:03 14.5 C 8.95 g/m*3 14.5 C 0 km/h
1454 06-08-2010 02:49:03 14.3 C 8.85 g/m*3 14.3 C 0 km/h
1455 06-08-2010 03:01:03 14.2 C 8.79 g/m*3 14.2 C 0 km/h
1456 06-08-2010 03:13:03 14 C 8.68 g/m*3 14 C 0 km/h
1457 06-08-2010 03:25:03 14 C 8.81 g/m*3 14 C 0 km/h
1458 06-08-2010 03:37:03 13.9 C 8.99 g/m*3 13.9 C 0 km/h
1459 06-08-2010 03:49:03 13.7 C 9 g/m*3 13.7 C 0 km/h
1460 06-08-2010 04:01:03 13.6 C 9.18 g/m*3 13.6 C 0 km/h
1461 06-08-2010 04:13:03 13.5 C 9.24 g/m*3 13.5 C 0 km/h
1462 06-08-2010 04:25:03 13.4 C 9.3 g/m*3 13.4 C 0 km/h
1463 06-08-2010 04:37:03 13.4 C 9.42 g/m*3 13.4 C 0 km/h
1464 06-08-2010 04:49:03 13.3 C 9.36 g/m*3 13.3 C 0 km/h
1465 06-08-2010 05:01:03 13.1 C 9.24 g/m*3 13.1 C 0 km/h
1466 06-08-2010 05:13:03 13 C 9.3 g/m*3 13 C 0 km/h
1467 06-08-2010 05:25:04 12.8 C 9.3 g/m*3 12.8 C 0 km/h
1468 06-08-2010 05:37:04 12.8 C 9.41 g/m*3 12.8 C 0 km/h
1469 06-08-2010 05:49:04 13.1 C 9.47 g/m*3 13.1 C 0 km/h
1470 06-08-2010 06:01:04 13.4 C 9.53 g/m*3 13.4 C 0 km/h
1471 06-08-2010 06:13:04 13.5 C 9.36 g/m*3 13.5 C 0 km/h
1472 06-08-2010 06:25:04 13.5 C 9.36 g/m*3 13.5 C 0 km/h
1473 06-08-2010 06:37:04 13.2 C 9.07 g/m*3 13.2 C 0 km/h
1474 06-08-2010 06:49:04 13.1 C 9.13 g/m*3 13.1 C 0 km/h
1475 06-08-2010 07:01:04 13 C 9.19 g/m*3 13 C 0 km/h
Sensor: Nr:Datum:Temp:Abs-Feuchte:Windchill:Wind:
Aussen-T/F 1476 06-08-2010 07:13:04 13.2 C 9.3 g/m*3 13.2 C 0 km/h
1477 06-08-2010 07:25:04 13.2 C 9.19 g/m*3 13.2 C 0 km/h
1478 06-08-2010 07:37:03 13.3 C 9.36 g/m*3 13.3 C 0 km/h
1479 06-08-2010 07:49:01 13.2 C 9.3 g/m*3 13.2 C 0 km/h
1480 06-08-2010 08:01:02 13.2 C 9.42 g/m*3 13.2 C 0 km/h
1481 06-08-2010 08:13:02 13.2 C 9.42 g/m*3 13.2 C 0 km/h
1482 06-08-2010 08:25:01 13.5 C 9.59 g/m*3 13.5 C 0 km/h
1483 06-08-2010 08:37:02 13.8 C 9.65 g/m*3 13.8 C 0 km/h
1484 06-08-2010 08:49:02 13.7 C 9.35 g/m*3 13.7 C 0 km/h
1485 06-08-2010 09:01:02 14.7 C 9.57 g/m*3 14.7 C 0 km/h
1486 06-08-2010 09:13:02 14.9 C 9.43 g/m*3 14.9 C 0 km/h
1487 06-08-2010 09:25:02 15.4 C 9.46 g/m*3 15.4 C 0 km/h
1488 06-08-2010 09:37:02 15.8 C 9.29 g/m*3 15.8 C 0 km/h
1489 06-08-2010 09:49:01 16.5 C 9.41 g/m*3 16.5 C 0 km/h
1490 06-08-2010 10:01:02 17.1 C 9.17 g/m*3 17.1 C 0 km/h
1491 06-08-2010 10:13:02 17.7 C 8.45 g/m*3 17.7 C 0 km/h
1492 06-08-2010 10:25:02 17.4 C 8 g/m*3 17.4 C 0 km/h
1493 06-08-2010 10:37:01 18.2 C 7.93 g/m*3 18.2 C 0 km/h
1494 06-08-2010 10:49:01 18.8 C 7.89 g/m*3 18.8 C 0 km/h
1495 06-08-2010 11:01:01 19.2 C 7.91 g/m*3 19.2 C 0 km/h
1496 06-08-2010 11:13:01 19 C 7.17 g/m*3 19 C 0 km/h
1497 06-08-2010 11:25:02 20 C 7.6 g/m*3 20 C 0 km/h
1498 06-08-2010 11:37:01 20.8 C 7.06 g/m*3 20.8 C 0 km/h
1499 06-08-2010 11:49:02 20.2 C 6.29 g/m*3 20.2 C 0 km/h
1500 06-08-2010 12:01:01 22 C 6.79 g/m*3 22 C 0 km/h
Sensor: Nr:Datum:Temp:Abs-Feuchte:Windchill:Wind:
Aussen-T/F 1501 06-08-2010 12:13:01 20.7 C 6.48 g/m*3 20.7 C 0 km/h
1502 06-08-2010 12:25:01 20.8 C 6.34 g/m*3 20.8 C 0 km/h
1503 06-08-2010 12:37:01 22 C 6.02 g/m*3 22 C 0 km/h
1504 06-08-2010 12:49:02 21.2 C 5.19 g/m*3 21.2 C 0 km/h
1505 06-08-2010 13:01:02 22.8 C 5.49 g/m*3 22.8 C 0 km/h
1506 06-08-2010 13:13:02 22 C 4.66 g/m*3 22 C 0 km/h
1507 06-08-2010 13:25:02 24.5 C 4.7 g/m*3 24.5 C 0 km/h
1508 06-08-2010 13:37:02 24.1 C 4.38 g/m*3 24.1 C 0 km/h
1509 06-08-2010 13:49:01 25.1 C 4.63 g/m*3 25.1 C 0 km/h
1510 06-08-2010 14:01:02 24.5 C 4.48 g/m*3 24.5 C 0 km/h
1511 06-08-2010 14:13:02 24.4 C 4.45 g/m*3 24.4 C 0 km/h
1512 06-08-2010 14:25:01 25 C 4.6 g/m*3 25 C 0 km/h
1513 06-08-2010 14:37:02 24.6 C 4.5 g/m*3 24.6 C 0 km/h
1514 06-08-2010 14:49:02 25.7 C 4.79 g/m*3 25.7 C 0 km/h
1515 06-08-2010 15:01:02 25.7 C 4.79 g/m*3 25.7 C 0 km/h
1516 06-08-2010 15:13:02 25.3 C 4.68 g/m*3 25.3 C 0 km/h
1517 06-08-2010 15:25:01 25.7 C 4.79 g/m*3 25.7 C 0 km/h
1518 06-08-2010 15:37:02 24.4 C 4.45 g/m*3 24.4 C 0 km/h
1519 06-08-2010 15:49:02 25.3 C 4.68 g/m*3 25.3 C 0 km/h
1520 06-08-2010 16:01:02 26.5 C 5.01 g/m*3 26.5 C 0 km/h
1521 06-08-2010 16:13:02 28.4 C 5.56 g/m*3 28.4 C 0 km/h
1522 06-08-2010 16:25:02 28.8 C 5.68 g/m*3 28.8 C 0 km/h
1523 06-08-2010 16:37:02 28.8 C 5.68 g/m*3 28.8 C 0 km/h
1524 06-08-2010 16:49:02 28 C 5.44 g/m*3 28 C 0 km/h
1525 06-08-2010 17:01:03 26 C 4.87 g/m*3 26 C 0 km/h
Sensor: Nr:Datum:Temp:Abs-Feuchte:Windchill:Wind:
Aussen-T/F 1526 06-08-2010 17:13:03 24.2 C 4.4 g/m*3 24.2 C 0 km/h
1527 06-08-2010 17:25:02 24 C 17.19 g/m*3 24 C 0 km/h
1528 06-08-2010 17:37:02 24.3 C 6.2 g/m*3 24.3 C 0 km/h
1529 06-08-2010 17:49:02 25.8 C 4.82 g/m*3 25.8 C 0 km/h
1530 06-08-2010 18:01:02 27.6 C 5.32 g/m*3 27.6 C 0 km/h
1531 06-08-2010 18:13:02 27.2 C 5.2 g/m*3 27.2 C 0 km/h
1532 06-08-2010 18:25:02 26.7 C 5.06 g/m*3 26.7 C 0 km/h
1533 06-08-2010 18:37:02 26 C 4.87 g/m*3 26 C 0 km/h
1534 06-08-2010 18:49:03 24.6 C 4.5 g/m*3 24.6 C 0 km/h
1535 06-08-2010 19:01:03 25.9 C 4.84 g/m*3 25.9 C 0 km/h
1536 06-08-2010 19:13:03 26.6 C 5.03 g/m*3 26.6 C 0 km/h
1537 06-08-2010 19:25:03 26.2 C 4.92 g/m*3 26.2 C 0 km/h
1538 06-08-2010 19:37:02 26.4 C 4.98 g/m*3 26.4 C 0 km/h
1539 06-08-2010 19:49:03 25.9 C 4.84 g/m*3 25.9 C 0 km/h
1540 06-08-2010 20:01:03 25.7 C 4.79 g/m*3 25.7 C 0 km/h
1541 06-08-2010 20:13:03 25.1 C 5.09 g/m*3 25.1 C 0 km/h
1542 06-08-2010 20:25:03 23.8 C 4.73 g/m*3 23.8 C 0 km/h
1543 06-08-2010 20:37:03 22.5 C 5.79 g/m*3 22.5 C 0 km/h
1544 06-08-2010 20:49:02 21.2 C 5.74 g/m*3 21.2 C 0 km/h
1545 06-08-2010 21:01:02 20.3 C 5.98 g/m*3 20.3 C 0 km/h
1546 06-08-2010 21:13:02 19.5 C 5.87 g/m*3 19.5 C 0 km/h
1547 06-08-2010 21:25:02 19.1 C 5.9 g/m*3 19.1 C 0 km/h
1548 06-08-2010 21:37:02 18.9 C 6.48 g/m*3 18.9 C 0 km/h
1549 06-08-2010 21:49:02 18.7 C 6.4 g/m*3 18.7 C 0 km/h
1550 06-08-2010 22:01:02 18.3 C 6.41 g/m*3 18.3 C 0 km/h
Sensor: Nr:Datum:Temp:Abs-Feuchte:Windchill:Wind:
Aussen-T/F 1551 06-08-2010 22:13:02 18.1 C 6.49 g/m*3 18.1 C 0 km/h
1552 06-08-2010 22:25:01 17.6 C 6.15 g/m*3 17.6 C 0 km/h
1553 06-08-2010 22:38:02 17.4 C 6.22 g/m*3 17.4 C 0 km/h
1554 06-08-2010 22:50:02 17.2 C 6.44 g/m*3 17.2 C 0 km/h
1555 06-08-2010 23:02:02 16.9 C 6.47 g/m*3 16.9 C 0 km/h
1556 06-08-2010 23:14:02 16.6 C 6.5 g/m*3 16.6 C 0 km/h
1557 06-08-2010 23:26:02 16.4 C 6.7 g/m*3 16.4 C 0 km/h
1558 06-08-2010 23:38:02 16.2 C 6.76 g/m*3 16.2 C 0 km/h
1559 06-08-2010 23:50:02 15.9 C 6.91 g/m*3 15.9 C 0 km/h
1560 07-08-2010 00:02:02 15.7 C 6.96 g/m*3 15.7 C 0 km/h
1561 07-08-2010 00:14:02 15.2 C 7.01 g/m*3 15.2 C 0 km/h
1562 07-08-2010 00:26:02 15 C 7.18 g/m*3 15 C 0 km/h
1563 07-08-2010 00:38:02 14.8 C 7.09 g/m*3 14.8 C 0 km/h
1564 07-08-2010 00:50:02 14.5 C 7.46 g/m*3 14.5 C 0 km/h
1565 07-08-2010 01:02:03 14.4 C 7.42 g/m*3 14.4 C 0 km/h
1566 07-08-2010 01:14:03 14 C 7.48 g/m*3 14 C 0 km/h
1567 07-08-2010 01:26:03 14 C 7.48 g/m*3 14 C 0 km/h
1568 07-08-2010 01:38:03 13.8 C 7.63 g/m*3 13.8 C 0 km/h
1569 07-08-2010 01:50:03 13.5 C 7.72 g/m*3 13.5 C 0 km/h
1570 07-08-2010 02:02:03 13.4 C 7.67 g/m*3 13.4 C 0 km/h
1571 07-08-2010 02:14:03 13.2 C 7.92 g/m*3 13.2 C 0 km/h
1572 07-08-2010 02:26:03 12.9 C 8 g/m*3 12.9 C 0 km/h
1573 07-08-2010 02:38:03 12.8 C 7.95 g/m*3 12.8 C 0 km/h
1574 07-08-2010 02:50:03 12.7 C 7.9 g/m*3 12.7 C 0 km/h
1575 07-08-2010 03:02:03 12.6 C 7.85 g/m*3 12.6 C 0 km/h
Sensor: Nr:Datum:Temp:Abs-Feuchte:Windchill:Wind:
Aussen-T/F 1576 07-08-2010 03:14:03 12.5 C 7.7 g/m*3 12.5 C 0 km/h
1577 07-08-2010 03:26:03 12.2 C 7.66 g/m*3 12.2 C 0 km/h
1578 07-08-2010 03:38:03 12.2 C 7.77 g/m*3 12.2 C 0 km/h
1579 07-08-2010 03:50:03 12.1 C 7.72 g/m*3 12.1 C 0 km/h
1580 07-08-2010 04:02:03 11.9 C 7.73 g/m*3 11.9 C 0 km/h
1581 07-08-2010 04:14:03 11.8 C 7.79 g/m*3 11.8 C 0 km/h
1582 07-08-2010 04:26:03 11.6 C 7.69 g/m*3 11.6 C 0 km/h
1583 07-08-2010 04:38:03 11.5 C 7.64 g/m*3 11.5 C 0 km/h
1584 07-08-2010 04:50:03 11.4 C 7.7 g/m*3 11.4 C 0 km/h
1585 07-08-2010 05:02:04 11.3 C 7.65 g/m*3 11.3 C 0 km/h
1586 07-08-2010 05:14:04 11.2 C 7.7 g/m*3 11.2 C 0 km/h
1587 07-08-2010 05:26:04 11.1 C 7.66 g/m*3 11.1 C 0 km/h
1588 07-08-2010 05:38:04 10.9 C 7.66 g/m*3 10.9 C 0 km/h
1589 07-08-2010 05:50:04 10.8 C 7.81 g/m*3 10.8 C 0 km/h
1590 07-08-2010 06:02:04 10.6 C 7.71 g/m*3 10.6 C 0 km/h
1591 07-08-2010 06:14:04 10.5 C 7.76 g/m*3 10.5 C 0 km/h
1592 07-08-2010 06:26:04 10.5 C 7.76 g/m*3 10.5 C 0 km/h
1593 07-08-2010 06:38:04 10.4 C 7.81 g/m*3 10.4 C 0 km/h
1594 07-08-2010 06:50:04 10.4 C 7.81 g/m*3 10.4 C 0 km/h
1595 07-08-2010 07:02:04 10.5 C 7.86 g/m*3 10.5 C 0 km/h
1596 07-08-2010 07:14:04 10.5 C 7.86 g/m*3 10.5 C 0 km/h
1597 07-08-2010 07:26:04 10.7 C 8.05 g/m*3 10.7 C 0 km/h
1598 07-08-2010 07:38:04 10.8 C 8.01 g/m*3 10.8 C 0 km/h
1599 07-08-2010 07:50:04 11 C 8.01 g/m*3 11 C 0 km/h
1600 07-08-2010 08:02:04 11.2 C 8.01 g/m*3 11.2 C 0 km/h
Sensor: Nr:Datum:Temp:Abs-Feuchte:Windchill:Wind:
Aussen-T/F 1601 07-08-2010 08:14:04 11.4 C 8.01 g/m*3 11.4 C 0 km/h
1602 07-08-2010 08:26:04 11.6 C 8 g/m*3 11.6 C 0 km/h
1603 07-08-2010 08:38:04 12 C 8.1 g/m*3 12 C 0 km/h
1604 07-08-2010 08:50:04 12.5 C 8.25 g/m*3 12.5 C 0 km/h
1605 07-08-2010 09:02:01 12.8 C 8.18 g/m*3 12.8 C 0 km/h
1606 07-08-2010 09:14:01 13.4 C 8.25 g/m*3 13.4 C 0 km/h
1607 07-08-2010 09:26:02 14.1 C 8.5 g/m*3 14.1 C 0 km/h
1608 07-08-2010 09:38:01 14.6 C 8.51 g/m*3 14.6 C 0 km/h
1609 07-08-2010 09:50:02 15.4 C 8.54 g/m*3 15.4 C 0 km/h
1610 07-08-2010 10:02:02 16.5 C 8.71 g/m*3 16.5 C 0 km/h
1611 07-08-2010 10:14:02 17.5 C 8.8 g/m*3 17.5 C 0 km/h
1612 07-08-2010 10:26:02 18.5 C 8.86 g/m*3 18.5 C 0 km/h
1613 07-08-2010 10:38:02 19.2 C 8.24 g/m*3 19.2 C 0 km/h
1614 07-08-2010 10:50:02 19.4 C 7.67 g/m*3 19.4 C 0 km/h
1615 07-08-2010 11:02:02 19.8 C 7.17 g/m*3 19.8 C 0 km/h
1616 07-08-2010 11:14:02 20.9 C 6.74 g/m*3 20.9 C 0 km/h
1617 07-08-2010 11:26:01 21.5 C 6.03 g/m*3 21.5 C 0 km/h
1618 07-08-2010 11:38:02 22.1 C 5.66 g/m*3 22.1 C 0 km/h
1619 07-08-2010 11:50:01 22 C 6.02 g/m*3 22 C 0 km/h
1620 07-08-2010 12:02:02 22.2 C 5.89 g/m*3 22.2 C 0 km/h
1621 07-08-2010 12:14:02 22.6 C 5.62 g/m*3 22.6 C 0 km/h
1622 07-08-2010 12:26:01 22.9 C 5.31 g/m*3 22.9 C 0 km/h
1623 07-08-2010 12:38:01 23 C 5.14 g/m*3 23 C 0 km/h
1624 07-08-2010 12:50:01 23.6 C 5.32 g/m*3 23.6 C 0 km/h
1625 07-08-2010 13:02:02 23.9 C 4.76 g/m*3 23.9 C 0 km/h
Sensor: Nr:Datum:Temp:Abs-Feuchte:Windchill:Wind:
Aussen-T/F 1626 07-08-2010 13:14:02 24.8 C 4.78 g/m*3 24.8 C 0 km/h
1627 07-08-2010 13:26:01 25.9 C 4.84 g/m*3 25.9 C 0 km/h
1628 07-08-2010 13:38:02 26.6 C 5.03 g/m*3 26.6 C 0 km/h
1629 07-08-2010 13:50:02 26.2 C 4.92 g/m*3 26.2 C 0 km/h
1630 07-08-2010 14:02:02 26.7 C 5.06 g/m*3 26.7 C 0 km/h
1631 07-08-2010 14:14:02 26.6 C 5.03 g/m*3 26.6 C 0 km/h
1632 07-08-2010 14:26:02 26.5 C 5.01 g/m*3 26.5 C 0 km/h
1633 07-08-2010 14:38:02 26.5 C 5.01 g/m*3 26.5 C 0 km/h
1634 07-08-2010 14:50:02 27 C 5.15 g/m*3 27 C 0 km/h
1635 07-08-2010 15:02:02 26.9 C 5.12 g/m*3 26.9 C 0 km/h
1636 07-08-2010 15:14:02 27.2 C 5.2 g/m*3 27.2 C 0 km/h
1637 07-08-2010 15:26:02 27.7 C 5.35 g/m*3 27.7 C 0 km/h
1638 07-08-2010 15:38:02 28.8 C 5.68 g/m*3 28.8 C 0 km/h
1639 07-08-2010 15:50:02 28.3 C 5.53 g/m*3 28.3 C 0 km/h
1640 07-08-2010 16:02:02 28.5 C 5.59 g/m*3 28.5 C 0 km/h
1641 07-08-2010 16:14:03 28.7 C 5.65 g/m*3 28.7 C 0 km/h
1642 07-08-2010 16:26:01 29.5 C 5.9 g/m*3 29.5 C 0 km/h
1643 07-08-2010 16:38:02 30.1 C 6.1 g/m*3 30.1 C 0 km/h
1644 07-08-2010 16:50:02 29.2 C 5.81 g/m*3 29.2 C 0 km/h
1645 07-08-2010 17:02:02 29.5 C 5.9 g/m*3 29.5 C 0 km/h
1646 07-08-2010 17:14:02 29.5 C 5.9 g/m*3 29.5 C 0 km/h
1647 07-08-2010 17:26:02 29.1 C 5.78 g/m*3 29.1 C 0 km/h
1648 07-08-2010 17:38:02 29.9 C 6.03 g/m*3 29.9 C 0 km/h
1649 07-08-2010 17:50:02 28.5 C 5.59 g/m*3 28.5 C 0 km/h
1650 07-08-2010 18:02:02 28.2 C 5.5 g/m*3 28.2 C 0 km/h
Sensor: Nr:Datum:Temp:Abs-Feuchte:Windchill:Wind:
Aussen-T/F 1651 07-08-2010 18:14:02 27.9 C 5.95 g/m*3 27.9 C 0 km/h
1652 07-08-2010 18:26:02 27.3 C 6.8 g/m*3 27.3 C 0 km/h
1653 07-08-2010 18:38:02 26.9 C 6.14 g/m*3 26.9 C 0 km/h
1654 07-08-2010 18:50:02 26.7 C 6.83 g/m*3 26.7 C 0 km/h
1655 07-08-2010 19:02:01 26.1 C 6.61 g/m*3 26.1 C 0 km/h
1656 07-08-2010 19:14:01 25.6 C 7.14 g/m*3 25.6 C 0 km/h
1657 07-08-2010 19:26:02 24.8 C 6.83 g/m*3 24.8 C 0 km/h
1658 07-08-2010 19:38:01 24.7 C 6.79 g/m*3 24.7 C 0 km/h
1659 07-08-2010 19:50:02 24.6 C 6.75 g/m*3 24.6 C 0 km/h
1660 07-08-2010 20:02:01 24.7 C 6.79 g/m*3 24.7 C 0 km/h
1661 07-08-2010 20:14:01 24.2 C 7.04 g/m*3 24.2 C 0 km/h
1662 07-08-2010 20:26:01 23.7 C 6.84 g/m*3 23.7 C 0 km/h
1663 07-08-2010 20:38:02 23.5 C 7.19 g/m*3 23.5 C 0 km/h
1664 07-08-2010 20:50:02 23.2 C 7.07 g/m*3 23.2 C 0 km/h
1665 07-08-2010 21:02:02 22.9 C 7.15 g/m*3 22.9 C 0 km/h
1666 07-08-2010 21:14:02 22.4 C 7.35 g/m*3 22.4 C 0 km/h
1667 07-08-2010 21:26:02 22.3 C 6.91 g/m*3 22.3 C 0 km/h
1668 07-08-2010 21:38:02 22.3 C 6.91 g/m*3 22.3 C 0 km/h
1669 07-08-2010 21:50:02 22.4 C 6.95 g/m*3 22.4 C 0 km/h
1670 07-08-2010 22:02:02 22.2 C 7.07 g/m*3 22.2 C 0 km/h
1671 07-08-2010 22:14:02 22 C 6.99 g/m*3 22 C 0 km/h
1672 07-08-2010 22:26:02 21.8 C 7.48 g/m*3 21.8 C 0 km/h
1673 07-08-2010 22:38:02 21.9 C 7.72 g/m*3 21.9 C 0 km/h
1674 07-08-2010 22:50:02 21.9 C 7.72 g/m*3 21.9 C 0 km/h
1675 07-08-2010 23:02:01 21.8 C 7.67 g/m*3 21.8 C 0 km/h
Sensor: Nr:Datum:Temp:Abs-Feuchte:Windchill:Wind:
Aussen-T/F 1676 07-08-2010 23:14:01 21.7 C 7.63 g/m*3 21.7 C 0 km/h
1677 07-08-2010 23:26:02 21.7 C 7.82 g/m*3 21.7 C 0 km/h
1678 07-08-2010 23:38:02 21.4 C 7.69 g/m*3 21.4 C 0 km/h
1679 07-08-2010 23:50:02 21.4 C 7.87 g/m*3 21.4 C 0 km/h
1680 08-08-2010 00:02:02 21.3 C 8.02 g/m*3 21.3 C 0 km/h
1681 08-08-2010 00:14:02 21.2 C 7.78 g/m*3 21.2 C 0 km/h
1682 08-08-2010 00:26:02 21.1 C 8.11 g/m*3 21.1 C 0 km/h
1683 08-08-2010 00:38:01 20.9 C 8.38 g/m*3 20.9 C 0 km/h
1684 08-08-2010 00:50:03 20.7 C 8.28 g/m*3 20.7 C 0 km/h
1685 08-08-2010 01:02:02 20.4 C 8.31 g/m*3 20.4 C 0 km/h
1686 08-08-2010 01:14:02 20.4 C 8.14 g/m*3 20.4 C 0 km/h
1687 08-08-2010 01:26:02 20.1 C 8.34 g/m*3 20.1 C 0 km/h
1688 08-08-2010 01:38:02 19.9 C 8.59 g/m*3 19.9 C 0 km/h
1689 08-08-2010 01:50:02 20 C 8.81 g/m*3 20 C 0 km/h
1690 08-08-2010 02:02:01 20.1 C 8.87 g/m*3 20.1 C 0 km/h
1691 08-08-2010 02:14:01 20.1 C 9.04 g/m*3 20.1 C 0 km/h
1692 08-08-2010 02:26:02 19.7 C 9.68 g/m*3 19.7 C 0 km/h
1693 08-08-2010 02:38:02 19.6 C 9.79 g/m*3 19.6 C 0 km/h
1694 08-08-2010 02:50:01 19.6 C 9.79 g/m*3 19.6 C 0 km/h
1695 08-08-2010 03:02:01 19.3 C 9.79 g/m*3 19.3 C 0 km/h
1696 08-08-2010 03:14:02 18.7 C 9.93 g/m*3 18.7 C 0 km/h
1697 08-08-2010 03:26:02 18.5 C 10.13 g/m*3 18.5 C 0 km/h
1698 08-08-2010 03:38:01 18.4 C 10.07 g/m*3 18.4 C 0 km/h
1699 08-08-2010 03:50:01 18.5 C 10.13 g/m*3 18.5 C 0 km/h
1700 08-08-2010 04:02:01 18.5 C 10.13 g/m*3 18.5 C 0 km/h
Sensor: Nr:Datum:Temp:Abs-Feuchte:Windchill:Wind:
Aussen-T/F 1701 08-08-2010 04:14:01 18.4 C 10.38 g/m*3 18.4 C 0 km/h
1702 08-08-2010 04:26:02 18.3 C 10.48 g/m*3 18.3 C 0 km/h
1703 08-08-2010 04:38:01 18.3 C 10.48 g/m*3 18.3 C 0 km/h
1704 08-08-2010 04:50:02 18.3 C 10.48 g/m*3 18.3 C 0 km/h
1705 08-08-2010 05:02:01 18.2 C 10.57 g/m*3 18.2 C 0 km/h
1706 08-08-2010 05:14:01 17.7 C 11.16 g/m*3 17.7 C 0 km/h
1707 08-08-2010 05:26:02 17.5 C 11.48 g/m*3 17.5 C 0 km/h
1708 08-08-2010 05:38:01 17.4 C 12 g/m*3 17.4 C 0 km/h
1709 08-08-2010 05:50:02 17 C 12.01 g/m*3 17 C 0 km/h
1710 08-08-2010 06:02:01 16.9 C 12.37 g/m*3 16.9 C 0 km/h
1711 08-08-2010 06:14:01 16.6 C 12.29 g/m*3 16.6 C 0 km/h
1712 08-08-2010 06:26:01 16.6 C 12.43 g/m*3 16.6 C 0 km/h
1713 08-08-2010 06:38:02 16.6 C 12.57 g/m*3 16.6 C 0 km/h
1714 08-08-2010 06:50:01 16.7 C 12.79 g/m*3 16.7 C 0 km/h
1715 08-08-2010 07:02:02 16.5 C 12.64 g/m*3 16.5 C 0 km/h
1716 08-08-2010 07:14:02 16.4 C 12.7 g/m*3 16.4 C 0 km/h
1717 08-08-2010 07:26:01 16.6 C 13 g/m*3 16.6 C 0 km/h
1718 08-08-2010 07:38:02 16.8 C 13.15 g/m*3 16.8 C 0 km/h
1719 08-08-2010 07:50:01 17 C 13.31 g/m*3 17 C 0 km/h
1720 08-08-2010 08:02:02 17 C 13.31 g/m*3 17 C 0 km/h
1721 08-08-2010 08:14:02 17 C 13.31 g/m*3 17 C 0 km/h
1722 08-08-2010 08:26:01 17.3 C 13.55 g/m*3 17.3 C 0 km/h
1723 08-08-2010 08:38:02 17.2 C 13.47 g/m*3 17.2 C 0 km/h
1724 08-08-2010 08:50:01 17.5 C 13.72 g/m*3 17.5 C 0 km/h
1725 08-08-2010 09:02:02 17.6 C 13.65 g/m*3 17.6 C 0 km/h
Sensor: Nr:Datum:Temp:Abs-Feuchte:Windchill:Wind:
Aussen-T/F 1726 08-08-2010 09:14:02 17.5 C 13.42 g/m*3 17.5 C 0 km/h
1727 08-08-2010 09:26:01 17.5 C 13.27 g/m*3 17.5 C 0 km/h
1728 08-08-2010 09:38:01 17.6 C 13.2 g/m*3 17.6 C 0 km/h
1729 08-08-2010 09:50:01 18 C 13.21 g/m*3 18 C 0 km/h
1730 08-08-2010 10:02:01 18 C 12.75 g/m*3 18 C 0 km/h
1731 08-08-2010 10:14:01 18.1 C 12.67 g/m*3 18.1 C 0 km/h
1732 08-08-2010 10:26:02 18.5 C 12.82 g/m*3 18.5 C 0 km/h
1733 08-08-2010 10:38:01 19 C 12.55 g/m*3 19 C 0 km/h
1734 08-08-2010 10:50:02 18.7 C 12.49 g/m*3 18.7 C 0 km/h
1735 08-08-2010 11:02:01 17.1 C 11.94 g/m*3 17.1 C 0 km/h
1736 08-08-2010 11:14:01 16.5 C 12.08 g/m*3 16.5 C 0 km/h
1737 08-08-2010 11:26:02 16.4 C 12.28 g/m*3 16.4 C 0 km/h
1738 08-08-2010 11:38:01 16.1 C 12.06 g/m*3 16.1 C 0 km/h
1739 08-08-2010 11:50:02 16.3 C 12.35 g/m*3 16.3 C 0 km/h
1740 08-08-2010 12:02:01 16.2 C 12.27 g/m*3 16.2 C 0 km/h
1741 08-08-2010 12:14:01 16.5 C 12.5 g/m*3 16.5 C 0 km/h
1742 08-08-2010 12:26:01 16.6 C 12.57 g/m*3 16.6 C 0 km/h
1743 08-08-2010 12:38:01 17.1 C 12.96 g/m*3 17.1 C 0 km/h
1744 08-08-2010 12:50:02 16.5 C 12.5 g/m*3 16.5 C 0 km/h
1745 08-08-2010 13:02:02 16.5 C 12.64 g/m*3 16.5 C 0 km/h
1746 08-08-2010 13:14:02 16.4 C 12.56 g/m*3 16.4 C 0 km/h
1747 08-08-2010 13:26:01 16.5 C 12.64 g/m*3 16.5 C 0 km/h
1748 08-08-2010 13:38:03 17.9 C 13.59 g/m*3 17.9 C 0 km/h
1749 08-08-2010 13:50:01 18.5 C 12.82 g/m*3 18.5 C 0 km/h
1750 08-08-2010 14:02:01 18.7 C 12.65 g/m*3 18.7 C 0 km/h
Sensor: Nr:Datum:Temp:Abs-Feuchte:Windchill:Wind:
Aussen-T/F 1751 08-08-2010 14:14:01 18.9 C 12.47 g/m*3 18.9 C 0 km/h
1752 08-08-2010 14:26:02 18.9 C 12.64 g/m*3 18.9 C 0 km/h
1753 08-08-2010 14:38:01 19.2 C 12.37 g/m*3 19.2 C 0 km/h
1754 08-08-2010 14:50:02 19.2 C 12.7 g/m*3 19.2 C 0 km/h
1755 08-08-2010 15:02:01 18.9 C 12.8 g/m*3 18.9 C 0 km/h
1756 08-08-2010 15:14:01 19.5 C 12.59 g/m*3 19.5 C 0 km/h
1757 08-08-2010 15:26:02 20.2 C 12.41 g/m*3 20.2 C 0 km/h
1758 08-08-2010 15:38:01 21 C 13.19 g/m*3 21 C 0 km/h
1759 08-08-2010 15:50:02 21.3 C 11.37 g/m*3 21.3 C 0 km/h
1760 08-08-2010 16:02:01 20.7 C 11.88 g/m*3 20.7 C 0 km/h
1761 08-08-2010 16:14:01 20 C 12.27 g/m*3 20 C 0 km/h
1762 08-08-2010 16:26:01 19.5 C 12.42 g/m*3 19.5 C 0 km/h
1763 08-08-2010 16:38:02 19.6 C 12.49 g/m*3 19.6 C 0 km/h
1764 08-08-2010 16:50:01 19.9 C 12.71 g/m*3 19.9 C 0 km/h
1765 08-08-2010 17:02:02 21.4 C 11.81 g/m*3 21.4 C 0 km/h
1766 08-08-2010 17:14:02 21.3 C 12.3 g/m*3 21.3 C 0 km/h
1767 08-08-2010 17:26:01 21.4 C 12.37 g/m*3 21.4 C 0 km/h
1768 08-08-2010 17:38:02 22 C 12.23 g/m*3 22 C 0 km/h
1769 08-08-2010 17:50:01 22.3 C 11.26 g/m*3 22.3 C 0 km/h
1770 08-08-2010 18:02:02 22.2 C 9.42 g/m*3 22.2 C 0 km/h
1771 08-08-2010 18:14:02 21.3 C 9.88 g/m*3 21.3 C 0 km/h
1772 08-08-2010 18:27:01 21.2 C 9.82 g/m*3 21.2 C 0 km/h
1773 08-08-2010 18:38:01 20.9 C 10.56 g/m*3 20.9 C 0 km/h
1774 08-08-2010 18:51:01 21.5 C 11.31 g/m*3 21.5 C 0 km/h
1775 08-08-2010 19:03:01 21.7 C 9.92 g/m*3 21.7 C 0 km/h
Sensor: Nr:Datum:Temp:Abs-Feuchte:Windchill:Wind:
Aussen-T/F 1776 08-08-2010 19:14:02 20.8 C 10.5 g/m*3 20.8 C 0 km/h
1777 08-08-2010 19:26:02 20 C 10.71 g/m*3 20 C 0 km/h
1778 08-08-2010 19:39:01 19 C 10.76 g/m*3 19 C 0 km/h
1779 08-08-2010 19:50:02 18.4 C 11.64 g/m*3 18.4 C 0 km/h
1780 08-08-2010 20:03:01 18.1 C 11.9 g/m*3 18.1 C 0 km/h
1781 08-08-2010 20:15:01 17.7 C 11.92 g/m*3 17.7 C 0 km/h
1782 08-08-2010 20:27:02 17.5 C 11.78 g/m*3 17.5 C 0 km/h
1783 08-08-2010 20:39:01 17.6 C 11.85 g/m*3 17.6 C 0 km/h
1784 08-08-2010 20:51:02 17.7 C 11.62 g/m*3 17.7 C 0 km/h
1785 08-08-2010 21:03:01 17.7 C 11.62 g/m*3 17.7 C 0 km/h
1786 08-08-2010 21:15:01 17.6 C 11.4 g/m*3 17.6 C 0 km/h
1787 08-08-2010 21:27:01 17.5 C 11.33 g/m*3 17.5 C 0 km/h
1788 08-08-2010 21:39:01 17.3 C 11.34 g/m*3 17.3 C 0 km/h
1789 08-08-2010 21:51:01 17.2 C 11.42 g/m*3 17.2 C 0 km/h
1790 08-08-2010 22:03:01 17.2 C 11.42 g/m*3 17.2 C 0 km/h
1791 08-08-2010 22:15:01 17.2 C 11.42 g/m*3 17.2 C 0 km/h
1792 08-08-2010 22:27:01 17.1 C 11.5 g/m*3 17.1 C 0 km/h
1793 08-08-2010 22:39:01 17.1 C 11.5 g/m*3 17.1 C 0 km/h
1794 08-08-2010 22:51:01 16.9 C 11.65 g/m*3 16.9 C 0 km/h
1795 08-08-2010 23:03:01 17 C 11.43 g/m*3 17 C 0 km/h
1796 08-08-2010 23:15:01 16.9 C 11.65 g/m*3 16.9 C 0 km/h
1797 08-08-2010 23:27:01 16.6 C 11.58 g/m*3 16.6 C 0 km/h
1798 08-08-2010 23:39:01 16.5 C 11.8 g/m*3 16.5 C 0 km/h
1799 08-08-2010 23:51:01 16.5 C 11.94 g/m*3 16.5 C 0 km/h
1800 09-08-2010 00:03:01 16.4 C 11.86 g/m*3 16.4 C 0 km/h
Sensor: Nr:Datum:Temp:Abs-Feuchte:Windchill:Wind:
Aussen-T/F 1801 09-08-2010 00:15:02 16.4 C 12 g/m*3 16.4 C 0 km/h
1802 09-08-2010 00:27:02 16.4 C 12 g/m*3 16.4 C 0 km/h
1803 09-08-2010 00:39:02 16.4 C 12.14 g/m*3 16.4 C 0 km/h
1804 09-08-2010 00:51:02 16.5 C 12.22 g/m*3 16.5 C 0 km/h
1805 09-08-2010 01:03:02 16.5 C 12.22 g/m*3 16.5 C 0 km/h
1806 09-08-2010 01:15:02 16.5 C 12.22 g/m*3 16.5 C 0 km/h
1807 09-08-2010 01:27:02 16.5 C 12.22 g/m*3 16.5 C 0 km/h
1808 09-08-2010 01:39:02 16.4 C 12.14 g/m*3 16.4 C 0 km/h
1809 09-08-2010 01:51:02 16.3 C 12.07 g/m*3 16.3 C 0 km/h
1810 09-08-2010 02:03:02 16 C 11.85 g/m*3 16 C 0 km/h
1811 09-08-2010 02:15:02 15.7 C 11.77 g/m*3 15.7 C 0 km/h
1812 09-08-2010 02:27:02 15.6 C 11.7 g/m*3 15.6 C 0 km/h
1813 09-08-2010 02:39:02 15.4 C 11.56 g/m*3 15.4 C 0 km/h
1814 09-08-2010 02:51:02 15.3 C 11.49 g/m*3 15.3 C 0 km/h
1815 09-08-2010 03:03:02 15.3 C 11.49 g/m*3 15.3 C 0 km/h
1816 09-08-2010 03:15:02 15.4 C 11.69 g/m*3 15.4 C 0 km/h
1817 09-08-2010 03:27:02 15.7 C 11.91 g/m*3 15.7 C 0 km/h
1818 09-08-2010 03:39:02 15.8 C 11.85 g/m*3 15.8 C 0 km/h
1819 09-08-2010 03:51:02 15.8 C 11.58 g/m*3 15.8 C 0 km/h
1820 09-08-2010 04:03:02 15.9 C 11.51 g/m*3 15.9 C 0 km/h
1821 09-08-2010 04:15:02 15.8 C 11.31 g/m*3 15.8 C 0 km/h
1822 09-08-2010 04:27:03 15.7 C 11.37 g/m*3 15.7 C 0 km/h
1823 09-08-2010 04:39:03 15.7 C 11.37 g/m*3 15.7 C 0 km/h
1824 09-08-2010 04:51:03 15.6 C 11.44 g/m*3 15.6 C 0 km/h
1825 09-08-2010 05:03:03 15.4 C 11.17 g/m*3 15.4 C 0 km/h
Sensor: Nr:Datum:Temp:Abs-Feuchte:Windchill:Wind:
Aussen-T/F 1826 09-08-2010 05:15:03 15 C 10.9 g/m*3 15 C 0 km/h
1827 09-08-2010 05:27:03 14.8 C 11.02 g/m*3 14.8 C 0 km/h
1828 09-08-2010 05:39:03 14.5 C 10.82 g/m*3 14.5 C 0 km/h
1829 09-08-2010 05:51:03 14.5 C 10.94 g/m*3 14.5 C 0 km/h
1830 09-08-2010 06:03:03 14.5 C 11.07 g/m*3 14.5 C 0 km/h
1831 09-08-2010 06:15:03 14.6 C 11.26 g/m*3 14.6 C 0 km/h
1832 09-08-2010 06:27:03 14.7 C 11.46 g/m*3 14.7 C 0 km/h
1833 09-08-2010 06:39:03 14.6 C 11.39 g/m*3 14.6 C 0 km/h
1834 09-08-2010 06:51:03 14.6 C 11.39 g/m*3 14.6 C 0 km/h
1835 09-08-2010 07:03:02 14.5 C 11.32 g/m*3 14.5 C 0 km/h
1836 09-08-2010 07:15:02 14.6 C 11.39 g/m*3 14.6 C 0 km/h
1837 09-08-2010 07:27:02 14.6 C 11.39 g/m*3 14.6 C 0 km/h
1838 09-08-2010 07:39:02 14.6 C 11.26 g/m*3 14.6 C 0 km/h
1839 09-08-2010 07:51:02 14.7 C 11.33 g/m*3 14.7 C 0 km/h
1840 09-08-2010 08:03:01 15 C 11.28 g/m*3 15 C 0 km/h
1841 09-08-2010 08:15:01 15 C 11.16 g/m*3 15 C 0 km/h
1842 09-08-2010 08:27:01 15.2 C 11.03 g/m*3 15.2 C 0 km/h
1843 09-08-2010 08:39:01 15.4 C 10.9 g/m*3 15.4 C 0 km/h
1844 09-08-2010 08:51:01 15.5 C 10.84 g/m*3 15.5 C 0 km/h
1845 09-08-2010 09:03:02 15.5 C 10.84 g/m*3 15.5 C 0 km/h
1846 09-08-2010 09:15:01 15.7 C 10.97 g/m*3 15.7 C 0 km/h
1847 09-08-2010 09:27:01 15.9 C 10.83 g/m*3 15.9 C 0 km/h
1848 09-08-2010 09:39:01 16 C 10.63 g/m*3 16 C 0 km/h
1849 09-08-2010 09:51:02 15.9 C 10.83 g/m*3 15.9 C 0 km/h
1850 09-08-2010 10:03:02 16.3 C 10.82 g/m*3 16.3 C 0 km/h
Sensor: Nr:Datum:Temp:Abs-Feuchte:Windchill:Wind:
Aussen-T/F 1851 09-08-2010 10:15:02 16.7 C 10.8 g/m*3 16.7 C 0 km/h
1852 09-08-2010 10:27:02 17.2 C 10.84 g/m*3 17.2 C 0 km/h
1853 09-08-2010 10:39:02 17.9 C 10.54 g/m*3 17.9 C 0 km/h
1854 09-08-2010 10:51:02 18.9 C 9.56 g/m*3 18.9 C 0 km/h
1855 09-08-2010 11:03:02 19.4 C 9.51 g/m*3 19.4 C 0 km/h
1856 09-08-2010 11:15:02 19.1 C 9.18 g/m*3 19.1 C 0 km/h
1857 09-08-2010 11:27:02 19.4 C 9.34 g/m*3 19.4 C 0 km/h
1858 09-08-2010 11:39:02 20.3 C 9.32 g/m*3 20.3 C 0 km/h
1859 09-08-2010 11:51:01 19.8 C 8.88 g/m*3 19.8 C 0 km/h
1860 09-08-2010 12:03:02 20.6 C 8.95 g/m*3 20.6 C 0 km/h
1861 09-08-2010 12:15:02 20.9 C 8.74 g/m*3 20.9 C 0 km/h
1862 09-08-2010 12:27:02 21.2 C 8.71 g/m*3 21.2 C 0 km/h
1863 09-08-2010 12:39:02 21.8 C 8.44 g/m*3 21.8 C 0 km/h
1864 09-08-2010 12:51:02 22 C 8.15 g/m*3 22 C 0 km/h
1865 09-08-2010 13:03:01 22.2 C 8.83 g/m*3 22.2 C 0 km/h
1866 09-08-2010 13:15:02 23.5 C 8.88 g/m*3 23.5 C 0 km/h
1867 09-08-2010 13:27:02 25.1 C 7.87 g/m*3 25.1 C 0 km/h
1868 09-08-2010 13:39:01 25.6 C 7.38 g/m*3 25.6 C 0 km/h
1869 09-08-2010 13:51:02 25.4 C 7.53 g/m*3 25.4 C 0 km/h
1870 09-08-2010 14:03:02 24.6 C 7.65 g/m*3 24.6 C 0 km/h
1871 09-08-2010 14:15:02 24 C 7.61 g/m*3 24 C 0 km/h
1872 09-08-2010 14:27:02 23.7 C 7.91 g/m*3 23.7 C 0 km/h
1873 09-08-2010 14:39:03 23.7 C 7.91 g/m*3 23.7 C 0 km/h
1874 09-08-2010 14:51:02 24.5 C 8.06 g/m*3 24.5 C 0 km/h
1875 09-08-2010 15:03:02 25.1 C 7.87 g/m*3 25.1 C 0 km/h
Sensor: Nr:Datum:Temp:Abs-Feuchte:Windchill:Wind:
Aussen-T/F 1876 09-08-2010 15:15:01 24.8 C 7.74 g/m*3 24.8 C 0 km/h
1877 09-08-2010 15:27:01 25.4 C 7.53 g/m*3 25.4 C 0 km/h
1878 09-08-2010 15:39:02 25.9 C 7.26 g/m*3 25.9 C 0 km/h
1879 09-08-2010 15:51:02 26.5 C 7.51 g/m*3 26.5 C 0 km/h
1880 09-08-2010 16:03:02 26.9 C 6.91 g/m*3 26.9 C 0 km/h
1881 09-08-2010 16:15:01 26.6 C 6.54 g/m*3 26.6 C 0 km/h
1882 09-08-2010 16:27:01 26.4 C 6.72 g/m*3 26.4 C 0 km/h
1883 09-08-2010 16:39:02 25.7 C 6.22 g/m*3 25.7 C 0 km/h
1884 09-08-2010 16:51:02 25.3 C 7.73 g/m*3 25.3 C 0 km/h
1885 09-08-2010 17:03:02 25.3 C 8.43 g/m*3 25.3 C 0 km/h
1886 09-08-2010 17:15:02 25.7 C 8.62 g/m*3 25.7 C 0 km/h
1887 09-08-2010 17:27:02 25.5 C 8.76 g/m*3 25.5 C 0 km/h
1888 09-08-2010 17:39:02 26.4 C 7.22 g/m*3 26.4 C 0 km/h
1889 09-08-2010 17:51:02 28.2 C 7.15 g/m*3 28.2 C 0 km/h
1890 09-08-2010 18:03:02 28.9 C 7.14 g/m*3 28.9 C 0 km/h
1891 09-08-2010 18:15:02 28.2 C 8.25 g/m*3 28.2 C 0 km/h
1892 09-08-2010 18:27:03 27.9 C 7.84 g/m*3 27.9 C 0 km/h
1893 09-08-2010 18:39:02 27.1 C 8.02 g/m*3 27.1 C 0 km/h
1894 09-08-2010 18:51:02 25.4 C 8 g/m*3 25.4 C 0 km/h
1895 09-08-2010 19:03:01 24.6 C 8.33 g/m*3 24.6 C 0 km/h
1896 09-08-2010 19:15:02 24.1 C 8.75 g/m*3 24.1 C 0 km/h
1897 09-08-2010 19:27:02 23.6 C 9.15 g/m*3 23.6 C 0 km/h
1898 09-08-2010 19:39:02 22.8 C 8.94 g/m*3 22.8 C 0 km/h
1899 09-08-2010 19:51:02 22.5 C 8.79 g/m*3 22.5 C 0 km/h
1900 09-08-2010 20:03:03 22 C 8.73 g/m*3 22 C 0 km/h
Sensor: Nr:Datum:Temp:Abs-Feuchte:Windchill:Wind:
Aussen-T/F 1901 09-08-2010 20:15:02 21.6 C 8.72 g/m*3 21.6 C 0 km/h
1902 09-08-2010 20:27:02 21.4 C 8.62 g/m*3 21.4 C 0 km/h
1903 09-08-2010 20:39:02 20.9 C 8.38 g/m*3 20.9 C 0 km/h
1904 09-08-2010 20:51:01 20.4 C 8.31 g/m*3 20.4 C 0 km/h
1905 09-08-2010 21:03:02 20.2 C 8.74 g/m*3 20.2 C 0 km/h
1906 09-08-2010 21:15:01 20 C 8.47 g/m*3 20 C 0 km/h
1907 09-08-2010 21:27:01 19.8 C 8.88 g/m*3 19.8 C 0 km/h
1908 09-08-2010 21:39:01 19.6 C 8.95 g/m*3 19.6 C 0 km/h
1909 09-08-2010 21:51:01 19.2 C 8.9 g/m*3 19.2 C 0 km/h
1910 09-08-2010 22:03:01 18.9 C 8.91 g/m*3 18.9 C 0 km/h
1911 09-08-2010 22:15:02 18.9 C 8.91 g/m*3 18.9 C 0 km/h
1912 09-08-2010 22:27:03 18.7 C 9.13 g/m*3 18.7 C 0 km/h
1913 09-08-2010 22:39:02 18.5 C 9.02 g/m*3 18.5 C 0 km/h
1914 09-08-2010 22:52:02 18.2 C 8.86 g/m*3 18.2 C 0 km/h
1915 09-08-2010 23:04:02 18.2 C 9.01 g/m*3 18.2 C 0 km/h
1916 09-08-2010 23:16:03 18.1 C 9.12 g/m*3 18.1 C 0 km/h
1917 09-08-2010 23:28:03 18.1 C 9.27 g/m*3 18.1 C 0 km/h
1918 09-08-2010 23:40:03 18.1 C 9.43 g/m*3 18.1 C 0 km/h
1919 09-08-2010 23:52:03 18.1 C 9.43 g/m*3 18.1 C 0 km/h
1920 10-08-2010 00:04:03 17.9 C 9.47 g/m*3 17.9 C 0 km/h
1921 10-08-2010 00:16:03 17.7 C 9.81 g/m*3 17.7 C 0 km/h
1922 10-08-2010 00:28:03 17.5 C 9.84 g/m*3 17.5 C 0 km/h
1923 10-08-2010 00:40:03 17.5 C 9.69 g/m*3 17.5 C 0 km/h
1924 10-08-2010 00:52:03 17.5 C 10.14 g/m*3 17.5 C 0 km/h
1925 10-08-2010 01:04:03 17.5 C 10.29 g/m*3 17.5 C 0 km/h
Sensor: Nr:Datum:Temp:Abs-Feuchte:Windchill:Wind:
Aussen-T/F 1926 10-08-2010 01:16:03 17.5 C 10.14 g/m*3 17.5 C 0 km/h
1927 10-08-2010 01:28:03 17.6 C 10.05 g/m*3 17.6 C 0 km/h
1928 10-08-2010 01:40:03 17.5 C 10.14 g/m*3 17.5 C 0 km/h
1929 10-08-2010 01:52:03 17.5 C 10.14 g/m*3 17.5 C 0 km/h
1930 10-08-2010 02:04:03 17.5 C 9.99 g/m*3 17.5 C 0 km/h
1931 10-08-2010 02:16:03 17.5 C 10.14 g/m*3 17.5 C 0 km/h
1932 10-08-2010 02:28:03 17.4 C 10.08 g/m*3 17.4 C 0 km/h
1933 10-08-2010 02:40:03 17.3 C 10.02 g/m*3 17.3 C 0 km/h
1934 10-08-2010 02:52:03 17.2 C 9.96 g/m*3 17.2 C 0 km/h
1935 10-08-2010 03:04:03 17.2 C 9.96 g/m*3 17.2 C 0 km/h
1936 10-08-2010 03:16:03 17.2 C 10.1 g/m*3 17.2 C 0 km/h
1937 10-08-2010 03:28:03 17.1 C 10.04 g/m*3 17.1 C 0 km/h
1938 10-08-2010 03:40:04 17.2 C 10.1 g/m*3 17.2 C 0 km/h
1939 10-08-2010 03:52:04 17 C 10.27 g/m*3 17 C 0 km/h
1940 10-08-2010 04:04:04 16.9 C 10.36 g/m*3 16.9 C 0 km/h
1941 10-08-2010 04:16:04 16.9 C 10.21 g/m*3 16.9 C 0 km/h
1942 10-08-2010 04:28:04 16.9 C 10.21 g/m*3 16.9 C 0 km/h
1943 10-08-2010 04:40:04 16.9 C 10.21 g/m*3 16.9 C 0 km/h
1944 10-08-2010 04:52:04 16.7 C 10.23 g/m*3 16.7 C 0 km/h
1945 10-08-2010 05:04:04 16.3 C 9.99 g/m*3 16.3 C 0 km/h
1946 10-08-2010 05:16:04 15.9 C 10.02 g/m*3 15.9 C 0 km/h
1947 10-08-2010 05:28:04 15.6 C 10.24 g/m*3 15.6 C 0 km/h
1948 10-08-2010 05:40:04 15.3 C 10.19 g/m*3 15.3 C 0 km/h
1949 10-08-2010 05:52:04 15 C 10 g/m*3 15 C 0 km/h
1950 10-08-2010 06:04:04 14.9 C 10.07 g/m*3 14.9 C 0 km/h
Sensor: Nr:Datum:Temp:Abs-Feuchte:Windchill:Wind:
Aussen-T/F 1951 10-08-2010 06:16:04 14.7 C 9.95 g/m*3 14.7 C 0 km/h
1952 10-08-2010 06:28:04 14.6 C 9.89 g/m*3 14.6 C 0 km/h
1953 10-08-2010 06:40:04 14.6 C 9.89 g/m*3 14.6 C 0 km/h
1954 10-08-2010 06:52:02 14.5 C 9.83 g/m*3 14.5 C 0 km/h
1955 10-08-2010 07:04:02 14.7 C 10.2 g/m*3 14.7 C 0 km/h
1956 10-08-2010 07:16:02 14.7 C 10.2 g/m*3 14.7 C 0 km/h
1957 10-08-2010 07:28:02 14.8 C 10.26 g/m*3 14.8 C 0 km/h
1958 10-08-2010 07:40:01 15 C 10.39 g/m*3 15 C 0 km/h
1959 10-08-2010 07:52:03 15.2 C 10.51 g/m*3 15.2 C 0 km/h
1960 10-08-2010 08:04:02 15.4 C 10.64 g/m*3 15.4 C 0 km/h
1961 10-08-2010 08:16:02 15.5 C 10.57 g/m*3 15.5 C 0 km/h
1962 10-08-2010 08:28:02 15.8 C 10.77 g/m*3 15.8 C 0 km/h
1963 10-08-2010 08:40:03 16.1 C 10.69 g/m*3 16.1 C 0 km/h
1964 10-08-2010 08:52:02 16.4 C 10.89 g/m*3 16.4 C 0 km/h
1965 10-08-2010 09:04:02 17.2 C 10.98 g/m*3 17.2 C 0 km/h
1966 10-08-2010 09:16:02 18.1 C 10.51 g/m*3 18.1 C 0 km/h
1967 10-08-2010 09:28:02 18.2 C 10.41 g/m*3 18.2 C 0 km/h
1968 10-08-2010 09:40:03 18.5 C 10.44 g/m*3 18.5 C 0 km/h
1969 10-08-2010 09:52:02 19 C 10.59 g/m*3 19 C 0 km/h
1970 10-08-2010 10:04:02 19.3 C 10.62 g/m*3 19.3 C 0 km/h
1971 10-08-2010 10:16:01 20.1 C 10.78 g/m*3 20.1 C 0 km/h
1972 10-08-2010 10:28:01 20.9 C 11.11 g/m*3 20.9 C 0 km/h
1973 10-08-2010 10:40:02 21.8 C 11.32 g/m*3 21.8 C 0 km/h
1974 10-08-2010 10:52:01 22.5 C 11.19 g/m*3 22.5 C 0 km/h
1975 10-08-2010 11:04:02 22.9 C 11.44 g/m*3 22.9 C 0 km/h
Sensor: Nr:Datum:Temp:Abs-Feuchte:Windchill:Wind:
Aussen-T/F 1976 10-08-2010 11:16:02 23.4 C 11.14 g/m*3 23.4 C 0 km/h
1977 10-08-2010 11:28:02 23.7 C 9.2 g/m*3 23.7 C 0 km/h
1978 10-08-2010 11:40:01 24.1 C 7.88 g/m*3 24.1 C 0 km/h
1979 10-08-2010 11:52:01 24.6 C 7.65 g/m*3 24.6 C 0 km/h
1980 10-08-2010 12:04:01 25.1 C 7.18 g/m*3 25.1 C 0 km/h
1981 10-08-2010 12:16:02 25.4 C 6.59 g/m*3 25.4 C 0 km/h
1982 10-08-2010 12:28:02 25.9 C 7.02 g/m*3 25.9 C 0 km/h
1983 10-08-2010 12:40:01 26.4 C 6.72 g/m*3 26.4 C 0 km/h
1984 10-08-2010 12:52:03 26.7 C 6.58 g/m*3 26.7 C 0 km/h
1985 10-08-2010 13:04:02 27 C 6.43 g/m*3 27 C 0 km/h
1986 10-08-2010 13:16:02 27.8 C 5.92 g/m*3 27.8 C 0 km/h
1987 10-08-2010 13:28:02 28.6 C 5.9 g/m*3 28.6 C 0 km/h
1988 10-08-2010 13:40:02 28.7 C 5.93 g/m*3 28.7 C 0 km/h
1989 10-08-2010 13:52:02 28.7 C 5.65 g/m*3 28.7 C 0 km/h
1990 10-08-2010 14:04:01 28.9 C 5.71 g/m*3 28.9 C 0 km/h
1991 10-08-2010 14:16:02 29.3 C 6.13 g/m*3 29.3 C 0 km/h
1992 10-08-2010 14:28:02 29.1 C 5.78 g/m*3 29.1 C 0 km/h
1993 10-08-2010 14:40:02 29.1 C 6.06 g/m*3 29.1 C 0 km/h
1994 10-08-2010 14:52:01 28.8 C 7.39 g/m*3 28.8 C 0 km/h
1995 10-08-2010 15:04:02 28.9 C 6.57 g/m*3 28.9 C 0 km/h
1996 10-08-2010 15:16:01 28.6 C 7.03 g/m*3 28.6 C 0 km/h
1997 10-08-2010 15:28:01 28.2 C 7.7 g/m*3 28.2 C 0 km/h
1998 10-08-2010 15:40:01 28.3 C 8.29 g/m*3 28.3 C 0 km/h
1999 10-08-2010 15:52:01 28.3 C 7.19 g/m*3 28.3 C 0 km/h
2000 10-08-2010 16:04:01 29.1 C 7.8 g/m*3 29.1 C 0 km/h
Sensor: Nr:Datum:Temp:Abs-Feuchte:Windchill:Wind:
Aussen-T/F 2001 10-08-2010 16:16:02 30.1 C 6.4 g/m*3 30.1 C 0 km/h
2002 10-08-2010 16:28:02 30 C 6.06 g/m*3 30 C 0 km/h
2003 10-08-2010 16:40:01 30.2 C 6.13 g/m*3 30.2 C 0 km/h
2004 10-08-2010 16:52:02 30 C 6.06 g/m*3 30 C 0 km/h
2005 10-08-2010 17:04:02 30.1 C 6.71 g/m*3 30.1 C 0 km/h
2006 10-08-2010 17:16:02 30.1 C 6.4 g/m*3 30.1 C 0 km/h
2007 10-08-2010 17:28:02 30.2 C 6.13 g/m*3 30.2 C 0 km/h
2008 10-08-2010 17:40:01 29.6 C 6.53 g/m*3 29.6 C 0 km/h
2009 10-08-2010 17:52:02 29.7 C 6.56 g/m*3 29.7 C 0 km/h
2010 10-08-2010 18:04:01 30.2 C 6.13 g/m*3 30.2 C 0 km/h
2011 10-08-2010 18:16:02 31 C 6.72 g/m*3 31 C 0 km/h
2012 10-08-2010 18:28:02 29.2 C 6.68 g/m*3 29.2 C 0 km/h
2013 10-08-2010 18:40:02 28.9 C 6.86 g/m*3 28.9 C 0 km/h
2014 10-08-2010 18:52:02 29.1 C 7.22 g/m*3 29.1 C 0 km/h
2015 10-08-2010 19:04:03 28.4 C 7.23 g/m*3 28.4 C 0 km/h
2016 10-08-2010 19:16:02 27.5 C 7.94 g/m*3 27.5 C 0 km/h
2017 10-08-2010 19:28:02 26.8 C 8.4 g/m*3 26.8 C 0 km/h
2018 10-08-2010 19:40:03 26.3 C 8.42 g/m*3 26.3 C 0 km/h
2019 10-08-2010 19:52:02 25.7 C 8.62 g/m*3 25.7 C 0 km/h
2020 10-08-2010 20:04:02 25.3 C 8.19 g/m*3 25.3 C 0 km/h
2021 10-08-2010 20:16:01 25.1 C 8.33 g/m*3 25.1 C 0 km/h
2022 10-08-2010 20:28:01 24.7 C 8.37 g/m*3 24.7 C 0 km/h
2023 10-08-2010 20:40:02 24.6 C 8.33 g/m*3 24.6 C 0 km/h
2024 10-08-2010 20:52:01 24.1 C 8.1 g/m*3 24.1 C 0 km/h
2025 10-08-2010 21:04:02 23.8 C 9.03 g/m*3 23.8 C 0 km/h
Sensor: Nr:Datum:Temp:Abs-Feuchte:Windchill:Wind:
Aussen-T/F 2026 10-08-2010 21:16:02 23.4 C 8.41 g/m*3 23.4 C 0 km/h
2027 10-08-2010 21:28:02 23.3 C 8.78 g/m*3 23.3 C 0 km/h
2028 10-08-2010 21:40:02 23.2 C 9.15 g/m*3 23.2 C 0 km/h
2029 10-08-2010 21:53:07 23.1 C 8.48 g/m*3 23.1 C 0 km/h
2030 10-08-2010 22:05:07 23.3 C 8.99 g/m*3 23.3 C 0 km/h
2031 10-08-2010 22:17:07 23.1 C 8.48 g/m*3 23.1 C 0 km/h
2032 10-08-2010 22:29:07 23 C 8.63 g/m*3 23 C 0 km/h
2033 10-08-2010 22:41:07 22.7 C 9.29 g/m*3 22.7 C 0 km/h
2034 10-08-2010 22:53:07 22.2 C 9.23 g/m*3 22.2 C 0 km/h
2035 10-08-2010 23:05:07 22.1 C 9.37 g/m*3 22.1 C 0 km/h
2036 10-08-2010 23:17:07 21.9 C 9.26 g/m*3 21.9 C 0 km/h
2037 10-08-2010 23:29:07 22 C 8.93 g/m*3 22 C 0 km/h
2038 10-08-2010 23:41:07 21.8 C 9.21 g/m*3 21.8 C 0 km/h
2039 10-08-2010 23:53:08 21.7 C 9.54 g/m*3 21.7 C 0 km/h
2040 11-08-2010 00:05:08 21.6 C 9.48 g/m*3 21.6 C 0 km/h
2041 11-08-2010 00:17:08 21.5 C 9.62 g/m*3 21.5 C 0 km/h
2042 11-08-2010 00:29:08 21.5 C 9.81 g/m*3 21.5 C 0 km/h
2043 11-08-2010 00:41:08 21.4 C 9.75 g/m*3 21.4 C 0 km/h
2044 11-08-2010 00:53:08 21.3 C 9.69 g/m*3 21.3 C 0 km/h
2045 11-08-2010 01:05:08 21.1 C 9.95 g/m*3 21.1 C 0 km/h
2046 11-08-2010 01:17:08 20.9 C 10.2 g/m*3 20.9 C 0 km/h
2047 11-08-2010 01:29:08 20.6 C 10.56 g/m*3 20.6 C 0 km/h
2048 11-08-2010 01:41:08 20.1 C 10.95 g/m*3 20.1 C 0 km/h
2049 11-08-2010 01:53:08 20 C 11.06 g/m*3 20 C 0 km/h
2050 11-08-2010 02:05:08 19.4 C 11.51 g/m*3 19.4 C 0 km/h
Sensor: Nr:Datum:Temp:Abs-Feuchte:Windchill:Wind:
Aussen-T/F 2051 11-08-2010 02:17:08 18.5 C 12.02 g/m*3 18.5 C 0 km/h
2052 11-08-2010 02:29:08 18.1 C 12.36 g/m*3 18.1 C 0 km/h
2053 11-08-2010 02:41:08 18 C 12.59 g/m*3 18 C 0 km/h
2054 11-08-2010 02:53:08 17.9 C 12.98 g/m*3 17.9 C 0 km/h
2055 11-08-2010 03:05:08 17.7 C 12.98 g/m*3 17.7 C 0 km/h
2056 11-08-2010 03:17:08 17.7 C 13.13 g/m*3 17.7 C 0 km/h
2057 11-08-2010 03:29:08 17.7 C 13.13 g/m*3 17.7 C 0 km/h
2058 11-08-2010 03:41:08 17.5 C 13.12 g/m*3 17.5 C 0 km/h
2059 11-08-2010 03:53:08 17.6 C 13.35 g/m*3 17.6 C 0 km/h
2060 11-08-2010 04:05:08 17.5 C 13.27 g/m*3 17.5 C 0 km/h
2061 11-08-2010 04:17:08 17.6 C 13.5 g/m*3 17.6 C 0 km/h
2062 11-08-2010 04:29:09 17.5 C 13.42 g/m*3 17.5 C 0 km/h
2063 11-08-2010 04:41:09 17.6 C 13.5 g/m*3 17.6 C 0 km/h
2064 11-08-2010 04:53:09 17.4 C 13.34 g/m*3 17.4 C 0 km/h
2065 11-08-2010 05:05:09 17.4 C 13.34 g/m*3 17.4 C 0 km/h
2066 11-08-2010 05:17:09 17.5 C 13.27 g/m*3 17.5 C 0 km/h
2067 11-08-2010 05:29:09 17.3 C 13.11 g/m*3 17.3 C 0 km/h
2068 11-08-2010 05:41:09 17.4 C 13.19 g/m*3 17.4 C 0 km/h
2069 11-08-2010 05:53:09 17.5 C 13.27 g/m*3 17.5 C 0 km/h
2070 11-08-2010 06:05:09 17.4 C 13.19 g/m*3 17.4 C 0 km/h
2071 11-08-2010 06:17:09 17.4 C 13.04 g/m*3 17.4 C 0 km/h
2072 11-08-2010 06:29:09 17.4 C 13.04 g/m*3 17.4 C 0 km/h
2073 11-08-2010 06:41:02 17.4 C 13.04 g/m*3 17.4 C 0 km/h
2074 11-08-2010 06:53:02 17.4 C 12.89 g/m*3 17.4 C 0 km/h
2075 11-08-2010 07:05:02 17.4 C 12.89 g/m*3 17.4 C 0 km/h
Sensor: Nr:Datum:Temp:Abs-Feuchte:Windchill:Wind:
Aussen-T/F 2076 11-08-2010 07:17:02 17.5 C 12.97 g/m*3 17.5 C 0 km/h
2077 11-08-2010 07:29:03 17.6 C 13.05 g/m*3 17.6 C 0 km/h
2078 11-08-2010 07:41:01 17.7 C 13.13 g/m*3 17.7 C 0 km/h
2079 11-08-2010 07:53:02 17.9 C 13.13 g/m*3 17.9 C 0 km/h
2080 11-08-2010 08:05:01 18.1 C 13.13 g/m*3 18.1 C 0 km/h
2081 11-08-2010 08:17:01 18.6 C 13.53 g/m*3 18.6 C 0 km/h
2082 11-08-2010 08:29:01 18.7 C 13.29 g/m*3 18.7 C 0 km/h
2083 11-08-2010 08:41:01 18.9 C 12.96 g/m*3 18.9 C 0 km/h
2084 11-08-2010 08:53:01 19.1 C 12.13 g/m*3 19.1 C 0 km/h
2085 11-08-2010 09:05:01 19.5 C 12.08 g/m*3 19.5 C 0 km/h
2086 11-08-2010 09:17:01 19.8 C 11.61 g/m*3 19.8 C 0 km/h
2087 11-08-2010 09:29:01 19.7 C 11.55 g/m*3 19.7 C 0 km/h
2088 11-08-2010 09:41:01 19.7 C 11.21 g/m*3 19.7 C 0 km/h
2089 11-08-2010 09:53:02 19.5 C 11.08 g/m*3 19.5 C 0 km/h
2090 11-08-2010 10:05:02 20 C 11.23 g/m*3 20 C 0 km/h
2091 11-08-2010 10:17:02 20.9 C 11.29 g/m*3 20.9 C 0 km/h
2092 11-08-2010 10:29:02 21.2 C 10.93 g/m*3 21.2 C 0 km/h
2093 11-08-2010 10:41:02 21.1 C 11.06 g/m*3 21.1 C 0 km/h
2094 11-08-2010 10:53:01 20.8 C 10.86 g/m*3 20.8 C 0 km/h
2095 11-08-2010 11:05:01 20.7 C 11.16 g/m*3 20.7 C 0 km/h
2096 11-08-2010 11:17:02 20.4 C 11.14 g/m*3 20.4 C 0 km/h
2097 11-08-2010 11:29:02 20.5 C 11.21 g/m*3 20.5 C 0 km/h
2098 11-08-2010 11:41:01 20.4 C 11.14 g/m*3 20.4 C 0 km/h
2099 11-08-2010 11:53:02 21.1 C 11.24 g/m*3 21.1 C 0 km/h
2100 11-08-2010 12:05:01 21.8 C 11.13 g/m*3 21.8 C 0 km/h
Sensor: Nr:Datum:Temp:Abs-Feuchte:Windchill:Wind:
Aussen-T/F 2101 11-08-2010 12:17:02 22.1 C 11.13 g/m*3 22.1 C 0 km/h
2102 11-08-2010 12:29:03 22.5 C 10.99 g/m*3 22.5 C 0 km/h
2103 11-08-2010 12:41:01 22.8 C 10.97 g/m*3 22.8 C 0 km/h
2104 11-08-2010 12:53:02 23.1 C 10.75 g/m*3 23.1 C 0 km/h
2105 11-08-2010 13:05:02 23.5 C 10.79 g/m*3 23.5 C 0 km/h
2106 11-08-2010 13:17:02 23.3 C 10.25 g/m*3 23.3 C 0 km/h
2107 11-08-2010 13:29:02 24 C 10.44 g/m*3 24 C 0 km/h
2108 11-08-2010 13:41:03 24.1 C 10.28 g/m*3 24.1 C 0 km/h
2109 11-08-2010 13:53:02 24.1 C 10.06 g/m*3 24.1 C 0 km/h
2110 11-08-2010 14:05:02 24.2 C 10.12 g/m*3 24.2 C 0 km/h
2111 11-08-2010 14:17:01 24.8 C 10.02 g/m*3 24.8 C 0 km/h
2112 11-08-2010 14:29:01 24.2 C 9.68 g/m*3 24.2 C 0 km/h
2113 11-08-2010 14:41:02 24.2 C 10.34 g/m*3 24.2 C 0 km/h
2114 11-08-2010 14:53:02 24.6 C 10.35 g/m*3 24.6 C 0 km/h
2115 11-08-2010 15:05:01 24.8 C 10.02 g/m*3 24.8 C 0 km/h
2116 11-08-2010 15:17:01 25 C 10.13 g/m*3 25 C 0 km/h
2117 11-08-2010 15:29:01 25.9 C 10.17 g/m*3 25.9 C 0 km/h
2118 11-08-2010 15:41:02 26.6 C 9.57 g/m*3 26.6 C 0 km/h
2119 11-08-2010 15:53:02 25.5 C 9.47 g/m*3 25.5 C 0 km/h
2120 11-08-2010 16:05:02 25.2 C 9.78 g/m*3 25.2 C 0 km/h
2121 11-08-2010 16:17:02 24.3 C 9.96 g/m*3 24.3 C 0 km/h
2122 11-08-2010 16:29:02 23.2 C 11.02 g/m*3 23.2 C 0 km/h
2123 11-08-2010 16:41:02 20.5 C 13.35 g/m*3 20.5 C 0 km/h
2124 11-08-2010 16:53:02 21.2 C 14.64 g/m*3 21.2 C 0 km/h
2125 11-08-2010 17:05:02 21.6 C 14.41 g/m*3 21.6 C 0 km/h
Sensor: Nr:Datum:Temp:Abs-Feuchte:Windchill:Wind:
Aussen-T/F 2126 11-08-2010 17:17:02 21.6 C 14.41 g/m*3 21.6 C 0 km/h
2127 11-08-2010 17:29:02 22.1 C 14.05 g/m*3 22.1 C 0 km/h
2128 11-08-2010 17:41:02 21.3 C 12.86 g/m*3 21.3 C 0 km/h
2129 11-08-2010 17:53:02 22.1 C 14.25 g/m*3 22.1 C 0 km/h
2130 11-08-2010 18:05:02 22.5 C 14.18 g/m*3 22.5 C 0 km/h
2131 11-08-2010 18:17:03 22.9 C 14.71 g/m*3 22.9 C 0 km/h
2132 11-08-2010 18:29:03 23.3 C 14.43 g/m*3 23.3 C 0 km/h
2133 11-08-2010 18:41:02 23 C 13.98 g/m*3 23 C 0 km/h
2134 11-08-2010 18:53:03 22.6 C 14.26 g/m*3 22.6 C 0 km/h
2135 11-08-2010 19:05:02 21.9 C 13.89 g/m*3 21.9 C 0 km/h
2136 11-08-2010 19:17:02 21.5 C 13.77 g/m*3 21.5 C 0 km/h
2137 11-08-2010 19:29:02 21.2 C 13.71 g/m*3 21.2 C 0 km/h
2138 11-08-2010 19:41:02 21 C 13.56 g/m*3 21 C 0 km/h
2139 11-08-2010 19:53:02 20.8 C 13.58 g/m*3 20.8 C 0 km/h
2140 11-08-2010 20:05:01 20.4 C 13.27 g/m*3 20.4 C 0 km/h
2141 11-08-2010 20:17:02 20 C 13.31 g/m*3 20 C 0 km/h
2142 11-08-2010 20:29:02 19.8 C 13.66 g/m*3 19.8 C 0 km/h
2143 11-08-2010 20:41:02 18.9 C 13.61 g/m*3 18.9 C 0 km/h
2144 11-08-2010 20:53:01 18.7 C 13.93 g/m*3 18.7 C 0 km/h
2145 11-08-2010 21:05:02 19 C 14.34 g/m*3 19 C 0 km/h
2146 11-08-2010 21:17:01 18.9 C 14.42 g/m*3 18.9 C 0 km/h
2147 11-08-2010 21:29:01 18.9 C 14.42 g/m*3 18.9 C 0 km/h
2148 11-08-2010 21:41:02 18.9 C 14.58 g/m*3 18.9 C 0 km/h
2149 11-08-2010 21:53:01 18.5 C 14.24 g/m*3 18.5 C 0 km/h
2150 11-08-2010 22:05:02 18.5 C 14.24 g/m*3 18.5 C 0 km/h
Sensor: Nr:Datum:Temp:Abs-Feuchte:Windchill:Wind:
Aussen-T/F 2151 11-08-2010 22:18:01 18.6 C 14.48 g/m*3 18.6 C 0 km/h
2152 11-08-2010 22:30:01 18.5 C 14.4 g/m*3 18.5 C 0 km/h
2153 11-08-2010 22:42:01 18.4 C 14.31 g/m*3 18.4 C 0 km/h
2154 11-08-2010 22:54:01 18.4 C 14.47 g/m*3 18.4 C 0 km/h
2155 11-08-2010 23:06:01 18.4 C 14.47 g/m*3 18.4 C 0 km/h
2156 11-08-2010 23:18:02 18.4 C 14.47 g/m*3 18.4 C 0 km/h
2157 11-08-2010 23:30:02 18.3 C 14.38 g/m*3 18.3 C 0 km/h
2158 11-08-2010 23:42:02 18.3 C 14.38 g/m*3 18.3 C 0 km/h
2159 11-08-2010 23:54:02 18.1 C 14.21 g/m*3 18.1 C 0 km/h
2160 12-08-2010 00:06:02 18.2 C 14.46 g/m*3 18.2 C 0 km/h
2161 12-08-2010 00:18:02 18 C 14.28 g/m*3 18 C 0 km/h
2162 12-08-2010 00:30:02 17.8 C 14.27 g/m*3 17.8 C 0 km/h
2163 12-08-2010 00:42:02 17.7 C 14.18 g/m*3 17.7 C 0 km/h
2164 12-08-2010 00:54:02 17.7 C 14.18 g/m*3 17.7 C 0 km/h
2165 12-08-2010 01:06:02 17.6 C 14.1 g/m*3 17.6 C 0 km/h
2166 12-08-2010 01:18:02 17.5 C 14.01 g/m*3 17.5 C 0 km/h
2167 12-08-2010 01:30:02 17.5 C 14.01 g/m*3 17.5 C 0 km/h
2168 12-08-2010 01:42:02 17.5 C 14.01 g/m*3 17.5 C 0 km/h
2169 12-08-2010 01:54:02 17.5 C 14.01 g/m*3 17.5 C 0 km/h
2170 12-08-2010 02:06:02 17.4 C 13.93 g/m*3 17.4 C 0 km/h
2171 12-08-2010 02:18:02 17.2 C 13.77 g/m*3 17.2 C 0 km/h
2172 12-08-2010 02:30:02 17.1 C 13.68 g/m*3 17.1 C 0 km/h
2173 12-08-2010 02:42:02 17 C 13.6 g/m*3 17 C 0 km/h
2174 12-08-2010 02:54:02 17.1 C 13.68 g/m*3 17.1 C 0 km/h
2175 12-08-2010 03:06:02 17.1 C 13.68 g/m*3 17.1 C 0 km/h
Sensor: Nr:Datum:Temp:Abs-Feuchte:Windchill:Wind:
Aussen-T/F 2176 12-08-2010 03:18:02 17.1 C 13.68 g/m*3 17.1 C 0 km/h
2177 12-08-2010 03:30:03 16.9 C 13.52 g/m*3 16.9 C 0 km/h
2178 12-08-2010 03:42:03 16.7 C 13.36 g/m*3 16.7 C 0 km/h
2179 12-08-2010 03:54:03 16.5 C 13.2 g/m*3 16.5 C 0 km/h
2180 12-08-2010 04:06:03 16.4 C 13.12 g/m*3 16.4 C 0 km/h
2181 12-08-2010 04:18:03 16.3 C 13.04 g/m*3 16.3 C 0 km/h
2182 12-08-2010 04:30:03 16.4 C 13.12 g/m*3 16.4 C 0 km/h
2183 12-08-2010 04:42:03 16.6 C 13.42 g/m*3 16.6 C 0 km/h
2184 12-08-2010 04:54:03 16.6 C 13.42 g/m*3 16.6 C 0 km/h
2185 12-08-2010 05:06:03 16.7 C 13.5 g/m*3 16.7 C 0 km/h
2186 12-08-2010 05:18:03 16.4 C 13.26 g/m*3 16.4 C 0 km/h
2187 12-08-2010 05:30:03 16.4 C 13.12 g/m*3 16.4 C 0 km/h
2188 12-08-2010 05:42:03 16.4 C 13.26 g/m*3 16.4 C 0 km/h
2189 12-08-2010 05:54:03 16.5 C 13.34 g/m*3 16.5 C 0 km/h
2190 12-08-2010 06:06:03 16.6 C 13.42 g/m*3 16.6 C 0 km/h
2191 12-08-2010 06:18:03 16.7 C 13.5 g/m*3 16.7 C 0 km/h
2192 12-08-2010 06:30:03 16.7 C 13.5 g/m*3 16.7 C 0 km/h
2193 12-08-2010 06:42:03 16.8 C 13.58 g/m*3 16.8 C 0 km/h
2194 12-08-2010 06:54:03 16.8 C 13.58 g/m*3 16.8 C 0 km/h
2195 12-08-2010 07:06:02 16.8 C 13.58 g/m*3 16.8 C 0 km/h
2196 12-08-2010 07:18:01 16.8 C 13.58 g/m*3 16.8 C 0 km/h
2197 12-08-2010 07:30:01 16.9 C 13.66 g/m*3 16.9 C 0 km/h
2198 12-08-2010 07:42:02 16.9 C 13.66 g/m*3 16.9 C 0 km/h
2199 12-08-2010 07:54:01 16.9 C 13.52 g/m*3 16.9 C 0 km/h
2200 12-08-2010 08:06:02 16.9 C 13.52 g/m*3 16.9 C 0 km/h
Sensor: Nr:Datum:Temp:Abs-Feuchte:Windchill:Wind:
Aussen-T/F 2201 12-08-2010 08:18:01 16.6 C 13 g/m*3 16.6 C 0 km/h
2202 12-08-2010 08:30:01 16.5 C 12.64 g/m*3 16.5 C 0 km/h
2203 12-08-2010 08:42:02 16.4 C 12.42 g/m*3 16.4 C 0 km/h
2204 12-08-2010 08:54:01 16.8 C 12.87 g/m*3 16.8 C 0 km/h
2205 12-08-2010 09:06:02 17.4 C 13.34 g/m*3 17.4 C 0 km/h
2206 12-08-2010 09:18:02 17.7 C 13.58 g/m*3 17.7 C 0 km/h
2207 12-08-2010 09:30:02 17.8 C 13.66 g/m*3 17.8 C 0 km/h
2208 12-08-2010 09:42:01 17.8 C 13.51 g/m*3 17.8 C 0 km/h
2209 12-08-2010 09:54:02 17.9 C 13.13 g/m*3 17.9 C 0 km/h
2210 12-08-2010 10:06:01 18.4 C 12.74 g/m*3 18.4 C 0 km/h
2211 12-08-2010 10:18:01 18.7 C 12.49 g/m*3 18.7 C 0 km/h
2212 12-08-2010 10:30:01 18.6 C 11.78 g/m*3 18.6 C 0 km/h
2213 12-08-2010 10:42:01 18.6 C 11.94 g/m*3 18.6 C 0 km/h
2214 12-08-2010 10:54:02 18.6 C 12.26 g/m*3 18.6 C 0 km/h
2215 12-08-2010 11:06:01 18.5 C 12.5 g/m*3 18.5 C 0 km/h
2216 12-08-2010 11:18:02 18.7 C 12.49 g/m*3 18.7 C 0 km/h
2217 12-08-2010 11:30:02 18.5 C 12.02 g/m*3 18.5 C 0 km/h
2218 12-08-2010 11:42:02 18.8 C 11.92 g/m*3 18.8 C 0 km/h
2219 12-08-2010 11:54:01 18.6 C 11.94 g/m*3 18.6 C 0 km/h
2220 12-08-2010 12:06:02 19.1 C 11.64 g/m*3 19.1 C 0 km/h
2221 12-08-2010 12:18:01 18.7 C 11.21 g/m*3 18.7 C 0 km/h
2222 12-08-2010 12:30:01 19.9 C 11.68 g/m*3 19.9 C 0 km/h
2223 12-08-2010 12:42:01 19.9 C 10.82 g/m*3 19.9 C 0 km/h
2224 12-08-2010 12:54:01 20.2 C 10.84 g/m*3 20.2 C 0 km/h
2225 12-08-2010 13:06:02 19.8 C 10.25 g/m*3 19.8 C 0 km/h
Sensor: Nr:Datum:Temp:Abs-Feuchte:Windchill:Wind:
Aussen-T/F 2226 12-08-2010 13:18:01 20.4 C 10.44 g/m*3 20.4 C 0 km/h
2227 12-08-2010 13:30:01 21.2 C 9.45 g/m*3 21.2 C 0 km/h
2228 12-08-2010 13:42:02 20.2 C 8.57 g/m*3 20.2 C 0 km/h
2229 12-08-2010 13:54:01 19.7 C 9.17 g/m*3 19.7 C 0 km/h
2230 12-08-2010 14:06:02 19.6 C 9.28 g/m*3 19.6 C 0 km/h
2231 12-08-2010 14:18:02 20 C 9.51 g/m*3 20 C 0 km/h
2232 12-08-2010 14:30:02 20.3 C 9.32 g/m*3 20.3 C 0 km/h
2233 12-08-2010 14:42:01 20.8 C 8.51 g/m*3 20.8 C 0 km/h
2234 12-08-2010 14:54:02 20.8 C 8.51 g/m*3 20.8 C 0 km/h
2235 12-08-2010 15:06:01 22 C 8.73 g/m*3 22 C 0 km/h
2236 12-08-2010 15:18:02 23.6 C 8.93 g/m*3 23.6 C 0 km/h
2237 12-08-2010 15:30:02 23.9 C 8.44 g/m*3 23.9 C 0 km/h
2238 12-08-2010 15:42:01 22.7 C 7.88 g/m*3 22.7 C 0 km/h
2239 12-08-2010 15:54:02 22.9 C 7.97 g/m*3 22.9 C 0 km/h
2240 12-08-2010 16:06:02 22.4 C 7.15 g/m*3 22.4 C 0 km/h
2241 12-08-2010 16:18:02 22.2 C 7.26 g/m*3 22.2 C 0 km/h
2242 12-08-2010 16:30:02 22.1 C 6.83 g/m*3 22.1 C 0 km/h
2243 12-08-2010 16:42:02 22.9 C 7.15 g/m*3 22.9 C 0 km/h
2244 12-08-2010 16:54:02 23.2 C 7.28 g/m*3 23.2 C 0 km/h
2245 12-08-2010 17:06:02 24.2 C 6.6 g/m*3 24.2 C 0 km/h
2246 12-08-2010 17:18:01 24.7 C 6.56 g/m*3 24.7 C 0 km/h
2247 12-08-2010 17:30:01 25.9 C 6.05 g/m*3 25.9 C 0 km/h
2248 12-08-2010 17:42:02 26.2 C 5.17 g/m*3 26.2 C 0 km/h
2249 12-08-2010 17:54:02 26.1 C 4.9 g/m*3 26.1 C 0 km/h
2250 12-08-2010 18:06:02 24.6 C 4.95 g/m*3 24.6 C 0 km/h
Sensor: Nr:Datum:Temp:Abs-Feuchte:Windchill:Wind:
Aussen-T/F 2251 12-08-2010 18:18:01 23.6 C 5.32 g/m*3 23.6 C 0 km/h
2252 12-08-2010 18:30:01 23.3 C 6.9 g/m*3 23.3 C 0 km/h
2253 12-08-2010 18:42:02 22.9 C 7.97 g/m*3 22.9 C 0 km/h
2254 12-08-2010 18:54:02 22.1 C 7.81 g/m*3 22.1 C 0 km/h
2255 12-08-2010 19:06:02 21.5 C 8.11 g/m*3 21.5 C 0 km/h
2256 12-08-2010 19:18:02 21.6 C 7.97 g/m*3 21.6 C 0 km/h
2257 12-08-2010 19:30:02 22.1 C 8 g/m*3 22.1 C 0 km/h
2258 12-08-2010 19:42:02 21.8 C 8.25 g/m*3 21.8 C 0 km/h
2259 12-08-2010 19:54:02 21.4 C 8.81 g/m*3 21.4 C 0 km/h
2260 12-08-2010 20:06:02 21.6 C 8.35 g/m*3 21.6 C 0 km/h
2261 12-08-2010 20:18:02 20.8 C 8.51 g/m*3 20.8 C 0 km/h
2262 12-08-2010 20:30:02 19.9 C 8.42 g/m*3 19.9 C 0 km/h
2263 12-08-2010 20:42:02 19.2 C 8.41 g/m*3 19.2 C 0 km/h
2264 12-08-2010 20:54:02 19 C 8.47 g/m*3 19 C 0 km/h
2265 12-08-2010 21:06:02 19.2 C 8.74 g/m*3 19.2 C 0 km/h
2266 12-08-2010 21:18:02 19.1 C 8.2 g/m*3 19.1 C 0 km/h
2267 12-08-2010 21:30:03 19.2 C 7.75 g/m*3 19.2 C 0 km/h
2268 12-08-2010 21:42:01 19.1 C 7.7 g/m*3 19.1 C 0 km/h
2269 12-08-2010 21:54:02 19.1 C 7.54 g/m*3 19.1 C 0 km/h
2270 12-08-2010 22:06:02 18.9 C 8.1 g/m*3 18.9 C 0 km/h
2271 12-08-2010 22:19:02 18.5 C 8.54 g/m*3 18.5 C 0 km/h
2272 12-08-2010 22:31:02 18.4 C 8.49 g/m*3 18.4 C 0 km/h
2273 12-08-2010 22:43:02 18.3 C 8.76 g/m*3 18.3 C 0 km/h
2274 12-08-2010 22:55:02 18.1 C 8.96 g/m*3 18.1 C 0 km/h
2275 12-08-2010 23:07:02 17.7 C 8.9 g/m*3 17.7 C 0 km/h
Sensor: Nr:Datum:Temp:Abs-Feuchte:Windchill:Wind:
Aussen-T/F 2276 12-08-2010 23:19:03 17.5 C 9.09 g/m*3 17.5 C 0 km/h
2277 12-08-2010 23:31:03 17.5 C 9.24 g/m*3 17.5 C 0 km/h
2278 12-08-2010 23:43:03 17.2 C 9.37 g/m*3 17.2 C 0 km/h
2279 12-08-2010 23:55:03 16.8 C 9.29 g/m*3 16.8 C 0 km/h
2280 13-08-2010 00:07:03 16.7 C 9.38 g/m*3 16.7 C 0 km/h
2281 13-08-2010 00:19:03 16.9 C 9.49 g/m*3 16.9 C 0 km/h
2282 13-08-2010 00:31:03 17 C 9.26 g/m*3 17 C 0 km/h
2283 13-08-2010 00:43:03 16.9 C 9.49 g/m*3 16.9 C 0 km/h
2284 13-08-2010 00:55:03 16.6 C 9.46 g/m*3 16.6 C 0 km/h
2285 13-08-2010 01:07:03 16.4 C 9.35 g/m*3 16.4 C 0 km/h
2286 13-08-2010 01:19:03 16.2 C 9.1 g/m*3 16.2 C 0 km/h
2287 13-08-2010 01:31:03 16.2 C 9.24 g/m*3 16.2 C 0 km/h
2288 13-08-2010 01:43:03 16 C 9.26 g/m*3 16 C 0 km/h
2289 13-08-2010 01:55:03 16.1 C 9.32 g/m*3 16.1 C 0 km/h
2290 13-08-2010 02:07:03 16.1 C 9.46 g/m*3 16.1 C 0 km/h
2291 13-08-2010 02:19:03 15.9 C 9.62 g/m*3 15.9 C 0 km/h
2292 13-08-2010 02:31:03 15.8 C 9.69 g/m*3 15.8 C 0 km/h
2293 13-08-2010 02:43:03 15.8 C 9.83 g/m*3 15.8 C 0 km/h
2294 13-08-2010 02:55:03 15.5 C 9.78 g/m*3 15.5 C 0 km/h
2295 13-08-2010 03:07:03 15.5 C 9.78 g/m*3 15.5 C 0 km/h
2296 13-08-2010 03:19:03 15.3 C 9.66 g/m*3 15.3 C 0 km/h
2297 13-08-2010 03:31:03 15.3 C 9.79 g/m*3 15.3 C 0 km/h
2298 13-08-2010 03:43:04 15.3 C 9.92 g/m*3 15.3 C 0 km/h
2299 13-08-2010 03:55:04 15.3 C 10.06 g/m*3 15.3 C 0 km/h
2300 13-08-2010 04:07:04 15.2 C 9.99 g/m*3 15.2 C 0 km/h
Sensor: Nr:Datum:Temp:Abs-Feuchte:Windchill:Wind:
Aussen-T/F 2301 13-08-2010 04:19:04 15.1 C 9.93 g/m*3 15.1 C 0 km/h
2302 13-08-2010 04:31:04 15 C 10 g/m*3 15 C 0 km/h
2303 13-08-2010 04:43:04 15 C 10 g/m*3 15 C 0 km/h
2304 13-08-2010 04:55:04 14.9 C 10.07 g/m*3 14.9 C 0 km/h
2305 13-08-2010 05:07:04 14.8 C 10.01 g/m*3 14.8 C 0 km/h
2306 13-08-2010 05:19:04 14.8 C 10.01 g/m*3 14.8 C 0 km/h
2307 13-08-2010 05:31:04 14.8 C 10.01 g/m*3 14.8 C 0 km/h
2308 13-08-2010 05:43:04 14.7 C 9.95 g/m*3 14.7 C 0 km/h
2309 13-08-2010 05:55:04 14.7 C 9.95 g/m*3 14.7 C 0 km/h
2310 13-08-2010 06:07:04 14.7 C 9.95 g/m*3 14.7 C 0 km/h
2311 13-08-2010 06:19:04 14.7 C 10.07 g/m*3 14.7 C 0 km/h
2312 13-08-2010 06:31:04 14.7 C 10.07 g/m*3 14.7 C 0 km/h
2313 13-08-2010 06:43:04 14.7 C 10.07 g/m*3 14.7 C 0 km/h
2314 13-08-2010 06:55:02 14.7 C 10.07 g/m*3 14.7 C 0 km/h
2315 13-08-2010 07:07:02 14.8 C 10.13 g/m*3 14.8 C 0 km/h
2316 13-08-2010 07:19:02 15 C 10.13 g/m*3 15 C 0 km/h
2317 13-08-2010 07:31:02 15 C 10.13 g/m*3 15 C 0 km/h
2318 13-08-2010 07:43:02 15.2 C 10.12 g/m*3 15.2 C 0 km/h
2319 13-08-2010 07:55:02 15.1 C 10.06 g/m*3 15.1 C 0 km/h
2320 13-08-2010 08:07:02 14.8 C 10.13 g/m*3 14.8 C 0 km/h
2321 13-08-2010 08:19:02 14.9 C 10.2 g/m*3 14.9 C 0 km/h
2322 13-08-2010 08:31:02 15.2 C 10.38 g/m*3 15.2 C 0 km/h
2323 13-08-2010 08:43:02 15.3 C 10.45 g/m*3 15.3 C 0 km/h
2324 13-08-2010 08:55:01 15.6 C 10.51 g/m*3 15.6 C 0 km/h
2325 13-08-2010 09:07:01 15.6 C 10.51 g/m*3 15.6 C 0 km/h
Sensor: Nr:Datum:Temp:Abs-Feuchte:Windchill:Wind:
Aussen-T/F 2326 13-08-2010 09:19:02 15.8 C 10.23 g/m*3 15.8 C 0 km/h
2327 13-08-2010 09:31:01 16.1 C 10.14 g/m*3 16.1 C 0 km/h
2328 13-08-2010 09:43:01 16.6 C 10.17 g/m*3 16.6 C 0 km/h
2329 13-08-2010 09:55:03 17.2 C 10.4 g/m*3 17.2 C 0 km/h
2330 13-08-2010 10:07:02 17.6 C 10.05 g/m*3 17.6 C 0 km/h
2331 13-08-2010 10:19:03 18.3 C 10.01 g/m*3 18.3 C 0 km/h
2332 13-08-2010 10:31:02 19 C 9.45 g/m*3 19 C 0 km/h
2333 13-08-2010 10:43:02 19.5 C 9.4 g/m*3 19.5 C 0 km/h
2334 13-08-2010 10:55:02 19.8 C 9.22 g/m*3 19.8 C 0 km/h
2335 13-08-2010 11:07:02 20.9 C 9.11 g/m*3 20.9 C 0 km/h
2336 13-08-2010 11:19:02 21.2 C 8.52 g/m*3 21.2 C 0 km/h
2337 13-08-2010 11:31:03 21 C 8.24 g/m*3 21 C 0 km/h
2338 13-08-2010 11:43:03 21.4 C 7.69 g/m*3 21.4 C 0 km/h
2339 13-08-2010 11:55:02 21.7 C 8.39 g/m*3 21.7 C 0 km/h
2340 13-08-2010 12:07:01 22.1 C 7.81 g/m*3 22.1 C 0 km/h
2341 13-08-2010 12:19:02 21.7 C 7.63 g/m*3 21.7 C 0 km/h
2342 13-08-2010 12:31:02 22.2 C 7.85 g/m*3 22.2 C 0 km/h
2343 13-08-2010 12:43:02 22.2 C 7.85 g/m*3 22.2 C 0 km/h
2344 13-08-2010 12:55:02 22.8 C 7.52 g/m*3 22.8 C 0 km/h
2345 13-08-2010 13:07:02 22.5 C 7.19 g/m*3 22.5 C 0 km/h
2346 13-08-2010 13:19:02 23.2 C 7.28 g/m*3 23.2 C 0 km/h
2347 13-08-2010 13:31:02 23.2 C 7.48 g/m*3 23.2 C 0 km/h
2348 13-08-2010 13:43:02 23.5 C 6.56 g/m*3 23.5 C 0 km/h
2349 13-08-2010 13:55:01 22.6 C 6.43 g/m*3 22.6 C 0 km/h
2350 13-08-2010 14:07:01 22.6 C 6.43 g/m*3 22.6 C 0 km/h
Sensor: Nr:Datum:Temp:Abs-Feuchte:Windchill:Wind:
Aussen-T/F 2351 13-08-2010 14:19:01 23.2 C 6.44 g/m*3 23.2 C 0 km/h
2352 13-08-2010 14:31:01 24.1 C 6.78 g/m*3 24.1 C 0 km/h
2353 13-08-2010 14:43:01 24.4 C 6.23 g/m*3 24.4 C 0 km/h
2354 13-08-2010 14:55:01 25.3 C 6.55 g/m*3 25.3 C 0 km/h
2355 13-08-2010 15:07:01 24.7 C 6.11 g/m*3 24.7 C 0 km/h
2356 13-08-2010 15:19:02 24.6 C 6.3 g/m*3 24.6 C 0 km/h
2357 13-08-2010 15:31:01 24.9 C 6.18 g/m*3 24.9 C 0 km/h
2358 13-08-2010 15:43:01 24.1 C 5.69 g/m*3 24.1 C 0 km/h
2359 13-08-2010 15:55:01 23.8 C 5.81 g/m*3 23.8 C 0 km/h
2360 13-08-2010 16:07:01 24.3 C 5.75 g/m*3 24.3 C 0 km/h
2361 13-08-2010 16:19:02 24.4 C 6.45 g/m*3 24.4 C 0 km/h
2362 13-08-2010 16:31:01 24.5 C 6.94 g/m*3 24.5 C 0 km/h
2363 13-08-2010 16:43:01 24.1 C 6.78 g/m*3 24.1 C 0 km/h
2364 13-08-2010 16:55:02 23.9 C 7.79 g/m*3 23.9 C 0 km/h
2365 13-08-2010 17:07:02 24 C 6.96 g/m*3 24 C 0 km/h
2366 13-08-2010 17:19:02 23.7 C 7.27 g/m*3 23.7 C 0 km/h
2367 13-08-2010 17:31:02 23.7 C 7.06 g/m*3 23.7 C 0 km/h
2368 13-08-2010 17:43:02 23.6 C 7.66 g/m*3 23.6 C 0 km/h
2369 13-08-2010 17:55:02 23.3 C 8.15 g/m*3 23.3 C 0 km/h
2370 13-08-2010 18:07:02 22.9 C 8.17 g/m*3 22.9 C 0 km/h
2371 13-08-2010 18:19:01 22.8 C 8.13 g/m*3 22.8 C 0 km/h
2372 13-08-2010 18:31:02 22.5 C 8.19 g/m*3 22.5 C 0 km/h
2373 13-08-2010 18:43:02 22.3 C 8.29 g/m*3 22.3 C 0 km/h
2374 13-08-2010 18:55:02 22 C 7.96 g/m*3 22 C 0 km/h
2375 13-08-2010 19:07:02 21.7 C 8.01 g/m*3 21.7 C 0 km/h
Sensor: Nr:Datum:Temp:Abs-Feuchte:Windchill:Wind:
Aussen-T/F 2376 13-08-2010 19:19:02 22.1 C 7.81 g/m*3 22.1 C 0 km/h
2377 13-08-2010 19:31:02 21.9 C 8.1 g/m*3 21.9 C 0 km/h
2378 13-08-2010 19:43:02 21.5 C 7.92 g/m*3 21.5 C 0 km/h
2379 13-08-2010 19:55:02 22 C 7.57 g/m*3 22 C 0 km/h
2380 13-08-2010 20:07:02 21.7 C 7.82 g/m*3 21.7 C 0 km/h
2381 13-08-2010 20:19:02 20.7 C 7.92 g/m*3 20.7 C 0 km/h
2382 13-08-2010 20:31:02 19.8 C 8.03 g/m*3 19.8 C 0 km/h
2383 13-08-2010 20:43:02 19 C 7.99 g/m*3 19 C 0 km/h
2384 13-08-2010 20:55:02 18.3 C 7.82 g/m*3 18.3 C 0 km/h
2385 13-08-2010 21:07:02 17.9 C 7.79 g/m*3 17.9 C 0 km/h
2386 13-08-2010 21:19:03 17.7 C 7.69 g/m*3 17.7 C 0 km/h
2387 13-08-2010 21:31:02 17.8 C 7.89 g/m*3 17.8 C 0 km/h
2388 13-08-2010 21:43:02 17.5 C 7.75 g/m*3 17.5 C 0 km/h
2389 13-08-2010 21:55:03 17.4 C 8 g/m*3 17.4 C 0 km/h
2390 13-08-2010 22:07:02 17.3 C 8.1 g/m*3 17.3 C 0 km/h
2391 13-08-2010 22:19:02 17.1 C 8.01 g/m*3 17.1 C 0 km/h
2392 13-08-2010 22:31:03 16.8 C 8.29 g/m*3 16.8 C 0 km/h
2393 13-08-2010 22:43:03 16.4 C 8.37 g/m*3 16.4 C 0 km/h
2394 13-08-2010 22:56:03 16 C 8.17 g/m*3 16 C 0 km/h
2395 13-08-2010 23:08:03 15.8 C 8.35 g/m*3 15.8 C 0 km/h
2396 13-08-2010 23:20:03 15.6 C 8.38 g/m*3 15.6 C 0 km/h
2397 13-08-2010 23:32:03 15.5 C 8.86 g/m*3 15.5 C 0 km/h
2398 13-08-2010 23:44:03 15.2 C 8.83 g/m*3 15.2 C 0 km/h
2399 13-08-2010 23:56:03 15.1 C 8.77 g/m*3 15.1 C 0 km/h
2400 14-08-2010 00:08:03 15 C 8.72 g/m*3 15 C 0 km/h
Sensor: Nr:Datum:Temp:Abs-Feuchte:Windchill:Wind:
Aussen-T/F 2401 14-08-2010 00:20:03 14.9 C 8.92 g/m*3 14.9 C 0 km/h
2402 14-08-2010 00:32:04 14.6 C 8.88 g/m*3 14.6 C 0 km/h
2403 14-08-2010 00:44:04 14.5 C 8.95 g/m*3 14.5 C 0 km/h
2404 14-08-2010 00:56:04 14.5 C 9.08 g/m*3 14.5 C 0 km/h
2405 14-08-2010 01:08:04 14.3 C 9.09 g/m*3 14.3 C 0 km/h
2406 14-08-2010 01:20:04 14.1 C 9.1 g/m*3 14.1 C 0 km/h
2407 14-08-2010 01:32:04 13.8 C 9.06 g/m*3 13.8 C 0 km/h
2408 14-08-2010 01:44:04 13.9 C 9.11 g/m*3 13.9 C 0 km/h
2409 14-08-2010 01:56:04 13.8 C 9.17 g/m*3 13.8 C 0 km/h
2410 14-08-2010 02:08:04 13.6 C 9.06 g/m*3 13.6 C 0 km/h
2411 14-08-2010 02:20:04 13.4 C 8.95 g/m*3 13.4 C 0 km/h
2412 14-08-2010 02:32:04 13.3 C 9.01 g/m*3 13.3 C 0 km/h
2413 14-08-2010 02:44:04 13.2 C 8.96 g/m*3 13.2 C 0 km/h
2414 14-08-2010 02:56:04 13.1 C 9.01 g/m*3 13.1 C 0 km/h
2415 14-08-2010 03:08:04 12.9 C 9.02 g/m*3 12.9 C 0 km/h
2416 14-08-2010 03:20:04 12.7 C 8.91 g/m*3 12.7 C 0 km/h
2417 14-08-2010 03:32:04 12.6 C 8.85 g/m*3 12.6 C 0 km/h
2418 14-08-2010 03:44:04 12.5 C 8.91 g/m*3 12.5 C 0 km/h
2419 14-08-2010 03:56:04 12.3 C 8.69 g/m*3 12.3 C 0 km/h
2420 14-08-2010 04:08:04 12.2 C 8.74 g/m*3 12.2 C 0 km/h
2421 14-08-2010 04:20:04 12.1 C 8.69 g/m*3 12.1 C 0 km/h
2422 14-08-2010 04:32:05 12.1 C 8.69 g/m*3 12.1 C 0 km/h
2423 14-08-2010 04:44:05 12 C 8.74 g/m*3 12 C 0 km/h
2424 14-08-2010 04:56:05 11.9 C 8.9 g/m*3 11.9 C 0 km/h
2425 14-08-2010 05:08:05 11.8 C 8.84 g/m*3 11.8 C 0 km/h
Sensor: Nr:Datum:Temp:Abs-Feuchte:Windchill:Wind:
Aussen-T/F 2426 14-08-2010 05:20:05 11.7 C 8.79 g/m*3 11.7 C 0 km/h
2427 14-08-2010 05:32:05 11.6 C 8.73 g/m*3 11.6 C 0 km/h
2428 14-08-2010 05:44:05 11.5 C 8.68 g/m*3 11.5 C 0 km/h
2429 14-08-2010 05:56:05 11.5 C 8.78 g/m*3 11.5 C 0 km/h
2430 14-08-2010 06:08:05 11.4 C 8.83 g/m*3 11.4 C 0 km/h
2431 14-08-2010 06:20:05 11.1 C 8.66 g/m*3 11.1 C 0 km/h
2432 14-08-2010 06:32:05 11.1 C 8.76 g/m*3 11.1 C 0 km/h
2433 14-08-2010 06:44:05 11 C 8.71 g/m*3 11 C 0 km/h
2434 14-08-2010 06:56:05 11 C 8.71 g/m*3 11 C 0 km/h
2435 14-08-2010 07:08:04 11.1 C 8.76 g/m*3 11.1 C 0 km/h
2436 14-08-2010 07:20:03 11.1 C 8.76 g/m*3 11.1 C 0 km/h
2437 14-08-2010 07:32:04 11.3 C 8.87 g/m*3 11.3 C 0 km/h
2438 14-08-2010 07:44:04 11.4 C 9.03 g/m*3 11.4 C 0 km/h
2439 14-08-2010 07:56:02 11.5 C 9.09 g/m*3 11.5 C 0 km/h
2440 14-08-2010 08:08:02 11.8 C 9.26 g/m*3 11.8 C 0 km/h
2441 14-08-2010 08:20:02 12.1 C 9.33 g/m*3 12.1 C 0 km/h
2442 14-08-2010 08:32:02 12.3 C 9.45 g/m*3 12.3 C 0 km/h
2443 14-08-2010 08:44:02 12.6 C 9.51 g/m*3 12.6 C 0 km/h
2444 14-08-2010 08:56:02 12.8 C 9.52 g/m*3 12.8 C 0 km/h
2445 14-08-2010 09:08:02 13.2 C 9.53 g/m*3 13.2 C 0 km/h
2446 14-08-2010 09:20:02 13.8 C 9.89 g/m*3 13.8 C 0 km/h
2447 14-08-2010 09:32:02 14.4 C 10.01 g/m*3 14.4 C 0 km/h
2448 14-08-2010 09:44:02 15 C 10 g/m*3 15 C 0 km/h
2449 14-08-2010 09:56:01 15.6 C 10.24 g/m*3 15.6 C 0 km/h
2450 14-08-2010 10:08:01 16.2 C 10.2 g/m*3 16.2 C 0 km/h
Sensor: Nr:Datum:Temp:Abs-Feuchte:Windchill:Wind:
Aussen-T/F 2451 14-08-2010 10:20:02 16.9 C 10.36 g/m*3 16.9 C 0 km/h
2452 14-08-2010 10:32:01 17.7 C 10.41 g/m*3 17.7 C 0 km/h
2453 14-08-2010 10:44:01 18.3 C 10.48 g/m*3 18.3 C 0 km/h
2454 14-08-2010 10:56:01 19 C 10.43 g/m*3 19 C 0 km/h
2455 14-08-2010 11:08:01 19.5 C 10.57 g/m*3 19.5 C 0 km/h
2456 14-08-2010 11:20:02 20 C 10.37 g/m*3 20 C 0 km/h
2457 14-08-2010 11:32:01 20.6 C 10.38 g/m*3 20.6 C 0 km/h
2458 14-08-2010 11:44:01 21.4 C 10.31 g/m*3 21.4 C 0 km/h
2459 14-08-2010 11:56:02 21.9 C 10.03 g/m*3 21.9 C 0 km/h
2460 14-08-2010 12:08:02 22.2 C 9.42 g/m*3 22.2 C 0 km/h
2461 14-08-2010 12:20:02 22.7 C 9.9 g/m*3 22.7 C 0 km/h
2462 14-08-2010 12:32:03 23.1 C 9.3 g/m*3 23.1 C 0 km/h
2463 14-08-2010 12:44:03 23.2 C 8.94 g/m*3 23.2 C 0 km/h
2464 14-08-2010 12:56:02 23.6 C 8.29 g/m*3 23.6 C 0 km/h
2465 14-08-2010 13:08:01 24.5 C 8.06 g/m*3 24.5 C 0 km/h
2466 14-08-2010 13:20:02 25.7 C 7.66 g/m*3 25.7 C 0 km/h
2467 14-08-2010 13:32:02 26.4 C 7.47 g/m*3 26.4 C 0 km/h
2468 14-08-2010 13:44:02 27.1 C 6.73 g/m*3 27.1 C 0 km/h
2469 14-08-2010 13:56:02 27.5 C 6.88 g/m*3 27.5 C 0 km/h
2470 14-08-2010 14:08:01 27.5 C 6.88 g/m*3 27.5 C 0 km/h
2471 14-08-2010 14:20:02 28.2 C 7.42 g/m*3 28.2 C 0 km/h
2472 14-08-2010 14:32:01 27.9 C 6.76 g/m*3 27.9 C 0 km/h
2473 14-08-2010 14:44:01 27.4 C 6.84 g/m*3 27.4 C 0 km/h
2474 14-08-2010 14:56:02 27.1 C 6.99 g/m*3 27.1 C 0 km/h
2475 14-08-2010 15:08:02 27.7 C 6.95 g/m*3 27.7 C 0 km/h
Sensor: Nr:Datum:Temp:Abs-Feuchte:Windchill:Wind:
Aussen-T/F 2476 14-08-2010 15:20:02 27.7 C 6.95 g/m*3 27.7 C 0 km/h
2477 14-08-2010 15:32:03 27.5 C 6.61 g/m*3 27.5 C 0 km/h
2478 14-08-2010 15:44:03 28.1 C 6.84 g/m*3 28.1 C 0 km/h
2479 14-08-2010 15:56:02 29.2 C 6.1 g/m*3 29.2 C 0 km/h
2480 14-08-2010 16:08:01 29.6 C 6.53 g/m*3 29.6 C 0 km/h
2481 14-08-2010 16:20:02 30 C 6.67 g/m*3 30 C 0 km/h
2482 14-08-2010 16:32:02 30 C 6.37 g/m*3 30 C 0 km/h
2483 14-08-2010 16:44:02 30.3 C 6.47 g/m*3 30.3 C 0 km/h
2484 14-08-2010 16:56:02 30.6 C 6.26 g/m*3 30.6 C 0 km/h
2485 14-08-2010 17:08:02 30.7 C 6.3 g/m*3 30.7 C 0 km/h
2486 14-08-2010 17:20:02 30.6 C 6.26 g/m*3 30.6 C 0 km/h
2487 14-08-2010 17:32:02 30.9 C 6.37 g/m*3 30.9 C 0 km/h
2488 14-08-2010 17:44:02 31 C 6.4 g/m*3 31 C 0 km/h
2489 14-08-2010 17:56:01 31.2 C 6.47 g/m*3 31.2 C 0 km/h
2490 14-08-2010 18:08:01 31.4 C 6.54 g/m*3 31.4 C 0 km/h
2491 14-08-2010 18:20:01 31.5 C 6.57 g/m*3 31.5 C 0 km/h
2492 14-08-2010 18:32:01 31.3 C 6.5 g/m*3 31.3 C 0 km/h
2493 14-08-2010 18:44:01 31 C 6.4 g/m*3 31 C 0 km/h
2494 14-08-2010 18:56:01 30.9 C 6.37 g/m*3 30.9 C 0 km/h
2495 14-08-2010 19:08:01 29.6 C 7.72 g/m*3 29.6 C 0 km/h
2496 14-08-2010 19:20:02 28.2 C 7.15 g/m*3 28.2 C 0 km/h
2497 14-08-2010 19:32:01 27.4 C 7.37 g/m*3 27.4 C 0 km/h
2498 14-08-2010 19:44:01 27.2 C 7.55 g/m*3 27.2 C 0 km/h
2499 14-08-2010 19:56:03 26.9 C 7.93 g/m*3 26.9 C 0 km/h
2500 14-08-2010 20:08:02 26.6 C 8.05 g/m*3 26.6 C 0 km/h
Sensor: Nr:Datum:Temp:Abs-Feuchte:Windchill:Wind:
Aussen-T/F 2501 14-08-2010 20:20:02 25.8 C 8.19 g/m*3 25.8 C 0 km/h
2502 14-08-2010 20:32:02 24.7 C 8.15 g/m*3 24.7 C 0 km/h
2503 14-08-2010 20:44:02 24 C 8.05 g/m*3 24 C 0 km/h
2504 14-08-2010 20:56:02 23.2 C 8.32 g/m*3 23.2 C 0 km/h
2505 14-08-2010 21:08:02 22.7 C 8.49 g/m*3 22.7 C 0 km/h
2506 14-08-2010 21:20:02 22.5 C 8.59 g/m*3 22.5 C 0 km/h
2507 14-08-2010 21:32:02 22.1 C 8.78 g/m*3 22.1 C 0 km/h
2508 14-08-2010 21:44:02 21.8 C 8.83 g/m*3 21.8 C 0 km/h
2509 14-08-2010 21:56:02 21.6 C 8.91 g/m*3 21.6 C 0 km/h
2510 14-08-2010 22:08:02 21.6 C 9.1 g/m*3 21.6 C 0 km/h
2511 14-08-2010 22:20:01 21.5 C 9.05 g/m*3 21.5 C 0 km/h
2512 14-08-2010 22:32:02 21.2 C 9.27 g/m*3 21.2 C 0 km/h
2513 14-08-2010 22:44:02 21.1 C 9.21 g/m*3 21.1 C 0 km/h
2514 14-08-2010 22:56:02 20.8 C 9.05 g/m*3 20.8 C 0 km/h
2515 14-08-2010 23:08:02 20.7 C 9.36 g/m*3 20.7 C 0 km/h
2516 14-08-2010 23:21:03 20.6 C 9.31 g/m*3 20.6 C 0 km/h
2517 14-08-2010 23:33:03 20.3 C 9.15 g/m*3 20.3 C 0 km/h
2518 14-08-2010 23:45:03 20.2 C 8.92 g/m*3 20.2 C 0 km/h
2519 14-08-2010 23:57:03 20 C 8.99 g/m*3 20 C 0 km/h
2520 15-08-2010 00:09:03 20 C 8.81 g/m*3 20 C 0 km/h
2521 15-08-2010 00:21:03 19.8 C 8.88 g/m*3 19.8 C 0 km/h
2522 15-08-2010 00:33:03 19.8 C 8.88 g/m*3 19.8 C 0 km/h
2523 15-08-2010 00:45:03 19.6 C 8.78 g/m*3 19.6 C 0 km/h
2524 15-08-2010 00:57:03 19.5 C 8.73 g/m*3 19.5 C 0 km/h
2525 15-08-2010 01:09:03 19.5 C 8.89 g/m*3 19.5 C 0 km/h
Sensor: Nr:Datum:Temp:Abs-Feuchte:Windchill:Wind:
Aussen-T/F 2526 15-08-2010 01:21:03 19.5 C 8.56 g/m*3 19.5 C 0 km/h
2527 15-08-2010 01:33:03 19.4 C 8.84 g/m*3 19.4 C 0 km/h
2528 15-08-2010 01:45:03 19.3 C 8.63 g/m*3 19.3 C 0 km/h
2529 15-08-2010 01:57:03 19.2 C 8.74 g/m*3 19.2 C 0 km/h
2530 15-08-2010 02:09:03 19.1 C 8.69 g/m*3 19.1 C 0 km/h
2531 15-08-2010 02:21:03 19.1 C 9.02 g/m*3 19.1 C 0 km/h
2532 15-08-2010 02:33:03 19 C 8.96 g/m*3 19 C 0 km/h
2533 15-08-2010 02:45:03 18.9 C 9.07 g/m*3 18.9 C 0 km/h
2534 15-08-2010 02:57:03 18.8 C 9.18 g/m*3 18.8 C 0 km/h
2535 15-08-2010 03:09:03 18.8 C 9.34 g/m*3 18.8 C 0 km/h
2536 15-08-2010 03:21:03 18.7 C 9.29 g/m*3 18.7 C 0 km/h
2537 15-08-2010 03:33:04 18.6 C 9.23 g/m*3 18.6 C 0 km/h
2538 15-08-2010 03:45:04 18.5 C 9.33 g/m*3 18.5 C 0 km/h
2539 15-08-2010 03:57:04 18.4 C 9.28 g/m*3 18.4 C 0 km/h
2540 15-08-2010 04:09:04 18.2 C 9.17 g/m*3 18.2 C 0 km/h
2541 15-08-2010 04:21:04 18.2 C 9.33 g/m*3 18.2 C 0 km/h
2542 15-08-2010 04:33:04 18.1 C 9.12 g/m*3 18.1 C 0 km/h
2543 15-08-2010 04:45:04 18.1 C 9.12 g/m*3 18.1 C 0 km/h
2544 15-08-2010 04:57:04 18.1 C 8.96 g/m*3 18.1 C 0 km/h
2545 15-08-2010 05:09:04 18.1 C 8.81 g/m*3 18.1 C 0 km/h
2546 15-08-2010 05:21:04 18.1 C 8.96 g/m*3 18.1 C 0 km/h
2547 15-08-2010 05:33:04 18.1 C 8.81 g/m*3 18.1 C 0 km/h
2548 15-08-2010 05:45:04 18 C 8.91 g/m*3 18 C 0 km/h
2549 15-08-2010 05:57:04 18 C 8.91 g/m*3 18 C 0 km/h
2550 15-08-2010 06:09:04 17.8 C 9.11 g/m*3 17.8 C 0 km/h
Sensor: Nr:Datum:Temp:Abs-Feuchte:Windchill:Wind:
Aussen-T/F 2551 15-08-2010 06:21:04 17.9 C 9.01 g/m*3 17.9 C 0 km/h
2552 15-08-2010 06:33:04 18 C 9.06 g/m*3 18 C 0 km/h
2553 15-08-2010 06:45:04 17.9 C 9.01 g/m*3 17.9 C 0 km/h
2554 15-08-2010 06:57:04 17.9 C 9.01 g/m*3 17.9 C 0 km/h
2555 15-08-2010 07:09:04 18 C 8.91 g/m*3 18 C 0 km/h
2556 15-08-2010 07:21:04 17.9 C 9.16 g/m*3 17.9 C 0 km/h
2557 15-08-2010 07:33:04 17.2 C 9.52 g/m*3 17.2 C 0 km/h
2558 15-08-2010 07:45:05 16.4 C 10.05 g/m*3 16.4 C 0 km/h
2559 15-08-2010 07:57:05 16 C 10.63 g/m*3 16 C 0 km/h
2560 15-08-2010 08:09:05 15.4 C 11.04 g/m*3 15.4 C 0 km/h
2561 15-08-2010 08:21:05 15.1 C 11.22 g/m*3 15.1 C 0 km/h
2562 15-08-2010 08:33:03 15.1 C 11.48 g/m*3 15.1 C 0 km/h
2563 15-08-2010 08:45:02 15.4 C 11.82 g/m*3 15.4 C 0 km/h
2564 15-08-2010 08:57:02 15.2 C 11.81 g/m*3 15.2 C 0 km/h
2565 15-08-2010 09:09:03 15.1 C 11.74 g/m*3 15.1 C 0 km/h
2566 15-08-2010 09:21:02 15.1 C 11.87 g/m*3 15.1 C 0 km/h
2567 15-08-2010 09:33:02 15.2 C 12.07 g/m*3 15.2 C 0 km/h
2568 15-08-2010 09:45:01 15.3 C 12.14 g/m*3 15.3 C 0 km/h
2569 15-08-2010 09:57:01 15.3 C 12.14 g/m*3 15.3 C 0 km/h
2570 15-08-2010 10:09:02 15.5 C 12.43 g/m*3 15.5 C 0 km/h
2571 15-08-2010 10:21:01 15.4 C 12.35 g/m*3 15.4 C 0 km/h
2572 15-08-2010 10:33:01 15.4 C 12.35 g/m*3 15.4 C 0 km/h
2573 15-08-2010 10:45:01 15.5 C 12.43 g/m*3 15.5 C 0 km/h
2574 15-08-2010 10:57:01 15.6 C 12.63 g/m*3 15.6 C 0 km/h
2575 15-08-2010 11:09:01 15.7 C 12.71 g/m*3 15.7 C 0 km/h
Sensor: Nr:Datum:Temp:Abs-Feuchte:Windchill:Wind:
Aussen-T/F 2576 15-08-2010 11:21:02 15.8 C 12.79 g/m*3 15.8 C 0 km/h
2577 15-08-2010 11:33:01 15.8 C 12.79 g/m*3 15.8 C 0 km/h
2578 15-08-2010 11:45:03 15.9 C 12.87 g/m*3 15.9 C 0 km/h
2579 15-08-2010 11:57:03 15.9 C 12.87 g/m*3 15.9 C 0 km/h
2580 15-08-2010 12:09:02 15.8 C 12.79 g/m*3 15.8 C 0 km/h
2581 15-08-2010 12:21:02 16 C 12.94 g/m*3 16 C 0 km/h
2582 15-08-2010 12:33:02 16.2 C 13.1 g/m*3 16.2 C 0 km/h
2583 15-08-2010 12:45:02 16.1 C 13.02 g/m*3 16.1 C 0 km/h
2584 15-08-2010 12:57:02 16.1 C 13.02 g/m*3 16.1 C 0 km/h
2585 15-08-2010 13:09:02 16.1 C 13.02 g/m*3 16.1 C 0 km/h
2586 15-08-2010 13:21:02 16.1 C 13.02 g/m*3 16.1 C 0 km/h
2587 15-08-2010 13:33:02 16.2 C 13.1 g/m*3 16.2 C 0 km/h
2588 15-08-2010 13:45:01 16.2 C 13.1 g/m*3 16.2 C 0 km/h
2589 15-08-2010 13:57:01 16.1 C 13.02 g/m*3 16.1 C 0 km/h
2590 15-08-2010 14:09:02 16.2 C 13.1 g/m*3 16.2 C 0 km/h
2591 15-08-2010 14:21:02 16.3 C 13.18 g/m*3 16.3 C 0 km/h
2592 15-08-2010 14:33:02 16.6 C 13.42 g/m*3 16.6 C 0 km/h
2593 15-08-2010 14:45:02 16.6 C 13.42 g/m*3 16.6 C 0 km/h
2594 15-08-2010 14:57:02 16.5 C 13.34 g/m*3 16.5 C 0 km/h
2595 15-08-2010 15:09:02 16.4 C 13.26 g/m*3 16.4 C 0 km/h
2596 15-08-2010 15:21:02 16.4 C 13.26 g/m*3 16.4 C 0 km/h
2597 15-08-2010 15:33:01 16.4 C 13.26 g/m*3 16.4 C 0 km/h
2598 15-08-2010 15:45:02 16.4 C 13.26 g/m*3 16.4 C 0 km/h
2599 15-08-2010 15:57:02 16.4 C 13.26 g/m*3 16.4 C 0 km/h
2600 15-08-2010 16:09:04 16.5 C 13.34 g/m*3 16.5 C 0 km/h
Sensor: Nr:Datum:Temp:Abs-Feuchte:Windchill:Wind:
Aussen-T/F 2601 15-08-2010 16:21:02 16.5 C 13.34 g/m*3 16.5 C 0 km/h
2602 15-08-2010 16:33:02 16.5 C 13.34 g/m*3 16.5 C 0 km/h
2603 15-08-2010 16:45:03 16.4 C 13.26 g/m*3 16.4 C 0 km/h
2604 15-08-2010 16:57:03 16.5 C 13.34 g/m*3 16.5 C 0 km/h
2605 15-08-2010 17:09:03 16.6 C 13.42 g/m*3 16.6 C 0 km/h
2606 15-08-2010 17:21:02 16.7 C 13.5 g/m*3 16.7 C 0 km/h
2607 15-08-2010 17:33:02 16.7 C 13.5 g/m*3 16.7 C 0 km/h
2608 15-08-2010 17:45:02 16.7 C 13.5 g/m*3 16.7 C 0 km/h
2609 15-08-2010 17:57:02 16.7 C 13.5 g/m*3 16.7 C 0 km/h
2610 15-08-2010 18:09:02 16.6 C 13.42 g/m*3 16.6 C 0 km/h
2611 15-08-2010 18:21:02 16.6 C 13.42 g/m*3 16.6 C 0 km/h
2612 15-08-2010 18:33:02 16.6 C 13.42 g/m*3 16.6 C 0 km/h
2613 15-08-2010 18:45:02 16.6 C 13.42 g/m*3 16.6 C 0 km/h
2614 15-08-2010 18:57:03 16.6 C 13.42 g/m*3 16.6 C 0 km/h
2615 15-08-2010 19:09:01 16.6 C 13.42 g/m*3 16.6 C 0 km/h
2616 15-08-2010 19:21:01 16.6 C 13.42 g/m*3 16.6 C 0 km/h
2617 15-08-2010 19:33:02 16.6 C 13.42 g/m*3 16.6 C 0 km/h
2618 15-08-2010 19:45:02 16.6 C 13.42 g/m*3 16.6 C 0 km/h
2619 15-08-2010 19:57:02 16.6 C 13.42 g/m*3 16.6 C 0 km/h
2620 15-08-2010 20:09:02 16.5 C 13.34 g/m*3 16.5 C 0 km/h
2621 15-08-2010 20:21:02 16.4 C 13.26 g/m*3 16.4 C 0 km/h
2622 15-08-2010 20:33:02 16.4 C 13.26 g/m*3 16.4 C 0 km/h
2623 15-08-2010 20:45:02 16.3 C 13.18 g/m*3 16.3 C 0 km/h
2624 15-08-2010 20:57:02 16.3 C 13.18 g/m*3 16.3 C 0 km/h
2625 15-08-2010 21:09:02 16.3 C 13.18 g/m*3 16.3 C 0 km/h
Sensor: Nr:Datum:Temp:Abs-Feuchte:Windchill:Wind:
Aussen-T/F 2626 15-08-2010 21:21:02 16.3 C 13.18 g/m*3 16.3 C 0 km/h
2627 15-08-2010 21:33:02 16.2 C 13.1 g/m*3 16.2 C 0 km/h
2628 15-08-2010 21:45:02 16.2 C 13.1 g/m*3 16.2 C 0 km/h
2629 15-08-2010 21:57:02 16.2 C 13.1 g/m*3 16.2 C 0 km/h
2630 15-08-2010 22:09:02 16.1 C 13.02 g/m*3 16.1 C 0 km/h
2631 15-08-2010 22:21:02 16.1 C 13.02 g/m*3 16.1 C 0 km/h
2632 15-08-2010 22:33:02 16.2 C 13.1 g/m*3 16.2 C 0 km/h
2633 15-08-2010 22:45:02 16.2 C 13.1 g/m*3 16.2 C 0 km/h
2634 15-08-2010 22:57:02 16.1 C 13.02 g/m*3 16.1 C 0 km/h
2635 15-08-2010 23:09:02 16 C 12.94 g/m*3 16 C 0 km/h
2636 15-08-2010 23:21:02 15.9 C 12.87 g/m*3 15.9 C 0 km/h
2637 15-08-2010 23:33:02 15.4 C 12.48 g/m*3 15.4 C 0 km/h
2638 15-08-2010 23:45:02 15.2 C 12.33 g/m*3 15.2 C 0 km/h
2639 15-08-2010 23:57:02 15 C 12.18 g/m*3 15 C 0 km/h
2640 16-08-2010 00:09:02 15 C 12.18 g/m*3 15 C 0 km/h
2641 16-08-2010 00:21:01 15 C 12.18 g/m*3 15 C 0 km/h
2642 16-08-2010 00:33:02 14.9 C 12.11 g/m*3 14.9 C 0 km/h
2643 16-08-2010 00:45:02 14.8 C 12.03 g/m*3 14.8 C 0 km/h
2644 16-08-2010 00:57:02 14.8 C 12.03 g/m*3 14.8 C 0 km/h
2645 16-08-2010 01:09:02 14.8 C 12.03 g/m*3 14.8 C 0 km/h
2646 16-08-2010 01:21:02 14.7 C 11.96 g/m*3 14.7 C 0 km/h
2647 16-08-2010 01:33:02 14.7 C 11.83 g/m*3 14.7 C 0 km/h
2648 16-08-2010 01:45:02 14.7 C 11.83 g/m*3 14.7 C 0 km/h
2649 16-08-2010 01:57:02 14.7 C 11.71 g/m*3 14.7 C 0 km/h
2650 16-08-2010 02:09:02 14.6 C 11.64 g/m*3 14.6 C 0 km/h
Sensor: Nr:Datum:Temp:Abs-Feuchte:Windchill:Wind:
Aussen-T/F 2651 16-08-2010 02:21:02 14.6 C 11.64 g/m*3 14.6 C 0 km/h
2652 16-08-2010 02:33:02 14.6 C 11.64 g/m*3 14.6 C 0 km/h
2653 16-08-2010 02:46:03 14.6 C 11.51 g/m*3 14.6 C 0 km/h
2654 16-08-2010 02:58:03 14.6 C 11.64 g/m*3 14.6 C 0 km/h
2655 16-08-2010 03:10:04 14.6 C 11.64 g/m*3 14.6 C 0 km/h
2656 16-08-2010 03:22:04 14.6 C 11.64 g/m*3 14.6 C 0 km/h
2657 16-08-2010 03:34:02 14.6 C 11.64 g/m*3 14.6 C 0 km/h
2658 16-08-2010 03:46:02 14.6 C 11.64 g/m*3 14.6 C 0 km/h
2659 16-08-2010 03:58:02 14.6 C 11.64 g/m*3 14.6 C 0 km/h
2660 16-08-2010 04:10:02 14.5 C 11.44 g/m*3 14.5 C 0 km/h
2661 16-08-2010 04:22:02 14.5 C 11.32 g/m*3 14.5 C 0 km/h
2662 16-08-2010 04:34:02 14.5 C 11.32 g/m*3 14.5 C 0 km/h
2663 16-08-2010 04:46:02 14.5 C 11.32 g/m*3 14.5 C 0 km/h
2664 16-08-2010 04:58:02 14.5 C 11.32 g/m*3 14.5 C 0 km/h
2665 16-08-2010 05:10:02 14.5 C 11.32 g/m*3 14.5 C 0 km/h
2666 16-08-2010 05:22:02 14.5 C 11.32 g/m*3 14.5 C 0 km/h
2667 16-08-2010 05:34:02 14.5 C 11.44 g/m*3 14.5 C 0 km/h
2668 16-08-2010 05:46:01 14.5 C 11.44 g/m*3 14.5 C 0 km/h
2669 16-08-2010 05:58:01 14.5 C 11.44 g/m*3 14.5 C 0 km/h
2670 16-08-2010 06:10:02 14.5 C 11.44 g/m*3 14.5 C 0 km/h
2671 16-08-2010 06:22:02 14.5 C 11.32 g/m*3 14.5 C 0 km/h
2672 16-08-2010 06:34:02 14.5 C 11.32 g/m*3 14.5 C 0 km/h
2673 16-08-2010 06:46:02 14.6 C 11.39 g/m*3 14.6 C 0 km/h
2674 16-08-2010 06:58:02 14.6 C 11.39 g/m*3 14.6 C 0 km/h
2675 16-08-2010 07:10:02 14.6 C 11.39 g/m*3 14.6 C 0 km/h
Sensor: Nr:Datum:Temp:Abs-Feuchte:Windchill:Wind:
Aussen-T/F 2676 16-08-2010 07:22:56 14.8 C 11.53 g/m*3 14.8 C 0 km/h
2677 16-08-2010 07:34:02 14.8 C 11.53 g/m*3 14.8 C 0 km/h
2678 16-08-2010 07:46:02 14.8 C 11.4 g/m*3 14.8 C 0 km/h
2679 16-08-2010 07:58:02 15.2 C 11.42 g/m*3 15.2 C 0 km/h
2680 16-08-2010 08:10:02 15.6 C 11.57 g/m*3 15.6 C 0 km/h
2681 16-08-2010 08:22:01 15.8 C 11.58 g/m*3 15.8 C 0 km/h
2682 16-08-2010 08:34:02 15.9 C 11.38 g/m*3 15.9 C 0 km/h
2683 16-08-2010 08:46:01 16 C 11.31 g/m*3 16 C 0 km/h
2684 16-08-2010 08:58:01 16.3 C 11.38 g/m*3 16.3 C 0 km/h
2685 16-08-2010 09:10:02 17.1 C 11.5 g/m*3 17.1 C 0 km/h
2686 16-08-2010 09:22:02 17.4 C 11.12 g/m*3 17.4 C 0 km/h
2687 16-08-2010 09:34:01 17.4 C 10.82 g/m*3 17.4 C 0 km/h
2688 16-08-2010 09:46:01 17.7 C 11.01 g/m*3 17.7 C 0 km/h
2689 16-08-2010 09:58:01 17.4 C 10.97 g/m*3 17.4 C 0 km/h
2690 16-08-2010 10:10:01 17.4 C 10.97 g/m*3 17.4 C 0 km/h
2691 16-08-2010 10:22:02 17.3 C 10.9 g/m*3 17.3 C 0 km/h
2692 16-08-2010 10:34:01 17.1 C 10.63 g/m*3 17.1 C 0 km/h
2693 16-08-2010 10:46:02 17.2 C 10.84 g/m*3 17.2 C 0 km/h
2694 16-08-2010 10:58:02 17 C 10.85 g/m*3 17 C 0 km/h
2695 16-08-2010 11:10:01 17.3 C 11.05 g/m*3 17.3 C 0 km/h
2696 16-08-2010 11:22:01 17.7 C 11.47 g/m*3 17.7 C 0 km/h
2697 16-08-2010 11:42:02 18.1 C 10.97 g/m*3 18.1 C 0 km/h
2698 16-08-2010 11:54:02 17.7 C 10.86 g/m*3 17.7 C 0 km/h
2699 16-08-2010 12:06:03 17.5 C 11.33 g/m*3 17.5 C 0 km/h
2700 16-08-2010 12:18:02 17.8 C 11.84 g/m*3 17.8 C 0 km/h
Sensor: Nr:Datum:Temp:Abs-Feuchte:Windchill:Wind:
Aussen-T/F 2701 16-08-2010 12:30:02 17.6 C 11.4 g/m*3 17.6 C 0 km/h
2702 16-08-2010 12:42:02 17.8 C 11.54 g/m*3 17.8 C 0 km/h
2703 16-08-2010 12:54:02 18.1 C 11.12 g/m*3 18.1 C 0 km/h
2704 16-08-2010 13:06:02 18.1 C 10.97 g/m*3 18.1 C 0 km/h
2705 16-08-2010 13:18:02 18.2 C 10.72 g/m*3 18.2 C 0 km/h
2706 16-08-2010 13:30:02 18.3 C 10.63 g/m*3 18.3 C 0 km/h
2707 16-08-2010 13:42:02 18.5 C 10.28 g/m*3 18.5 C 0 km/h
2708 16-08-2010 13:54:02 18.8 C 10.31 g/m*3 18.8 C 0 km/h
2709 16-08-2010 14:06:01 19.5 C 10.41 g/m*3 19.5 C 0 km/h
2710 16-08-2010 14:18:02 19.6 C 9.96 g/m*3 19.6 C 0 km/h
2711 16-08-2010 14:30:03 20 C 9.51 g/m*3 20 C 0 km/h
2712 16-08-2010 14:42:01 20.5 C 9.96 g/m*3 20.5 C 0 km/h
2713 16-08-2010 14:54:02 19.8 C 9.57 g/m*3 19.8 C 0 km/h
2714 16-08-2010 15:06:02 19.7 C 9.34 g/m*3 19.7 C 0 km/h
2715 16-08-2010 15:18:02 19.7 C 9.51 g/m*3 19.7 C 0 km/h
2716 16-08-2010 15:30:02 19.7 C 9.34 g/m*3 19.7 C 0 km/h
2717 16-08-2010 15:42:03 19.8 C 9.57 g/m*3 19.8 C 0 km/h
2718 16-08-2010 15:54:02 19.7 C 9.34 g/m*3 19.7 C 0 km/h
2719 16-08-2010 16:06:02 20 C 9.68 g/m*3 20 C 0 km/h
2720 16-08-2010 16:18:02 19.7 C 9.68 g/m*3 19.7 C 0 km/h
2721 16-08-2010 16:30:02 19.6 C 9.79 g/m*3 19.6 C 0 km/h
2722 16-08-2010 16:42:02 19.5 C 9.73 g/m*3 19.5 C 0 km/h
2723 16-08-2010 16:54:02 20 C 9.85 g/m*3 20 C 0 km/h
2724 16-08-2010 17:07:03 20 C 9.85 g/m*3 20 C 0 km/h
2725 16-08-2010 17:19:02 19.9 C 9.79 g/m*3 19.9 C 0 km/h
Sensor: Nr:Datum:Temp:Abs-Feuchte:Windchill:Wind:
Aussen-T/F 2726 16-08-2010 17:31:02 19.8 C 9.74 g/m*3 19.8 C 0 km/h
2727 16-08-2010 17:43:02 19.8 C 9.74 g/m*3 19.8 C 0 km/h
2728 16-08-2010 17:55:01 20.3 C 9.85 g/m*3 20.3 C 0 km/h
2729 16-08-2010 18:07:02 20.2 C 9.44 g/m*3 20.2 C 0 km/h
2730 16-08-2010 18:19:01 20 C 9.51 g/m*3 20 C 0 km/h
2731 16-08-2010 18:31:01 19.8 C 9.74 g/m*3 19.8 C 0 km/h
2732 16-08-2010 18:43:01 19.5 C 9.73 g/m*3 19.5 C 0 km/h
2733 16-08-2010 18:55:01 19.3 C 9.79 g/m*3 19.3 C 0 km/h
2734 16-08-2010 19:07:02 18.9 C 9.88 g/m*3 18.9 C 0 km/h
2735 16-08-2010 19:19:02 18.8 C 9.99 g/m*3 18.8 C 0 km/h
2736 16-08-2010 19:31:01 18.7 C 10.09 g/m*3 18.7 C 0 km/h
2737 16-08-2010 19:43:01 18.4 C 10.07 g/m*3 18.4 C 0 km/h
2738 16-08-2010 19:55:02 18.2 C 10.26 g/m*3 18.2 C 0 km/h
2739 16-08-2010 20:07:01 18.1 C 10.35 g/m*3 18.1 C 0 km/h
2740 16-08-2010 20:19:02 18 C 10.44 g/m*3 18 C 0 km/h
2741 16-08-2010 20:31:01 17.9 C 10.69 g/m*3 17.9 C 0 km/h
2742 16-08-2010 20:43:01 17.8 C 10.78 g/m*3 17.8 C 0 km/h
2743 16-08-2010 20:55:02 17.7 C 10.86 g/m*3 17.7 C 0 km/h
2744 16-08-2010 21:07:01 17.6 C 11.1 g/m*3 17.6 C 0 km/h
2745 16-08-2010 21:19:01 17.4 C 11.12 g/m*3 17.4 C 0 km/h
2746 16-08-2010 21:31:02 17.3 C 11.34 g/m*3 17.3 C 0 km/h
2747 16-08-2010 21:43:02 17.4 C 11.41 g/m*3 17.4 C 0 km/h
2748 16-08-2010 21:55:02 17.5 C 11.63 g/m*3 17.5 C 0 km/h
2749 16-08-2010 22:07:35 17.4 C 11.71 g/m*3 17.4 C 0 km/h
2750 16-08-2010 22:20:03 17.5 C 11.78 g/m*3 17.5 C 0 km/h
Sensor: Nr:Datum:Temp:Abs-Feuchte:Windchill:Wind:
Aussen-T/F 2751 16-08-2010 22:32:03 17.6 C 11.85 g/m*3 17.6 C 0 km/h
2752 16-08-2010 22:44:03 17.7 C 11.92 g/m*3 17.7 C 0 km/h
2753 16-08-2010 22:56:03 17.7 C 11.92 g/m*3 17.7 C 0 km/h
2754 16-08-2010 23:08:03 17.8 C 12.14 g/m*3 17.8 C 0 km/h
2755 16-08-2010 23:20:03 17.7 C 12.07 g/m*3 17.7 C 0 km/h
2756 16-08-2010 23:32:03 17.7 C 12.07 g/m*3 17.7 C 0 km/h
2757 16-08-2010 23:44:03 17.8 C 11.99 g/m*3 17.8 C 0 km/h
2758 16-08-2010 23:56:03 17.8 C 11.99 g/m*3 17.8 C 0 km/h
2759 17-08-2010 00:08:03 17.8 C 11.99 g/m*3 17.8 C 0 km/h
2760 17-08-2010 00:20:03 17.8 C 11.99 g/m*3 17.8 C 0 km/h
2761 17-08-2010 00:32:03 17.7 C 11.92 g/m*3 17.7 C 0 km/h
2762 17-08-2010 00:44:03 17.5 C 11.78 g/m*3 17.5 C 0 km/h
2763 17-08-2010 00:56:03 17.3 C 12.08 g/m*3 17.3 C 0 km/h
2764 17-08-2010 01:08:03 17.1 C 12.08 g/m*3 17.1 C 0 km/h
2765 17-08-2010 01:20:03 16.8 C 12.3 g/m*3 16.8 C 0 km/h
2766 17-08-2010 01:32:03 16.6 C 12.29 g/m*3 16.6 C 0 km/h
2767 17-08-2010 01:44:03 16.5 C 12.36 g/m*3 16.5 C 0 km/h
2768 17-08-2010 01:56:03 16.4 C 12.42 g/m*3 16.4 C 0 km/h
2769 17-08-2010 02:08:03 16.3 C 12.35 g/m*3 16.3 C 0 km/h
2770 17-08-2010 02:20:03 16.5 C 12.5 g/m*3 16.5 C 0 km/h
2771 17-08-2010 02:32:04 16.5 C 12.5 g/m*3 16.5 C 0 km/h
2772 17-08-2010 02:44:04 16.6 C 12.43 g/m*3 16.6 C 0 km/h
2773 17-08-2010 02:56:04 16.5 C 12.08 g/m*3 16.5 C 0 km/h
2774 17-08-2010 03:08:04 16.4 C 11.86 g/m*3 16.4 C 0 km/h
2775 17-08-2010 03:20:04 16.4 C 11.86 g/m*3 16.4 C 0 km/h
Sensor: Nr:Datum:Temp:Abs-Feuchte:Windchill:Wind:
Aussen-T/F 2776 17-08-2010 03:32:04 16.4 C 11.86 g/m*3 16.4 C 0 km/h
2777 17-08-2010 03:44:04 16.4 C 11.72 g/m*3 16.4 C 0 km/h
2778 17-08-2010 03:56:04 16.5 C 11.65 g/m*3 16.5 C 0 km/h
2779 17-08-2010 04:08:04 16.5 C 11.37 g/m*3 16.5 C 0 km/h
2780 17-08-2010 04:20:04 16.4 C 11.31 g/m*3 16.4 C 0 km/h
2781 17-08-2010 04:32:04 16.4 C 11.17 g/m*3 16.4 C 0 km/h
2782 17-08-2010 04:44:04 16.4 C 11.03 g/m*3 16.4 C 0 km/h
2783 17-08-2010 04:56:04 16.4 C 11.03 g/m*3 16.4 C 0 km/h
2784 17-08-2010 05:08:04 16 C 11.04 g/m*3 16 C 0 km/h
2785 17-08-2010 05:20:04 15.5 C 11.24 g/m*3 15.5 C 0 km/h
2786 17-08-2010 05:32:05 15.4 C 11.43 g/m*3 15.4 C 0 km/h
2787 17-08-2010 05:44:05 15.6 C 11.57 g/m*3 15.6 C 0 km/h
2788 17-08-2010 05:56:05 15.6 C 11.44 g/m*3 15.6 C 0 km/h
2789 17-08-2010 06:08:05 15.7 C 11.37 g/m*3 15.7 C 0 km/h
2790 17-08-2010 06:20:05 15.8 C 11.31 g/m*3 15.8 C 0 km/h
2791 17-08-2010 06:32:05 15.8 C 11.31 g/m*3 15.8 C 0 km/h
2792 17-08-2010 06:44:05 15.9 C 11.24 g/m*3 15.9 C 0 km/h
2793 17-08-2010 06:56:02 16 C 10.9 g/m*3 16 C 0 km/h
2794 17-08-2010 07:08:02 16.2 C 10.89 g/m*3 16.2 C 0 km/h
2795 17-08-2010 07:20:24 16.2 C 10.76 g/m*3 16.2 C 0 km/h
2796 17-08-2010 07:32:02 16.3 C 10.96 g/m*3 16.3 C 0 km/h
2797 17-08-2010 07:44:02 16.4 C 10.89 g/m*3 16.4 C 0 km/h
2798 17-08-2010 07:56:01 16.7 C 10.66 g/m*3 16.7 C 0 km/h
2799 17-08-2010 08:08:03 16.7 C 10.66 g/m*3 16.7 C 0 km/h
2800 17-08-2010 08:20:01 16.8 C 10.58 g/m*3 16.8 C 0 km/h
Sensor: Nr:Datum:Temp:Abs-Feuchte:Windchill:Wind:
Aussen-T/F 2801 17-08-2010 08:32:02 16.7 C 10.23 g/m*3 16.7 C 0 km/h
2802 17-08-2010 08:44:02 16.7 C 10.09 g/m*3 16.7 C 0 km/h
2803 17-08-2010 08:56:02 16.7 C 10.09 g/m*3 16.7 C 0 km/h
2804 17-08-2010 09:08:02 16.8 C 10.01 g/m*3 16.8 C 0 km/h
2805 17-08-2010 09:20:02 16.9 C 9.78 g/m*3 16.9 C 0 km/h
2806 17-08-2010 09:32:02 16.9 C 9.64 g/m*3 16.9 C 0 km/h
2807 17-08-2010 09:44:02 17.1 C 9.46 g/m*3 17.1 C 0 km/h
2808 17-08-2010 09:56:02 17.2 C 9.37 g/m*3 17.2 C 0 km/h
2809 17-08-2010 10:08:02 17 C 9.26 g/m*3 17 C 0 km/h
2810 17-08-2010 10:20:01 17 C 9.26 g/m*3 17 C 0 km/h
2811 17-08-2010 10:32:02 17 C 9.41 g/m*3 17 C 0 km/h
2812 17-08-2010 10:44:02 17 C 9.41 g/m*3 17 C 0 km/h
2813 17-08-2010 10:56:02 17.3 C 9.43 g/m*3 17.3 C 0 km/h
2814 17-08-2010 11:08:02 17.6 C 9.45 g/m*3 17.6 C 0 km/h
2815 17-08-2010 11:20:02 17.3 C 9.58 g/m*3 17.3 C 0 km/h
2816 17-08-2010 11:32:02 17.6 C 9.3 g/m*3 17.6 C 0 km/h
2817 17-08-2010 11:44:02 17.7 C 8.75 g/m*3 17.7 C 0 km/h
2818 17-08-2010 11:56:02 17.7 C 8.9 g/m*3 17.7 C 0 km/h
2819 17-08-2010 12:08:02 17.6 C 8.85 g/m*3 17.6 C 0 km/h
2820 17-08-2010 12:20:02 16.8 C 9.58 g/m*3 16.8 C 0 km/h
2821 17-08-2010 12:32:02 16 C 10.08 g/m*3 16 C 0 km/h
2822 17-08-2010 12:44:02 16.4 C 11.03 g/m*3 16.4 C 0 km/h
2823 17-08-2010 12:56:02 16.3 C 10.96 g/m*3 16.3 C 0 km/h
2824 17-08-2010 13:08:02 16.5 C 11.23 g/m*3 16.5 C 0 km/h
2825 17-08-2010 13:20:02 16.8 C 11.58 g/m*3 16.8 C 0 km/h
Sensor: Nr:Datum:Temp:Abs-Feuchte:Windchill:Wind:
Aussen-T/F 2826 17-08-2010 13:32:02 17.7 C 11.92 g/m*3 17.7 C 0 km/h
2827 17-08-2010 13:44:02 17.9 C 11.76 g/m*3 17.9 C 0 km/h
2828 17-08-2010 13:56:02 17.6 C 12.15 g/m*3 17.6 C 0 km/h
2829 17-08-2010 14:08:01 17.7 C 10.41 g/m*3 17.7 C 0 km/h
2830 17-08-2010 14:20:02 17.3 C 9.28 g/m*3 17.3 C 0 km/h
2831 17-08-2010 14:32:02 17.4 C 9.19 g/m*3 17.4 C 0 km/h
2832 17-08-2010 14:44:02 18.1 C 8.65 g/m*3 18.1 C 0 km/h
2833 17-08-2010 14:56:02 18.2 C 8.24 g/m*3 18.2 C 0 km/h
2834 17-08-2010 15:08:01 17.9 C 7.94 g/m*3 17.9 C 0 km/h
2835 17-08-2010 15:20:01 18.3 C 7.97 g/m*3 18.3 C 0 km/h
2836 17-08-2010 15:32:02 18 C 7.99 g/m*3 18 C 0 km/h
2837 17-08-2010 15:44:02 16 C 9.4 g/m*3 16 C 0 km/h
2838 17-08-2010 15:56:02 15.2 C 9.99 g/m*3 15.2 C 0 km/h
2839 17-08-2010 16:08:02 14.9 C 10.2 g/m*3 14.9 C 0 km/h
2840 17-08-2010 16:20:01 14.6 C 10.01 g/m*3 14.6 C 0 km/h
2841 17-08-2010 16:32:02 14.4 C 9.64 g/m*3 14.4 C 0 km/h
2842 17-08-2010 16:44:02 14.8 C 9.37 g/m*3 14.8 C 0 km/h
2843 17-08-2010 16:56:02 14.8 C 9.5 g/m*3 14.8 C 0 km/h
2844 17-08-2010 17:08:02 14.5 C 9.45 g/m*3 14.5 C 0 km/h
2845 17-08-2010 17:20:01 14.4 C 9.64 g/m*3 14.4 C 0 km/h
2846 17-08-2010 17:32:02 14.2 C 9.77 g/m*3 14.2 C 0 km/h
2847 17-08-2010 17:44:02 14.3 C 10.32 g/m*3 14.3 C 0 km/h
2848 17-08-2010 17:56:02 14.7 C 10.7 g/m*3 14.7 C 0 km/h
2849 17-08-2010 18:08:02 14.3 C 10.57 g/m*3 14.3 C 0 km/h
2850 17-08-2010 18:20:02 14.4 C 10.75 g/m*3 14.4 C 0 km/h
Sensor: Nr:Datum:Temp:Abs-Feuchte:Windchill:Wind:
Aussen-T/F 2851 17-08-2010 18:32:02 14.8 C 11.15 g/m*3 14.8 C 0 km/h
2852 17-08-2010 18:44:02 15.2 C 11.29 g/m*3 15.2 C 0 km/h
2853 17-08-2010 18:56:02 15.3 C 11.23 g/m*3 15.3 C 0 km/h
2854 17-08-2010 19:08:02 15.2 C 11.16 g/m*3 15.2 C 0 km/h
2855 17-08-2010 19:20:02 15 C 11.03 g/m*3 15 C 0 km/h
2856 17-08-2010 19:32:02 14.8 C 11.02 g/m*3 14.8 C 0 km/h
2857 17-08-2010 19:44:02 14.7 C 11.08 g/m*3 14.7 C 0 km/h
2858 17-08-2010 19:56:02 14.5 C 10.94 g/m*3 14.5 C 0 km/h
2859 17-08-2010 20:08:01 14.4 C 11 g/m*3 14.4 C 0 km/h
2860 17-08-2010 20:20:02 14.4 C 11 g/m*3 14.4 C 0 km/h
2861 17-08-2010 20:32:02 14.2 C 10.99 g/m*3 14.2 C 0 km/h
2862 17-08-2010 20:44:02 14.3 C 11.06 g/m*3 14.3 C 0 km/h
2863 17-08-2010 20:56:02 14.3 C 11.06 g/m*3 14.3 C 0 km/h
2864 17-08-2010 21:08:03 14.3 C 11.18 g/m*3 14.3 C 0 km/h
2865 17-08-2010 21:20:02 14.3 C 11.18 g/m*3 14.3 C 0 km/h
2866 17-08-2010 21:32:02 14.3 C 11.3 g/m*3 14.3 C 0 km/h
2867 17-08-2010 21:44:02 14.4 C 11.37 g/m*3 14.4 C 0 km/h
2868 17-08-2010 21:57:04 14.6 C 11.51 g/m*3 14.6 C 0 km/h
2869 17-08-2010 22:09:05 14.6 C 11.51 g/m*3 14.6 C 0 km/h
2870 17-08-2010 22:21:05 14.4 C 11 g/m*3 14.4 C 0 km/h
2871 17-08-2010 22:33:05 14.6 C 10.64 g/m*3 14.6 C 0 km/h
2872 17-08-2010 22:45:05 14.7 C 10.45 g/m*3 14.7 C 0 km/h
2873 17-08-2010 22:57:05 14.8 C 10.13 g/m*3 14.8 C 0 km/h
2874 17-08-2010 23:09:05 14.9 C 10.2 g/m*3 14.9 C 0 km/h
2875 17-08-2010 23:21:05 14.9 C 10.2 g/m*3 14.9 C 0 km/h
Sensor: Nr:Datum:Temp:Abs-Feuchte:Windchill:Wind:
Aussen-T/F 2876 17-08-2010 23:33:05 15 C 10 g/m*3 15 C 0 km/h
2877 17-08-2010 23:45:05 15 C 9.87 g/m*3 15 C 0 km/h
2878 17-08-2010 23:57:05 15.2 C 9.99 g/m*3 15.2 C 0 km/h
2879 18-08-2010 00:09:05 15.3 C 9.79 g/m*3 15.3 C 0 km/h
2880 18-08-2010 00:21:05 15.4 C 9.72 g/m*3 15.4 C 0 km/h
2881 18-08-2010 00:33:05 15.5 C 9.65 g/m*3 15.5 C 0 km/h
2882 18-08-2010 00:45:05 15.7 C 9.63 g/m*3 15.7 C 0 km/h
2883 18-08-2010 00:57:05 15.7 C 9.5 g/m*3 15.7 C 0 km/h
2884 18-08-2010 01:09:05 15.7 C 9.5 g/m*3 15.7 C 0 km/h
2885 18-08-2010 01:21:05 15.8 C 9.42 g/m*3 15.8 C 0 km/h
2886 18-08-2010 01:33:05 15.8 C 9.42 g/m*3 15.8 C 0 km/h
2887 18-08-2010 01:45:05 15.8 C 9.42 g/m*3 15.8 C 0 km/h
2888 18-08-2010 01:57:05 15.7 C 9.37 g/m*3 15.7 C 0 km/h
2889 18-08-2010 02:09:05 15.5 C 9.39 g/m*3 15.5 C 0 km/h
2890 18-08-2010 02:21:05 15.6 C 9.44 g/m*3 15.6 C 0 km/h
2891 18-08-2010 02:33:05 15.5 C 9.39 g/m*3 15.5 C 0 km/h
2892 18-08-2010 02:45:06 15.6 C 9.44 g/m*3 15.6 C 0 km/h
2893 18-08-2010 02:57:06 15.5 C 9.52 g/m*3 15.5 C 0 km/h
2894 18-08-2010 03:09:06 15.5 C 9.52 g/m*3 15.5 C 0 km/h
2895 18-08-2010 03:21:06 15.4 C 9.46 g/m*3 15.4 C 0 km/h
2896 18-08-2010 03:33:06 15.5 C 9.52 g/m*3 15.5 C 0 km/h
2897 18-08-2010 03:45:06 15.4 C 9.46 g/m*3 15.4 C 0 km/h
2898 18-08-2010 03:57:06 15.5 C 9.52 g/m*3 15.5 C 0 km/h
2899 18-08-2010 04:09:06 15.4 C 9.33 g/m*3 15.4 C 0 km/h
2900 18-08-2010 04:21:06 15.4 C 9.46 g/m*3 15.4 C 0 km/h
Sensor: Nr:Datum:Temp:Abs-Feuchte:Windchill:Wind:
Aussen-T/F 2901 18-08-2010 04:33:06 15.2 C 9.48 g/m*3 15.2 C 0 km/h
2902 18-08-2010 04:45:06 15 C 9.62 g/m*3 15 C 0 km/h
2903 18-08-2010 04:57:06 15 C 9.87 g/m*3 15 C 0 km/h
2904 18-08-2010 05:09:06 15 C 9.87 g/m*3 15 C 0 km/h
2905 18-08-2010 05:21:06 15 C 9.75 g/m*3 15 C 0 km/h
2906 18-08-2010 05:33:06 14.9 C 9.81 g/m*3 14.9 C 0 km/h
2907 18-08-2010 05:45:06 14.9 C 9.81 g/m*3 14.9 C 0 km/h
2908 18-08-2010 05:57:06 15 C 9.75 g/m*3 15 C 0 km/h
2909 18-08-2010 06:09:06 15 C 9.62 g/m*3 15 C 0 km/h
2910 18-08-2010 06:21:04 15 C 9.62 g/m*3 15 C 0 km/h
2911 18-08-2010 06:33:04 15 C 9.49 g/m*3 15 C 0 km/h
2912 18-08-2010 06:45:02 15.2 C 9.61 g/m*3 15.2 C 0 km/h
2913 18-08-2010 06:57:02 15.2 C 9.48 g/m*3 15.2 C 0 km/h
2914 18-08-2010 07:09:01 15.2 C 9.48 g/m*3 15.2 C 0 km/h
2915 18-08-2010 07:21:01 15.3 C 9.66 g/m*3 15.3 C 0 km/h
2916 18-08-2010 07:33:02 15.4 C 9.72 g/m*3 15.4 C 0 km/h
2917 18-08-2010 07:45:02 15.5 C 9.78 g/m*3 15.5 C 0 km/h
2918 18-08-2010 07:57:02 15.8 C 9.83 g/m*3 15.8 C 0 km/h
2919 18-08-2010 08:09:02 15.9 C 9.89 g/m*3 15.9 C 0 km/h
2920 18-08-2010 08:21:01 16 C 9.81 g/m*3 16 C 0 km/h
2921 18-08-2010 08:33:02 16.1 C 9.87 g/m*3 16.1 C 0 km/h
2922 18-08-2010 08:45:02 16.3 C 9.85 g/m*3 16.3 C 0 km/h
2923 18-08-2010 08:57:02 16.5 C 9.97 g/m*3 16.5 C 0 km/h
2924 18-08-2010 09:09:02 16.7 C 10.23 g/m*3 16.7 C 0 km/h
2925 18-08-2010 09:21:02 17 C 10.13 g/m*3 17 C 0 km/h
Sensor: Nr:Datum:Temp:Abs-Feuchte:Windchill:Wind:
Aussen-T/F 2926 18-08-2010 09:33:02 17 C 10.13 g/m*3 17 C 0 km/h
2927 18-08-2010 09:45:02 17.5 C 10.14 g/m*3 17.5 C 0 km/h
2928 18-08-2010 09:57:02 17.3 C 10.16 g/m*3 17.3 C 0 km/h
2929 18-08-2010 10:09:02 17.4 C 10.08 g/m*3 17.4 C 0 km/h
2930 18-08-2010 10:21:02 17.8 C 10.32 g/m*3 17.8 C 0 km/h
2931 18-08-2010 10:33:01 18 C 10.14 g/m*3 18 C 0 km/h
2932 18-08-2010 10:45:02 18.5 C 10.28 g/m*3 18.5 C 0 km/h
2933 18-08-2010 10:57:02 19.1 C 10.16 g/m*3 19.1 C 0 km/h
2934 18-08-2010 11:09:01 18.8 C 9.99 g/m*3 18.8 C 0 km/h
2935 18-08-2010 11:21:02 18.9 C 10.21 g/m*3 18.9 C 0 km/h
2936 18-08-2010 11:33:02 18.5 C 10.13 g/m*3 18.5 C 0 km/h
2937 18-08-2010 11:45:02 18.5 C 10.28 g/m*3 18.5 C 0 km/h
2938 18-08-2010 11:57:02 18.8 C 10.31 g/m*3 18.8 C 0 km/h
2939 18-08-2010 12:09:02 19.1 C 10.16 g/m*3 19.1 C 0 km/h
2940 18-08-2010 12:21:02 18.9 C 10.69 g/m*3 18.9 C 0 km/h
2941 18-08-2010 12:33:02 18.8 C 10.63 g/m*3 18.8 C 0 km/h
2942 18-08-2010 12:45:02 18.3 C 10.94 g/m*3 18.3 C 0 km/h
2943 18-08-2010 12:57:02 19 C 10.92 g/m*3 19 C 0 km/h
2944 18-08-2010 13:09:02 20 C 10.54 g/m*3 20 C 0 km/h
2945 18-08-2010 13:21:02 19.8 C 10.76 g/m*3 19.8 C 0 km/h
2946 18-08-2010 13:33:02 20.4 C 10.26 g/m*3 20.4 C 0 km/h
2947 18-08-2010 13:45:02 21.5 C 9.99 g/m*3 21.5 C 0 km/h
2948 18-08-2010 13:57:02 22.3 C 9.48 g/m*3 22.3 C 0 km/h
2949 18-08-2010 14:09:02 22.2 C 9.03 g/m*3 22.2 C 0 km/h
2950 18-08-2010 14:21:02 22.7 C 9.29 g/m*3 22.7 C 0 km/h
Sensor: Nr:Datum:Temp:Abs-Feuchte:Windchill:Wind:
Aussen-T/F 2951 18-08-2010 14:33:02 22.7 C 9.29 g/m*3 22.7 C 0 km/h
2952 18-08-2010 14:45:02 23.2 C 8.73 g/m*3 23.2 C 0 km/h
2953 18-08-2010 14:57:02 23.4 C 8.83 g/m*3 23.4 C 0 km/h
2954 18-08-2010 15:09:02 22.5 C 8.99 g/m*3 22.5 C 0 km/h
2955 18-08-2010 15:21:02 21.3 C 9.51 g/m*3 21.3 C 0 km/h
2956 18-08-2010 15:33:02 22 C 9.12 g/m*3 22 C 0 km/h
2957 18-08-2010 15:45:02 22.4 C 8.74 g/m*3 22.4 C 0 km/h
2958 18-08-2010 15:57:02 23 C 8.63 g/m*3 23 C 0 km/h
2959 18-08-2010 16:09:02 22.7 C 9.09 g/m*3 22.7 C 0 km/h
2960 18-08-2010 16:21:02 22.8 C 9.35 g/m*3 22.8 C 0 km/h
2961 18-08-2010 16:33:02 23.6 C 9.15 g/m*3 23.6 C 0 km/h
2962 18-08-2010 16:45:01 24.5 C 8.73 g/m*3 24.5 C 0 km/h
2963 18-08-2010 16:57:01 24.8 C 8.65 g/m*3 24.8 C 0 km/h
2964 18-08-2010 17:09:01 24 C 8.7 g/m*3 24 C 0 km/h
2965 18-08-2010 17:21:01 23.2 C 8.94 g/m*3 23.2 C 0 km/h
2966 18-08-2010 17:33:02 23.5 C 8.88 g/m*3 23.5 C 0 km/h
2967 18-08-2010 17:45:02 24.5 C 8.95 g/m*3 24.5 C 0 km/h
2968 18-08-2010 17:57:02 24.2 C 8.8 g/m*3 24.2 C 0 km/h
2969 18-08-2010 18:09:02 22.8 C 9.35 g/m*3 22.8 C 0 km/h
2970 18-08-2010 18:21:01 22.9 C 9.4 g/m*3 22.9 C 0 km/h
2971 18-08-2010 18:33:02 22.2 C 9.03 g/m*3 22.2 C 0 km/h
2972 18-08-2010 18:45:02 22 C 9.12 g/m*3 22 C 0 km/h
2973 18-08-2010 18:57:02 21.9 C 8.88 g/m*3 21.9 C 0 km/h
2974 18-08-2010 19:09:02 21.3 C 8.95 g/m*3 21.3 C 0 km/h
2975 18-08-2010 19:21:01 21.1 C 9.03 g/m*3 21.1 C 0 km/h
Sensor: Nr:Datum:Temp:Abs-Feuchte:Windchill:Wind:
Aussen-T/F 2976 18-08-2010 19:33:02 20.8 C 9.23 g/m*3 20.8 C 0 km/h
2977 18-08-2010 19:45:01 20.4 C 9.38 g/m*3 20.4 C 0 km/h
2978 18-08-2010 19:57:01 19.8 C 10.08 g/m*3 19.8 C 0 km/h
2979 18-08-2010 20:09:02 19.2 C 10.22 g/m*3 19.2 C 0 km/h
2980 18-08-2010 20:21:02 19.5 C 10.07 g/m*3 19.5 C 0 km/h
2981 18-08-2010 20:33:02 19.5 C 9.9 g/m*3 19.5 C 0 km/h
2982 18-08-2010 20:45:02 19.5 C 9.9 g/m*3 19.5 C 0 km/h
2983 18-08-2010 20:57:02 19.5 C 9.9 g/m*3 19.5 C 0 km/h
2984 18-08-2010 21:09:01 19.3 C 9.95 g/m*3 19.3 C 0 km/h
2985 18-08-2010 21:21:02 19.1 C 10 g/m*3 19.1 C 0 km/h
2986 18-08-2010 21:33:01 18.7 C 10.25 g/m*3 18.7 C 0 km/h
2987 18-08-2010 21:45:02 18.7 C 10.41 g/m*3 18.7 C 0 km/h
2988 18-08-2010 21:57:02 18.3 C 10.32 g/m*3 18.3 C 0 km/h
2989 18-08-2010 22:09:01 18.1 C 10.51 g/m*3 18.1 C 0 km/h
2990 18-08-2010 22:22:04 17.7 C 10.56 g/m*3 17.7 C 0 km/h
2991 18-08-2010 22:34:04 17.5 C 10.59 g/m*3 17.5 C 0 km/h
2992 18-08-2010 22:46:04 17.3 C 10.61 g/m*3 17.3 C 0 km/h
2993 18-08-2010 22:58:04 17.4 C 10.67 g/m*3 17.4 C 0 km/h
2994 18-08-2010 23:10:04 17.6 C 10.8 g/m*3 17.6 C 0 km/h
2995 18-08-2010 23:22:04 17.7 C 10.56 g/m*3 17.7 C 0 km/h
2996 18-08-2010 23:34:04 17.6 C 10.2 g/m*3 17.6 C 0 km/h
2997 18-08-2010 23:46:04 17.5 C 9.69 g/m*3 17.5 C 0 km/h
2998 18-08-2010 23:58:04 17.5 C 9.69 g/m*3 17.5 C 0 km/h
2999 19-08-2010 00:10:04 17.4 C 9.19 g/m*3 17.4 C 0 km/h
3000 19-08-2010 00:22:04 17.4 C 9.34 g/m*3 17.4 C 0 km/h
Sensor: Nr:Datum:Temp:Abs-Feuchte:Windchill:Wind:
Aussen-T/F 3001 19-08-2010 00:34:04 17.4 C 9.04 g/m*3 17.4 C 0 km/h
3002 19-08-2010 00:46:04 17.3 C 9.13 g/m*3 17.3 C 0 km/h
3003 19-08-2010 00:58:04 17.3 C 8.99 g/m*3 17.3 C 0 km/h
3004 19-08-2010 01:10:04 17.1 C 9.03 g/m*3 17.1 C 0 km/h
3005 19-08-2010 01:22:05 17.1 C 9.17 g/m*3 17.1 C 0 km/h
3006 19-08-2010 01:34:05 16.8 C 9.29 g/m*3 16.8 C 0 km/h
3007 19-08-2010 01:46:05 16.7 C 9.24 g/m*3 16.7 C 0 km/h
3008 19-08-2010 01:58:05 16.6 C 9.18 g/m*3 16.6 C 0 km/h
3009 19-08-2010 02:10:05 16.5 C 8.85 g/m*3 16.5 C 0 km/h
3010 19-08-2010 02:22:05 16.4 C 8.93 g/m*3 16.4 C 0 km/h
3011 19-08-2010 02:34:05 16.3 C 8.6 g/m*3 16.3 C 0 km/h
3012 19-08-2010 02:46:05 16.2 C 8.69 g/m*3 16.2 C 0 km/h
3013 19-08-2010 02:58:05 16.2 C 8.96 g/m*3 16.2 C 0 km/h
3014 19-08-2010 03:10:05 16.1 C 9.18 g/m*3 16.1 C 0 km/h
3015 19-08-2010 03:22:05 16 C 9.26 g/m*3 16 C 0 km/h
3016 19-08-2010 03:34:05 15.9 C 9.34 g/m*3 15.9 C 0 km/h
3017 19-08-2010 03:46:05 15.8 C 9.15 g/m*3 15.8 C 0 km/h
3018 19-08-2010 03:58:05 15.7 C 9.1 g/m*3 15.7 C 0 km/h
3019 19-08-2010 04:10:05 15.7 C 9.23 g/m*3 15.7 C 0 km/h
3020 19-08-2010 04:22:05 15.6 C 9.18 g/m*3 15.6 C 0 km/h
3021 19-08-2010 04:34:05 15.5 C 9.39 g/m*3 15.5 C 0 km/h
3022 19-08-2010 04:46:05 15.4 C 9.46 g/m*3 15.4 C 0 km/h
3023 19-08-2010 04:58:05 15.5 C 9.65 g/m*3 15.5 C 0 km/h
3024 19-08-2010 05:10:05 15.3 C 9.53 g/m*3 15.3 C 0 km/h
3025 19-08-2010 05:22:05 15.2 C 9.48 g/m*3 15.2 C 0 km/h
Sensor: Nr:Datum:Temp:Abs-Feuchte:Windchill:Wind:
Aussen-T/F 3026 19-08-2010 05:34:05 15 C 9.23 g/m*3 15 C 0 km/h
3027 19-08-2010 05:46:05 15 C 9.36 g/m*3 15 C 0 km/h
3028 19-08-2010 05:58:06 15 C 8.98 g/m*3 15 C 0 km/h
3029 19-08-2010 06:10:06 14.8 C 8.99 g/m*3 14.8 C 0 km/h
3030 19-08-2010 06:22:06 14.4 C 8.9 g/m*3 14.4 C 0 km/h
3031 19-08-2010 06:34:06 14.2 C 8.91 g/m*3 14.2 C 0 km/h
3032 19-08-2010 06:46:06 13.7 C 8.76 g/m*3 13.7 C 0 km/h
3033 19-08-2010 06:58:06 13.8 C 8.94 g/m*3 13.8 C 0 km/h
3034 19-08-2010 07:10:06 13.7 C 8.76 g/m*3 13.7 C 0 km/h
3035 19-08-2010 07:22:06 13.9 C 8.15 g/m*3 13.9 C 0 km/h
3036 19-08-2010 07:34:06 13.9 C 8.15 g/m*3 13.9 C 0 km/h
3037 19-08-2010 07:46:01 14 C 8.08 g/m*3 14 C 0 km/h
3038 19-08-2010 07:58:01 14.1 C 7.89 g/m*3 14.1 C 0 km/h
3039 19-08-2010 08:10:02 14.4 C 7.91 g/m*3 14.4 C 0 km/h
3040 19-08-2010 08:22:01 14.6 C 8.01 g/m*3 14.6 C 0 km/h
3041 19-08-2010 08:34:01 14.8 C 8.11 g/m*3 14.8 C 0 km/h
3042 19-08-2010 08:46:01 14.9 C 8.16 g/m*3 14.9 C 0 km/h
3043 19-08-2010 08:58:01 15.2 C 8.05 g/m*3 15.2 C 0 km/h
3044 19-08-2010 09:10:02 15.3 C 8.23 g/m*3 15.3 C 0 km/h
3045 19-08-2010 09:22:01 15.4 C 8.15 g/m*3 15.4 C 0 km/h
3046 19-08-2010 09:34:01 15.7 C 8.03 g/m*3 15.7 C 0 km/h
3047 19-08-2010 09:46:01 16 C 8.04 g/m*3 16 C 0 km/h
3048 19-08-2010 09:58:01 16.2 C 7.86 g/m*3 16.2 C 0 km/h
3049 19-08-2010 10:10:02 16.6 C 7.91 g/m*3 16.6 C 0 km/h
3050 19-08-2010 10:22:02 17.1 C 7.71 g/m*3 17.1 C 0 km/h
Sensor: Nr:Datum:Temp:Abs-Feuchte:Windchill:Wind:
Aussen-T/F 3051 19-08-2010 10:34:02 17.7 C 7.69 g/m*3 17.7 C 0 km/h
3052 19-08-2010 10:46:02 18.8 C 7.73 g/m*3 18.8 C 0 km/h
3053 19-08-2010 10:58:02 19.3 C 7.3 g/m*3 19.3 C 0 km/h
3054 19-08-2010 11:10:02 19.2 C 7.26 g/m*3 19.2 C 0 km/h
3055 19-08-2010 11:22:02 19.5 C 7.38 g/m*3 19.5 C 0 km/h
3056 19-08-2010 11:34:03 20.2 C 6.99 g/m*3 20.2 C 0 km/h
3057 19-08-2010 11:46:02 20.4 C 7.43 g/m*3 20.4 C 0 km/h
3058 19-08-2010 11:58:02 20.7 C 7.2 g/m*3 20.7 C 0 km/h
3059 19-08-2010 12:10:01 20.3 C 7.03 g/m*3 20.3 C 0 km/h
3060 19-08-2010 12:22:02 20.8 C 6.88 g/m*3 20.8 C 0 km/h
3061 19-08-2010 12:34:02 22.1 C 6.64 g/m*3 22.1 C 0 km/h
3062 19-08-2010 12:46:02 22 C 6.4 g/m*3 22 C 0 km/h
3063 19-08-2010 12:58:02 22 C 6.21 g/m*3 22 C 0 km/h
3064 19-08-2010 13:10:03 22.1 C 6.25 g/m*3 22.1 C 0 km/h
3065 19-08-2010 13:22:02 22.1 C 6.05 g/m*3 22.1 C 0 km/h
3066 19-08-2010 13:34:02 22.6 C 6.23 g/m*3 22.6 C 0 km/h
3067 19-08-2010 13:46:01 22.7 C 6.06 g/m*3 22.7 C 0 km/h
3068 19-08-2010 13:58:01 23.7 C 6.2 g/m*3 23.7 C 0 km/h
3069 19-08-2010 14:10:02 23.3 C 6.27 g/m*3 23.3 C 0 km/h
3070 19-08-2010 14:22:01 22.8 C 6.1 g/m*3 22.8 C 0 km/h
3071 19-08-2010 14:34:01 23.7 C 5.78 g/m*3 23.7 C 0 km/h
3072 19-08-2010 14:46:01 23 C 5.55 g/m*3 23 C 0 km/h
3073 19-08-2010 14:58:01 22.4 C 6.36 g/m*3 22.4 C 0 km/h
3074 19-08-2010 15:10:02 22.4 C 6.95 g/m*3 22.4 C 0 km/h
3075 19-08-2010 15:22:01 23.2 C 6.44 g/m*3 23.2 C 0 km/h
Sensor: Nr:Datum:Temp:Abs-Feuchte:Windchill:Wind:
Aussen-T/F 3076 19-08-2010 15:34:01 24.3 C 5.97 g/m*3 24.3 C 0 km/h
3077 19-08-2010 15:46:01 24.6 C 5.63 g/m*3 24.6 C 0 km/h
3078 19-08-2010 15:58:01 24.2 C 5.94 g/m*3 24.2 C 0 km/h
3079 19-08-2010 16:10:01 23.4 C 7.36 g/m*3 23.4 C 0 km/h
3080 19-08-2010 16:22:02 23.5 C 7.4 g/m*3 23.5 C 0 km/h
3081 19-08-2010 16:34:01 23.5 C 7.82 g/m*3 23.5 C 0 km/h
3082 19-08-2010 16:46:03 23.1 C 7.65 g/m*3 23.1 C 0 km/h
3083 19-08-2010 16:58:03 22.9 C 7.97 g/m*3 22.9 C 0 km/h
3084 19-08-2010 17:10:02 22.4 C 8.14 g/m*3 22.4 C 0 km/h
3085 19-08-2010 17:22:02 22.9 C 8.17 g/m*3 22.9 C 0 km/h
3086 19-08-2010 17:34:02 24.1 C 8.1 g/m*3 24.1 C 0 km/h
3087 19-08-2010 17:46:02 24.5 C 7.39 g/m*3 24.5 C 0 km/h
3088 19-08-2010 17:58:02 25.6 C 5.48 g/m*3 25.6 C 0 km/h
3089 19-08-2010 18:10:01 25.1 C 5.32 g/m*3 25.1 C 0 km/h
3090 19-08-2010 18:22:02 25 C 5.75 g/m*3 25 C 0 km/h
3091 19-08-2010 18:34:02 25.3 C 5.85 g/m*3 25.3 C 0 km/h
3092 19-08-2010 18:46:02 25.7 C 5.99 g/m*3 25.7 C 0 km/h
3093 19-08-2010 18:58:02 26 C 5.84 g/m*3 26 C 0 km/h
3094 19-08-2010 19:10:03 25.8 C 6.98 g/m*3 25.8 C 0 km/h
3095 19-08-2010 19:22:02 25.8 C 6.26 g/m*3 25.8 C 0 km/h
3096 19-08-2010 19:34:02 25.6 C 6.67 g/m*3 25.6 C 0 km/h
3097 19-08-2010 19:46:01 24.9 C 6.87 g/m*3 24.9 C 0 km/h
3098 19-08-2010 19:58:01 24.1 C 6.35 g/m*3 24.1 C 0 km/h
3099 19-08-2010 20:10:02 22.8 C 6.71 g/m*3 22.8 C 0 km/h
3100 19-08-2010 20:22:01 21.3 C 7.08 g/m*3 21.3 C 0 km/h
Sensor: Nr:Datum:Temp:Abs-Feuchte:Windchill:Wind:
Aussen-T/F 3101 19-08-2010 20:34:02 20.1 C 7.13 g/m*3 20.1 C 0 km/h
3102 19-08-2010 20:46:01 19.4 C 7.17 g/m*3 19.4 C 0 km/h
3103 19-08-2010 20:58:01 18.9 C 7.45 g/m*3 18.9 C 0 km/h
3104 19-08-2010 21:10:02 18.5 C 7.44 g/m*3 18.5 C 0 km/h
3105 19-08-2010 21:22:01 18.3 C 7.82 g/m*3 18.3 C 0 km/h
3106 19-08-2010 21:34:02 18.2 C 7.77 g/m*3 18.2 C 0 km/h
3107 19-08-2010 21:46:01 17.9 C 8.09 g/m*3 17.9 C 0 km/h
3108 19-08-2010 21:58:01 17.5 C 7.75 g/m*3 17.5 C 0 km/h
3109 19-08-2010 22:10:02 17.3 C 7.96 g/m*3 17.3 C 0 km/h
3110 19-08-2010 22:22:02 17.1 C 8.01 g/m*3 17.1 C 0 km/h
3111 19-08-2010 22:34:02 17 C 7.96 g/m*3 17 C 0 km/h
3112 19-08-2010 22:47:36 16.6 C 8.05 g/m*3 16.6 C 0 km/h
3113 19-08-2010 22:59:36 16.3 C 8.05 g/m*3 16.3 C 0 km/h
3114 19-08-2010 23:11:36 16 C 8.17 g/m*3 16 C 0 km/h
3115 19-08-2010 23:23:36 15.8 C 8.48 g/m*3 15.8 C 0 km/h
3116 19-08-2010 23:35:36 15.6 C 8.38 g/m*3 15.6 C 0 km/h
3117 19-08-2010 23:47:36 15.5 C 8.46 g/m*3 15.5 C 0 km/h
3118 19-08-2010 23:59:36 15.2 C 8.31 g/m*3 15.2 C 0 km/h
3119 20-08-2010 00:11:36 15.1 C 8.51 g/m*3 15.1 C 0 km/h
3120 20-08-2010 00:23:36 14.9 C 8.54 g/m*3 14.9 C 0 km/h
3121 20-08-2010 00:35:36 14.7 C 8.56 g/m*3 14.7 C 0 km/h
3122 20-08-2010 00:47:36 14.5 C 8.58 g/m*3 14.5 C 0 km/h
3123 20-08-2010 00:59:36 14.4 C 8.53 g/m*3 14.4 C 0 km/h
3124 20-08-2010 01:11:36 14.3 C 8.6 g/m*3 14.3 C 0 km/h
3125 20-08-2010 01:23:36 14.2 C 8.67 g/m*3 14.2 C 0 km/h
Sensor: Nr:Datum:Temp:Abs-Feuchte:Windchill:Wind:
Aussen-T/F 3126 20-08-2010 01:35:36 13.9 C 8.63 g/m*3 13.9 C 0 km/h
3127 20-08-2010 01:47:37 14 C 8.56 g/m*3 14 C 0 km/h
3128 20-08-2010 01:59:37 13.8 C 8.58 g/m*3 13.8 C 0 km/h
3129 20-08-2010 02:11:37 13.6 C 8.59 g/m*3 13.6 C 0 km/h
3130 20-08-2010 02:23:37 13.5 C 8.54 g/m*3 13.5 C 0 km/h
3131 20-08-2010 02:35:37 13.3 C 8.66 g/m*3 13.3 C 0 km/h
3132 20-08-2010 02:47:37 13.2 C 8.61 g/m*3 13.2 C 0 km/h
3133 20-08-2010 02:59:37 13.1 C 8.56 g/m*3 13.1 C 0 km/h
3134 20-08-2010 03:11:37 13 C 8.62 g/m*3 13 C 0 km/h
3135 20-08-2010 03:23:03 12.9 C 8.68 g/m*3 12.9 C 0 km/h
3136 20-08-2010 03:35:03 12.8 C 8.62 g/m*3 12.8 C 0 km/h
3137 20-08-2010 03:47:03 12.7 C 8.57 g/m*3 12.7 C 0 km/h
3138 20-08-2010 03:59:03 12.6 C 8.63 g/m*3 12.6 C 0 km/h
3139 20-08-2010 04:11:03 12.4 C 8.63 g/m*3 12.4 C 0 km/h
3140 20-08-2010 04:23:03 12.4 C 8.63 g/m*3 12.4 C 0 km/h
3141 20-08-2010 04:35:03 12.3 C 8.58 g/m*3 12.3 C 0 km/h
3142 20-08-2010 04:47:03 12.1 C 8.47 g/m*3 12.1 C 0 km/h
3143 20-08-2010 04:59:03 12.1 C 8.58 g/m*3 12.1 C 0 km/h
3144 20-08-2010 05:11:03 12 C 8.53 g/m*3 12 C 0 km/h
3145 20-08-2010 05:23:03 12 C 8.63 g/m*3 12 C 0 km/h
3146 20-08-2010 05:35:03 12 C 8.53 g/m*3 12 C 0 km/h
3147 20-08-2010 05:47:03 11.8 C 8.53 g/m*3 11.8 C 0 km/h
3148 20-08-2010 05:59:03 11.7 C 8.58 g/m*3 11.7 C 0 km/h
3149 20-08-2010 06:11:03 11.6 C 8.52 g/m*3 11.6 C 0 km/h
3150 20-08-2010 06:23:04 11.5 C 8.57 g/m*3 11.5 C 0 km/h
Sensor: Nr:Datum:Temp:Abs-Feuchte:Windchill:Wind:
Aussen-T/F 3151 20-08-2010 06:35:04 11.4 C 8.52 g/m*3 11.4 C 0 km/h
3152 20-08-2010 06:47:04 11.4 C 8.52 g/m*3 11.4 C 0 km/h
3153 20-08-2010 06:59:04 11.5 C 8.57 g/m*3 11.5 C 0 km/h
3154 20-08-2010 07:11:04 11.6 C 8.63 g/m*3 11.6 C 0 km/h
3155 20-08-2010 07:23:04 11.6 C 8.73 g/m*3 11.6 C 0 km/h
3156 20-08-2010 07:35:03 11.7 C 8.79 g/m*3 11.7 C 0 km/h
3157 20-08-2010 07:47:03 11.8 C 8.84 g/m*3 11.8 C 0 km/h
3158 20-08-2010 07:59:03 12.1 C 8.9 g/m*3 12.1 C 0 km/h
3159 20-08-2010 08:11:02 12.1 C 9.01 g/m*3 12.1 C 0 km/h
3160 20-08-2010 08:23:02 12.3 C 9.12 g/m*3 12.3 C 0 km/h
3161 20-08-2010 08:35:02 12.5 C 9.24 g/m*3 12.5 C 0 km/h
3162 20-08-2010 08:47:02 12.8 C 9.3 g/m*3 12.8 C 0 km/h
3163 20-08-2010 08:59:02 13 C 9.3 g/m*3 13 C 0 km/h
3164 20-08-2010 09:11:02 13.3 C 9.47 g/m*3 13.3 C 0 km/h
3165 20-08-2010 09:23:02 13.8 C 9.77 g/m*3 13.8 C 0 km/h
3166 20-08-2010 09:35:02 14.4 C 9.89 g/m*3 14.4 C 0 km/h
3167 20-08-2010 09:47:02 15 C 10 g/m*3 15 C 0 km/h
3168 20-08-2010 09:59:02 16 C 10.08 g/m*3 16 C 0 km/h
3169 20-08-2010 10:11:01 16.8 C 10.29 g/m*3 16.8 C 0 km/h
3170 20-08-2010 10:23:01 17.4 C 10.23 g/m*3 17.4 C 0 km/h
3171 20-08-2010 10:35:02 18.1 C 10.2 g/m*3 18.1 C 0 km/h
3172 20-08-2010 10:47:02 18.6 C 10.35 g/m*3 18.6 C 0 km/h
3173 20-08-2010 10:59:02 19.2 C 10.39 g/m*3 19.2 C 0 km/h
3174 20-08-2010 11:11:02 19.8 C 10.76 g/m*3 19.8 C 0 km/h
3175 20-08-2010 11:23:02 20.5 C 10.68 g/m*3 20.5 C 0 km/h
Sensor: Nr:Datum:Temp:Abs-Feuchte:Windchill:Wind:
Aussen-T/F 3176 20-08-2010 11:35:02 20.9 C 10.75 g/m*3 20.9 C 0 km/h
3177 20-08-2010 11:47:02 21.7 C 11.06 g/m*3 21.7 C 0 km/h
3178 20-08-2010 11:59:02 22 C 11.06 g/m*3 22 C 0 km/h
3179 20-08-2010 12:11:02 22.8 C 10.97 g/m*3 22.8 C 0 km/h
3180 20-08-2010 12:23:02 23.2 C 10.6 g/m*3 23.2 C 0 km/h
3181 20-08-2010 12:35:02 23.7 C 11.12 g/m*3 23.7 C 0 km/h
3182 20-08-2010 12:47:01 24.1 C 10.72 g/m*3 24.1 C 0 km/h
3183 20-08-2010 12:59:01 25 C 10.82 g/m*3 25 C 0 km/h
3184 20-08-2010 13:11:01 25.6 C 9.52 g/m*3 25.6 C 0 km/h
3185 20-08-2010 13:23:01 26.4 C 9.71 g/m*3 26.4 C 0 km/h
3186 20-08-2010 13:35:01 27 C 9.01 g/m*3 27 C 0 km/h
3187 20-08-2010 13:47:02 27.5 C 9 g/m*3 27.5 C 0 km/h
3188 20-08-2010 13:59:02 27.3 C 7.85 g/m*3 27.3 C 0 km/h
3189 20-08-2010 14:11:02 27.8 C 8.07 g/m*3 27.8 C 0 km/h
3190 20-08-2010 14:23:03 28.4 C 8.06 g/m*3 28.4 C 0 km/h
3191 20-08-2010 14:35:02 28.1 C 7.11 g/m*3 28.1 C 0 km/h
3192 20-08-2010 14:47:02 28.6 C 8.43 g/m*3 28.6 C 0 km/h
3193 20-08-2010 14:59:02 28.9 C 7.43 g/m*3 28.9 C 0 km/h
3194 20-08-2010 15:11:02 28.9 C 7.43 g/m*3 28.9 C 0 km/h
3195 20-08-2010 15:23:02 29 C 7.18 g/m*3 29 C 0 km/h
3196 20-08-2010 15:35:01 29.5 C 7.67 g/m*3 29.5 C 0 km/h
3197 20-08-2010 15:47:02 30.1 C 7.32 g/m*3 30.1 C 0 km/h
3198 20-08-2010 15:59:02 30.2 C 7.66 g/m*3 30.2 C 0 km/h
3199 20-08-2010 16:11:01 30.4 C 7.75 g/m*3 30.4 C 0 km/h
3200 20-08-2010 16:23:02 30.5 C 7.48 g/m*3 30.5 C 0 km/h
Sensor: Nr:Datum:Temp:Abs-Feuchte:Windchill:Wind:
Aussen-T/F 3201 20-08-2010 16:35:02 30.9 C 7.96 g/m*3 30.9 C 0 km/h
3202 20-08-2010 16:47:02 31 C 7.36 g/m*3 31 C 0 km/h
3203 20-08-2010 16:59:02 30.8 C 7.28 g/m*3 30.8 C 0 km/h
3204 20-08-2010 17:11:02 30.9 C 7.64 g/m*3 30.9 C 0 km/h
3205 20-08-2010 17:23:02 31.2 C 7.12 g/m*3 31.2 C 0 km/h
3206 20-08-2010 17:35:02 31.3 C 7.48 g/m*3 31.3 C 0 km/h
3207 20-08-2010 17:47:02 31.4 C 7.19 g/m*3 31.4 C 0 km/h
3208 20-08-2010 17:59:02 31 C 7.04 g/m*3 31 C 0 km/h
3209 20-08-2010 18:11:02 31.3 C 7.48 g/m*3 31.3 C 0 km/h
3210 20-08-2010 18:23:02 31.4 C 7.52 g/m*3 31.4 C 0 km/h
3211 20-08-2010 18:35:02 31.5 C 7.56 g/m*3 31.5 C 0 km/h
3212 20-08-2010 18:47:02 31 C 7.36 g/m*3 31 C 0 km/h
3213 20-08-2010 18:59:02 30.9 C 8.28 g/m*3 30.9 C 0 km/h
3214 20-08-2010 19:11:02 30.6 C 8.46 g/m*3 30.6 C 0 km/h
3215 20-08-2010 19:23:03 30.3 C 8.63 g/m*3 30.3 C 0 km/h
3216 20-08-2010 19:35:01 30 C 8.49 g/m*3 30 C 0 km/h
3217 20-08-2010 19:47:02 29 C 8.04 g/m*3 29 C 0 km/h
3218 20-08-2010 19:59:02 28 C 8.43 g/m*3 28 C 0 km/h
3219 20-08-2010 20:11:02 26.6 C 8.81 g/m*3 26.6 C 0 km/h
3220 20-08-2010 20:23:02 25.6 C 9.05 g/m*3 25.6 C 0 km/h
3221 20-08-2010 20:35:01 25 C 9.21 g/m*3 25 C 0 km/h
3222 20-08-2010 20:47:02 24.5 C 8.95 g/m*3 24.5 C 0 km/h
3223 20-08-2010 20:59:03 23.8 C 9.25 g/m*3 23.8 C 0 km/h
3224 20-08-2010 21:11:01 23.4 C 9.25 g/m*3 23.4 C 0 km/h
3225 20-08-2010 21:23:01 23.3 C 9.41 g/m*3 23.3 C 0 km/h
Sensor: Nr:Datum:Temp:Abs-Feuchte:Windchill:Wind:
Aussen-T/F 3226 20-08-2010 21:35:01 23.2 C 9.56 g/m*3 23.2 C 0 km/h